Provisional Data: Chemung River at West Elmira, NY


Please select a monitoring station.
Please select start date.
Please select start date.

Toggle Unit: C/F Toggle Unit: C/F
Sample Time Temperature (C) Temperature (F) Specific Conductivity (mS/cm) pH   Turbidity (NTU+) DO (mg/L)
8/9/2021 12:00:00 AM 22.72 72.896 0.282 7.86 93.07 7.79
8/9/2021 12:15:00 AM 22.71 72.878 0.283 7.86 85.82 7.81
8/9/2021 12:30:00 AM 22.71 72.878 0.283 7.87 93.91 7.84
8/9/2021 12:45:00 AM 22.71 72.878 0.284 7.88 85.67 7.75
8/9/2021 1:00:00 AM 22.71 72.878 0.284 7.89 89.58 7.9
8/9/2021 1:15:00 AM 22.72 72.896 0.285 7.9 87.66 7.94
8/9/2021 1:30:00 AM 22.72 72.896 0.286 7.91 71.99 7.98
8/9/2021 1:45:00 AM 22.72 72.896 0.287 7.93 69.45 8.03
8/9/2021 2:00:00 AM 22.72 72.896 0.288 7.93 60.59 8.05
8/9/2021 2:15:00 AM 22.72 72.896 0.289 7.94 59.76 8.07
8/9/2021 2:30:00 AM 22.73 72.914 0.29 7.96 56.1 8.08
8/9/2021 2:45:00 AM 22.73 72.914 0.291 7.97 52.99 8.11
8/9/2021 3:00:00 AM 22.73 72.914 0.291 7.98 49.5 8.12
8/9/2021 3:15:00 AM 22.73 72.914 0.292 7.99 51.67 8.13
8/9/2021 3:30:00 AM 22.73 72.914 0.293 8 49.71 8.13
8/9/2021 3:45:00 AM 22.73 72.914 0.294 8.01 54.53 8.12
8/9/2021 4:00:00 AM 22.73 72.914 0.295 8.01 46.37 8.11
8/9/2021 4:15:00 AM 22.73 72.914 0.296 8.02 43.87 8.11
8/9/2021 4:30:00 AM 22.74 72.932 0.296 8.02 41.99 8.09
8/9/2021 4:45:00 AM 22.74 72.932 0.297 8.02 43.93 8.06
8/9/2021 5:00:00 AM 22.74 72.932 0.297 8.02 41.37 8.04
8/9/2021 5:15:00 AM 22.74 72.932 0.297 8.02 41.34 8.02
8/9/2021 5:30:00 AM 22.74 72.932 0.298 8.02 40.88 7.95
8/9/2021 5:45:00 AM 22.74 72.932 0.298 8.01 40.17 7.95
8/9/2021 6:00:00 AM 22.74 72.932 0.298 8.01 40.3 7.89
8/9/2021 6:15:00 AM 22.74 72.932 0.297 8 40.36 7.91
8/9/2021 6:30:00 AM 22.74 72.932 0.297 8 41.47 7.84
8/9/2021 6:45:00 AM 22.74 72.932 0.297 8 42.79 7.83
8/9/2021 7:00:00 AM 22.74 72.932 0.296 7.99 38.79 7.81
8/9/2021 7:15:00 AM 22.74 72.932 0.296 7.98 38.47 7.8
8/9/2021 7:30:00 AM 22.74 72.932 0.295 7.99 36.38 7.8
8/9/2021 7:45:00 AM 22.75 72.95 0.294 7.99 35.97 7.81
8/9/2021 8:00:00 AM 22.76 72.968 0.293 7.97 36.55 7.81
8/9/2021 8:15:00 AM 22.77 72.986 0.292 7.99 36.97 7.85
8/9/2021 8:30:00 AM 22.78 73.004 0.291 8 36.41 7.89
8/9/2021 8:45:00 AM 22.8 73.04 0.29 8 34.98 7.93
8/9/2021 9:00:00 AM 22.83 73.094 0.289 8 34.96 8.01
8/9/2021 9:15:00 AM 22.9 73.22 0.288 8.03 34.73 8.14
8/9/2021 9:30:00 AM 22.97 73.346 0.286 8.05 34.96 8.25
8/9/2021 9:45:00 AM 23.05 73.49 0.286 8.08 34.64 8.4
8/9/2021 10:00:00 AM 23.15 73.67 0.284 8.12 33.71 8.61
8/9/2021 10:15:00 AM 23.25 73.85 0.283 8.15 34.04 8.83
8/9/2021 10:30:00 AM 23.36 74.048 0.282 8.2 33.21 9
8/9/2021 10:45:00 AM 23.48 74.264 0.281 8.24 33.26 9.2
8/9/2021 11:00:00 AM 23.6 74.48 0.28 8.29 32.83 9.37
8/9/2021 11:15:00 AM 23.71 74.67799 0.28 8.33 34.18 9.54
8/9/2021 11:30:00 AM 23.84 74.912 0.279 8.37 33.52 9.74
8/9/2021 11:45:00 AM 23.95 75.11 0.278 8.42 33.02 9.87
8/9/2021 12:00:00 PM 24.08 75.344 0.278 8.45 31.35 10.04
8/9/2021 12:15:00 PM 24.19 75.542 0.277 8.49 31.86 10.19
8/9/2021 12:30:00 PM 24.31 75.758 0.277 8.53 31.78 10.31
8/9/2021 12:45:00 PM 24.43 75.974 0.277 8.57 27.65 10.47
8/9/2021 1:00:00 PM 24.53 76.154 0.276 8.6 27.98 10.6
8/9/2021 1:15:00 PM 24.61 76.298 0.276 8.61 27.31 10.72
8/9/2021 1:30:00 PM 24.7 76.46 0.276 8.64 26.76 10.8
8/9/2021 1:45:00 PM 24.79 76.622 0.277 8.66 27.14 10.89
8/9/2021 2:00:00 PM 24.84 76.712 0.277 8.68 26.56 10.94
8/9/2021 2:15:00 PM 24.87 76.766 0.277 8.68 27.8 10.97
8/9/2021 2:30:00 PM 24.93 76.874 0.278 8.7 28.44 11.03
8/9/2021 2:45:00 PM 24.98 76.964 0.279 8.7 27.12 11.05
8/9/2021 3:00:00 PM 25.01 77.018 0.279 8.71 26.76 11.08
8/9/2021 3:15:00 PM 25.08 77.144 0.28 8.74 28.64 11.15
8/9/2021 3:30:00 PM 25.14 77.252 0.28 8.74 26.44 11.18
8/9/2021 3:45:00 PM 25.17 77.306 0.281 8.74 27.16 11.19
8/9/2021 4:00:00 PM 25.19 77.342 0.281 8.76 26.81 11.19
8/9/2021 4:15:00 PM 25.23 77.414 0.282 8.76 27.22 11.23
8/9/2021 4:30:00 PM 25.22 77.396 0.282 8.75 26.3 11.21
8/9/2021 4:45:00 PM 25.23 77.414 0.282 8.77 27.21 11.22
8/9/2021 5:00:00 PM 25.24 77.432 0.283 8.76 26.62 11.19
8/9/2021 5:15:00 PM 25.2 77.36 0.283 8.76 27.06 11.15
8/9/2021 5:30:00 PM 25.17 77.306 0.283 8.76 26.55 11.11
8/9/2021 5:45:00 PM 25.14 77.252 0.283 8.75 26.29 11
8/9/2021 6:00:00 PM 25.08 77.144 0.283 8.73 27.41 10.9
8/9/2021 6:15:00 PM 25.05 77.09 0.284 8.73 26.96 10.84
8/9/2021 6:30:00 PM 25.01 77.018 0.284 8.71 28.15 10.77
8/9/2021 6:45:00 PM 24.98 76.964 0.284 8.72 26.18 10.68
8/9/2021 7:00:00 PM 24.94 76.892 0.284 8.7 26.01 10.64
8/9/2021 7:15:00 PM 24.9 76.82 0.283 8.7 26.71 10.56
8/9/2021 7:30:00 PM 24.86 76.748 0.283 8.68 26.15 10.48
8/9/2021 7:45:00 PM 24.81 76.658 0.283 8.67 26.4 10.39
8/9/2021 8:00:00 PM 24.77 76.586 0.283 8.66 26.38 10.27
8/9/2021 8:15:00 PM 24.73 76.514 0.283 8.64 25.79 10.17
8/9/2021 8:30:00 PM 24.69 76.442 0.282 8.63 25.92 10.06
8/9/2021 8:45:00 PM 24.65 76.37 0.282 8.61 26.08 9.95
8/9/2021 9:00:00 PM 24.61 76.298 0.282 8.59 25.99 9.86
8/9/2021 9:15:00 PM 24.57 76.226 0.282 8.56 25.77 9.74
8/9/2021 9:30:00 PM 24.53 76.154 0.282 8.55 25.29 9.63
8/9/2021 9:45:00 PM 24.5 76.1 0.282 8.53 25.8 9.55
8/9/2021 10:00:00 PM 24.46 76.028 0.283 8.52 25.51 9.46
8/9/2021 10:15:00 PM 24.42 75.956 0.283 8.5 25.35 9.37
8/9/2021 10:30:00 PM 24.39 75.902 0.284 8.49 26.39 9.28
8/9/2021 10:45:00 PM 24.35 75.83 0.284 8.47 25.94 9.18
8/9/2021 11:00:00 PM 24.32 75.776 0.285 8.45 24.62 9.11
8/9/2021 11:15:00 PM 24.29 75.722 0.286 8.42 27.06 9.02
8/9/2021 11:30:00 PM 24.26 75.668 0.287 8.41 25.56 8.94
8/9/2021 11:45:00 PM 24.24 75.632 0.288 8.41 24.83 8.88
8/10/2021 12:00:00 AM 24.21 75.578 0.289 8.39 25.68 8.81
8/10/2021 12:15:00 AM 24.19 75.542 0.29 8.37 25.5 8.75
8/10/2021 12:30:00 AM 24.16 75.488 0.29 8.36 25.47 8.71
8/10/2021 12:45:00 AM 24.14 75.452 0.291 8.36 24.95 8.65
8/10/2021 1:00:00 AM 24.12 75.416 0.292 8.34 26.11 8.57
8/10/2021 1:15:00 AM 24.1 75.38 0.293 8.33 25.33 8.52
8/10/2021 1:30:00 AM 24.08 75.344 0.293 8.32 25.13 8.47
8/10/2021 1:45:00 AM 24.06 75.308 0.294 8.31 25.44 8.41
8/10/2021 2:00:00 AM 24.04 75.272 0.294 8.29 24.71 8.34
8/10/2021 2:15:00 AM 24.02 75.236 0.295 8.28 24.91 8.31
8/10/2021 2:30:00 AM 24 75.2 0.295 8.27 25.27 8.26
8/10/2021 2:45:00 AM 23.98 75.164 0.295 8.24 27.57 8.21
8/10/2021 3:00:00 AM 23.96 75.128 0.296 8.24 26.73 8.15
8/10/2021 3:15:00 AM 23.94 75.092 0.296 8.23 27.14 8.11
8/10/2021 3:30:00 AM 23.92 75.056 0.296 8.2 26.83 8.03
8/10/2021 3:45:00 AM 23.9 75.02 0.296 8.2 27.2 8
8/10/2021 4:00:00 AM 23.87 74.966 0.296 8.18 26.9 7.92
8/10/2021 4:15:00 AM 23.85 74.93 0.296 8.16 27.07 7.9
8/10/2021 4:30:00 AM 23.83 74.894 0.296 8.16 26.87 7.84
8/10/2021 4:45:00 AM 23.81 74.858 0.297 8.15 26.6 7.77
8/10/2021 5:00:00 AM 23.78 74.804 0.297 8.14 26.88 7.77
8/10/2021 5:15:00 AM 23.76 74.768 0.297 8.11 26.99 7.73
8/10/2021 5:30:00 AM 23.74 74.732 0.297 8.12 26.87 7.69
8/10/2021 5:45:00 AM 23.72 74.696 0.298 8.08 27.49 7.63
8/10/2021 6:00:00 AM 23.7 74.66 0.298 8.09 27.36 7.6
8/10/2021 6:15:00 AM 23.68 74.624 0.298 8.09 27.16 7.57
8/10/2021 6:30:00 AM 23.66 74.588 0.298 8.07 26.92 7.53
8/10/2021 6:45:00 AM 23.64 74.552 0.299 8.05 27.35 7.5
8/10/2021 7:00:00 AM 23.63 74.534 0.299 8.05 27.12 7.5
8/10/2021 7:15:00 AM 23.65 74.57 0.299 8.04 26.95 7.5
8/10/2021 7:30:00 AM 23.66 74.588 0.3 8.06 26.82 7.54
8/10/2021 7:45:00 AM 23.68 74.624 0.3 8.06 27.26 7.59
8/10/2021 8:00:00 AM 23.69 74.642 0.3 8.07 28.02 7.64
8/10/2021 8:15:00 AM 23.71 74.67799 0.301 8.09 28.08 7.74
8/10/2021 8:30:00 AM 23.73 74.714 0.301 8.1 27.05 7.81
8/10/2021 8:45:00 AM 23.76 74.768 0.301 8.13 26.65 7.9
8/10/2021 9:00:00 AM 23.8 74.84 0.302 8.14 27.22 8.02
8/10/2021 9:15:00 AM 23.84 74.912 0.302 8.14 27.19 8.06
8/10/2021 9:30:00 AM 23.85 74.93 0.302 8.17 27.1 8.11
8/10/2021 9:45:00 AM 23.88 74.984 0.303 8.17 27.29 8.2
8/10/2021 10:00:00 AM 23.93 75.074 0.303 8.21 26.99 8.38
8/10/2021 10:15:00 AM 23.96 75.128 0.303 8.23 26.95 8.42
8/10/2021 10:30:00 AM 24.01 75.218 0.303 8.26 27.13 8.53
8/10/2021 10:45:00 AM 24.05 75.29 0.304 8.28 27.11 8.64
8/10/2021 11:00:00 AM 24.11 75.398 0.304 8.3 27.03 8.73
8/10/2021 11:15:00 AM 24.19 75.542 0.304 8.34 27.13 8.92
8/10/2021 11:30:00 AM 24.31 75.758 0.305 8.36 26.73 9.02
8/10/2021 11:45:00 AM 24.38 75.884 0.305 8.4 26.98 9.21
8/10/2021 12:00:00 PM 24.43 75.974 0.305 8.44 26.44 9.37
8/10/2021 12:15:00 PM 24.54 76.172 0.305 8.48 26.59 9.57
8/10/2021 12:30:00 PM 24.66 76.388 0.305 8.51 26.43 9.77
8/10/2021 12:45:00 PM 24.78 76.604 0.306 8.55 26.59 9.95
8/10/2021 1:00:00 PM 24.85 76.73 0.306 8.58 26.51 10.04
8/10/2021 1:15:00 PM 24.96 76.92799 0.306 8.62 26.6 10.23
8/10/2021 1:30:00 PM 25.05 77.09 0.307 8.65 26.41 10.37
8/10/2021 1:45:00 PM 25.14 77.252 0.307 8.67 26.13 10.46
8/10/2021 2:00:00 PM 25.25 77.45 0.307 8.68 26.8 10.62
8/10/2021 2:15:00 PM 25.37 77.666 0.307 8.72 26.61 10.71
8/10/2021 2:30:00 PM 25.49 77.882 0.308 8.73 26.59 10.86
8/10/2021 2:45:00 PM 25.57 78.026 0.31 8.77 26.96 10.92
8/10/2021 3:00:00 PM 25.66 78.188 0.31 8.79 26.45 11.12
8/10/2021 3:15:00 PM 25.76 78.368 0.31 8.8 26.66 11.18
8/10/2021 3:30:00 PM 25.86 78.548 0.311 8.81 26.4 11.28
8/10/2021 3:45:00 PM 25.91 78.638 0.311 8.82 26.38 11.33
8/10/2021 4:00:00 PM 25.93 78.674 0.312 8.84 26.39 11.36
8/10/2021 4:15:00 PM 25.94 78.692 0.312 8.84 26.33 11.39
8/10/2021 4:30:00 PM 25.95 78.71 0.312 8.84 26.4 11.42
8/10/2021 4:45:00 PM 26 78.8 0.313 8.85 26.69 11.44
8/10/2021 5:00:00 PM 26.04 78.872 0.313 8.85 26.63 11.43
8/10/2021 5:15:00 PM 26.05 78.89 0.314 8.87 26.62 11.48
8/10/2021 5:30:00 PM 26.05 78.89 0.314 8.87 26.57 11.47
8/10/2021 5:45:00 PM 26.06 78.908 0.315 8.87 26.8 11.44
8/10/2021 6:00:00 PM 26.06 78.908 0.315 8.88 27.18 11.42
8/10/2021 6:15:00 PM 26.04 78.872 0.316 8.86 27.05 11.38
8/10/2021 6:30:00 PM 26 78.8 0.317 8.86 27.99 11.27
8/10/2021 6:45:00 PM 25.96 78.728 0.317 8.86 27.78 11.2
8/10/2021 7:00:00 PM 25.92 78.656 0.318 8.85 26.67 11.11
8/10/2021 7:15:00 PM 25.89 78.602 0.319 8.84 26.7 10.98
8/10/2021 7:30:00 PM 25.85 78.53 0.319 8.81 26.89 10.84
8/10/2021 7:45:00 PM 25.82 78.476 0.32 8.81 26.91 10.76
8/10/2021 8:00:00 PM 25.78 78.404 0.321 8.79 27.2 10.57
8/10/2021 8:15:00 PM 25.73 78.314 0.322 8.76 27.47 10.4
8/10/2021 8:30:00 PM 25.68 78.224 0.322 8.75 27.03 10.3
8/10/2021 8:45:00 PM 25.64 78.152 0.323 8.73 27.05 10.13
8/10/2021 9:00:00 PM 25.59 78.062 0.324 8.71 27.38 10.01
8/10/2021 9:15:00 PM 25.55 77.99 0.325 8.69 27.58 9.89
8/10/2021 9:30:00 PM 25.51 77.918 0.325 8.65 27.26 9.73
8/10/2021 9:45:00 PM 25.46 77.828 0.326 8.64 27.42 9.57
8/10/2021 10:00:00 PM 25.41 77.738 0.327 8.61 27.26 9.45
8/10/2021 10:15:00 PM 25.36 77.648 0.327 8.58 27.29 9.32
8/10/2021 10:30:00 PM 25.31 77.558 0.328 8.56 27.68 9.21
8/10/2021 10:45:00 PM 25.26 77.468 0.328 8.54 27.72 9.09
8/10/2021 11:00:00 PM 25.22 77.396 0.329 8.5 28.47 8.97
8/10/2021 11:15:00 PM 25.17 77.306 0.33 8.49 28.46 8.86
8/10/2021 11:30:00 PM 25.12 77.216 0.33 8.47 28.02 8.81
8/10/2021 11:45:00 PM 25.08 77.144 0.331 8.45 28.13 8.71
8/11/2021 12:00:00 AM 25.03 77.054 0.332 8.43 27.79 8.63
8/11/2021 12:15:00 AM 24.99 76.982 0.332 8.4 28.17 8.55
8/11/2021 12:30:00 AM 24.94 76.892 0.333 8.39 28.02 8.47
8/11/2021 12:45:00 AM 24.9 76.82 0.333 8.38 27.85 8.43
8/11/2021 1:00:00 AM 24.86 76.748 0.334 8.36 28.35 8.35
8/11/2021 1:15:00 AM 24.82 76.676 0.334 8.33 28.03 8.3
8/11/2021 1:30:00 AM 24.77 76.586 0.335 8.33 28.25 8.24
8/11/2021 1:45:00 AM 24.73 76.514 0.335 8.32 27.8 8.2
8/11/2021 2:00:00 AM 24.69 76.442 0.336 8.3 27.98 8.15
8/11/2021 2:15:00 AM 24.64 76.352 0.336 8.3 28.06 8.11
8/11/2021 2:30:00 AM 24.6 76.28 0.337 8.29 28.04 8.06
8/11/2021 2:45:00 AM 24.56 76.208 0.337 8.26 27.97 8.01
8/11/2021 3:00:00 AM 24.52 76.136 0.338 8.27 27.79 7.99
8/11/2021 3:15:00 AM 24.49 76.082 0.338 8.24 28 7.92
8/11/2021 3:30:00 AM 24.45 76.01 0.339 8.24 28.51 7.9
8/11/2021 3:45:00 AM 24.41 75.938 0.339 8.24 28.48 7.86
8/11/2021 4:00:00 AM 24.37 75.866 0.339 8.22 28.18 7.81
8/11/2021 4:15:00 AM 24.33 75.794 0.34 8.22 27.96 7.76
8/11/2021 4:30:00 AM 24.29 75.722 0.34 8.19 28.13 7.71
8/11/2021 4:45:00 AM 24.25 75.65 0.341 8.2 28.29 7.7
8/11/2021 5:00:00 AM 24.21 75.578 0.341 8.17 28.22 7.65
8/11/2021 5:15:00 AM 24.17 75.506 0.342 8.17 27.91 7.63
8/11/2021 5:30:00 AM 24.13 75.434 0.342 8.16 28.34 7.61
8/11/2021 5:45:00 AM 24.09 75.362 0.343 8.16 28.88 7.55
8/11/2021 6:00:00 AM 24.06 75.308 0.343 8.13 28.59 7.52
8/11/2021 6:15:00 AM 24.02 75.236 0.343 8.13 28.65 7.46
8/11/2021 6:30:00 AM 23.99 75.182 0.344 8.12 28.19 7.44
8/11/2021 6:45:00 AM 23.97 75.146 0.344 8.11 28.16 7.39
8/11/2021 7:00:00 AM 23.95 75.11 0.345 8.11 28.93 7.42
8/11/2021 7:15:00 AM 23.94 75.092 0.345 8.11 29.72 7.41
8/11/2021 7:30:00 AM 23.93 75.074 0.345 8.1 28.48 7.39
8/11/2021 7:45:00 AM 23.92 75.056 0.346 8.11 27.88 7.41
8/11/2021 8:00:00 AM 23.93 75.074 0.346 8.1 29.19 7.46
8/11/2021 8:15:00 AM 23.96 75.128 0.347 8.1 27.8 7.51
8/11/2021 8:30:00 AM 23.98 75.164 0.347 8.1 28.61 7.53
8/11/2021 8:45:00 AM 24.03 75.254 0.347 8.13 27.91 7.67
8/11/2021 9:00:00 AM 24.07 75.326 0.348 8.14 29.62 7.71
8/11/2021 9:15:00 AM 24.1 75.38 0.348 8.17 28.52 7.85
8/11/2021 9:30:00 AM 24.15 75.47 0.348 8.18 28.32 8
8/11/2021 9:45:00 AM 24.19 75.542 0.349 8.2 28.74 7.94
8/11/2021 10:00:00 AM 24.23 75.614 0.349 8.23 28.29 8.19
8/11/2021 10:15:00 AM 24.28 75.704 0.349 8.24 28.47 8.28
8/11/2021 10:30:00 AM 24.34 75.812 0.349 8.25 30.28 8.39
8/11/2021 10:45:00 AM 24.43 75.974 0.35 8.28 30.23 8.5
8/11/2021 11:00:00 AM 24.54 76.172 0.35 8.31 29.32 8.67
8/11/2021 11:15:00 AM 24.65 76.37 0.35 8.34 30 8.81
8/11/2021 11:30:00 AM 24.78 76.604 0.351 8.38 29.97 9.02
8/11/2021 11:45:00 AM 24.92 76.856 0.351 8.41 30.2 9.24
8/11/2021 12:00:00 PM 25.08 77.144 0.351 8.46 30.66 9.45
8/11/2021 12:15:00 PM 25.22 77.396 0.351 8.5 31.5 9.64
8/11/2021 12:30:00 PM 25.32 77.576 0.351 8.53 30.99 9.79
8/11/2021 12:45:00 PM 25.42 77.756 0.351 8.55 29.81 9.96
8/11/2021 1:00:00 PM 25.57 78.026 0.352 8.59 29.92 10.06
8/11/2021 1:15:00 PM 25.68 78.224 0.352 8.6 29.35 10.12
8/11/2021 1:30:00 PM 25.72 78.296 0.352 8.62 28.92 10.17
8/11/2021 1:45:00 PM 25.81 78.458 0.352 8.64 28.95 10.3
8/11/2021 2:00:00 PM 25.94 78.692 0.352 8.66 27.59 10.48
8/11/2021 2:15:00 PM 26.09 78.962 0.352 8.69 29.05 10.58
8/11/2021 2:30:00 PM 26.21 79.17799 0.352 8.7 28.49 10.69
8/11/2021 2:45:00 PM 26.31 79.358 0.352 8.74 28.39 10.81
8/11/2021 3:00:00 PM 26.4 79.52 0.352 8.74 28.64 10.9
8/11/2021 3:15:00 PM 26.49 79.682 0.352 8.78 28.77 11.02
8/11/2021 3:30:00 PM 26.56 79.808 0.352 8.79 28.38 11.1
8/11/2021 3:45:00 PM 26.62 79.916 0.353 8.79 28.6 11.16
8/11/2021 4:00:00 PM 26.69 80.042 0.353 8.82 28.47 11.22
8/11/2021 4:15:00 PM 26.75 80.15 0.353 8.83 28.33 11.24
8/11/2021 4:30:00 PM 26.82 80.276 0.353 8.84 28.22 11.29
8/11/2021 4:45:00 PM 26.86 80.348 0.353 8.84 28.57 11.32
8/11/2021 5:00:00 PM 26.9 80.42 0.353 8.85 28.67 11.37
8/11/2021 5:15:00 PM 26.93 80.474 0.354 8.86 28.53 11.35
8/11/2021 5:30:00 PM 26.96 80.528 0.354 8.87 28.38 11.38
8/11/2021 5:45:00 PM 26.98 80.564 0.354 8.88 28.4 11.38
8/11/2021 6:00:00 PM 26.98 80.564 0.354 8.87 28.49 11.31
8/11/2021 6:15:00 PM 26.97 80.546 0.354 8.88 28.38 11.22
8/11/2021 6:30:00 PM 26.95 80.51 0.355 8.88 28.25 11.22
8/11/2021 6:45:00 PM 26.92 80.456 0.355 8.87 28.41 11.08
8/11/2021 7:00:00 PM 26.89 80.402 0.355 8.87 28.57 11.04
8/11/2021 7:15:00 PM 26.88 80.384 0.356 8.87 27.77 10.96
8/11/2021 7:30:00 PM 26.86 80.348 0.356 8.85 28.85 10.86
8/11/2021 7:45:00 PM 26.83 80.294 0.357 8.85 28.56 10.74
8/11/2021 8:00:00 PM 26.79 80.222 0.357 8.84 28.49 10.62
8/11/2021 8:15:00 PM 26.76 80.168 0.357 8.83 28.43 10.49
8/11/2021 8:30:00 PM 26.72 80.096 0.358 8.82 28.42 10.35
8/11/2021 8:45:00 PM 26.67 80.006 0.358 8.81 27.36 10.23
8/11/2021 9:00:00 PM 26.63 79.934 0.358 8.79 27.02 10.08
8/11/2021 9:15:00 PM 26.58 79.844 0.359 8.78 27.07 9.95
8/11/2021 9:30:00 PM 26.52 79.736 0.36 8.76 27.52 9.82
8/11/2021 9:45:00 PM 26.47 79.646 0.36 8.75 27.61 9.68
8/11/2021 10:00:00 PM 26.42 79.556 0.361 8.74 28.76 9.55
8/11/2021 10:15:00 PM 26.36 79.448 0.361 8.71 29.25 9.39
8/11/2021 10:30:00 PM 26.3 79.34 0.362 8.7 29.02 9.28
8/11/2021 10:45:00 PM 26.25 79.25 0.362 8.68 29.2 9.18
8/11/2021 11:00:00 PM 26.19 79.142 0.363 8.65 30.17 9.03
8/11/2021 11:15:00 PM 26.13 79.034 0.363 8.64 29.63 8.93
8/11/2021 11:30:00 PM 26.07 78.926 0.364 8.62 29.77 8.83
8/11/2021 11:45:00 PM 26 78.8 0.364 8.6 29.49 8.73
8/12/2021 12:00:00 AM 25.94 78.692 0.365 8.59 29.48 8.64
8/12/2021 12:15:00 AM 25.89 78.602 0.365 8.56 27.99 8.52
8/12/2021 12:30:00 AM 25.83 78.494 0.366 8.54 28.48 8.42
8/12/2021 12:45:00 AM 25.78 78.404 0.366 8.53 27.89 8.35
8/12/2021 1:00:00 AM 25.72 78.296 0.367 8.51 28.05 8.28
8/12/2021 1:15:00 AM 25.67 78.206 0.367 8.5 27.94 8.21
8/12/2021 1:30:00 AM 25.62 78.116 0.368 8.48 27.9 8.14
8/12/2021 1:45:00 AM 25.56 78.008 0.368 8.46 28.7 8.08
8/12/2021 2:00:00 AM 25.51 77.918 0.369 8.45 28.83 8
8/12/2021 2:15:00 AM 25.45 77.81 0.369 8.43 28.22 7.97
8/12/2021 2:30:00 AM 25.4 77.72 0.369 8.42 28.82 7.94
8/12/2021 2:45:00 AM 25.35 77.63 0.37 8.41 28.39 7.86
8/12/2021 3:00:00 AM 25.29 77.522 0.37 8.39 30.34 7.85
8/12/2021 3:15:00 AM 25.24 77.432 0.371 8.39 30.11 7.78
8/12/2021 3:30:00 AM 25.19 77.342 0.371 8.38 29.26 7.76
8/12/2021 3:45:00 AM 25.13 77.234 0.372 8.37 29.57 7.71
8/12/2021 4:00:00 AM 25.09 77.162 0.372 8.36 29.42 7.68
8/12/2021 4:15:00 AM 25.04 77.07201 0.372 8.35 28.75 7.6
8/12/2021 4:30:00 AM 25 77 0.373 8.34 28.96 7.59
8/12/2021 4:45:00 AM 24.96 76.92799 0.373 8.33 28.89 7.55
8/12/2021 5:00:00 AM 24.91 76.838 0.373 8.31 28.92 7.5
8/12/2021 5:15:00 AM 24.87 76.766 0.374 8.3 29.27 7.51
8/12/2021 5:30:00 AM 24.82 76.676 0.374 8.3 30.32 7.45
8/12/2021 5:45:00 AM 24.77 76.586 0.374 8.28 29.47 7.43
8/12/2021 6:00:00 AM 24.73 76.514 0.375 8.26 30.36 7.33
8/12/2021 6:15:00 AM 24.69 76.442 0.375 8.26 30.06 7.35
8/12/2021 6:30:00 AM 24.64 76.352 0.375 8.25 29.63 7.34
8/12/2021 6:45:00 AM 24.6 76.28 0.376 8.23 29.73 7.29
8/12/2021 7:00:00 AM 24.57 76.226 0.376 8.23 29.84 7.13
8/12/2021 7:15:00 AM 24.55 76.19 0.376 8.22 29.55 7.28
8/12/2021 7:30:00 AM 24.53 76.154 0.376 8.22 29.14 7.3
8/12/2021 7:45:00 AM 24.53 76.154 0.377 8.22 29.79 7.34
8/12/2021 8:00:00 AM 24.53 76.154 0.377 8.21 29.82 7.37
8/12/2021 8:15:00 AM 24.54 76.172 0.377 8.23 29.73 7.43
8/12/2021 8:30:00 AM 24.56 76.208 0.377 8.23 29.7 7.43
8/12/2021 8:45:00 AM 24.6 76.28 0.378 8.24 37.27 7.58
8/12/2021 9:00:00 AM 24.65 76.37 0.378 8.25 29.77 7.71
8/12/2021 9:15:00 AM 24.72 76.496 0.378 8.27 29.4 7.78
8/12/2021 9:30:00 AM 24.79 76.622 0.378 8.28 29.49 7.92
8/12/2021 9:45:00 AM 24.87 76.766 0.378 8.3 29.24 8.04
8/12/2021 10:00:00 AM 24.98 76.964 0.379 8.33 29.43 8.24
8/12/2021 10:15:00 AM 25.06 77.108 0.379 8.35 29.57 8.32
8/12/2021 10:30:00 AM 25.18 77.324 0.379 8.36 29.32 8.5
8/12/2021 10:45:00 AM 25.31 77.558 0.379 8.39 29.39 8.7
8/12/2021 11:00:00 AM 25.37 77.666 0.379 8.42 31.1 8.83
8/12/2021 11:15:00 AM 25.44 77.792 0.379 8.44 30.39 8.99
8/12/2021 11:30:00 AM 25.51 77.918 0.379 8.46 30.28 9.07
8/12/2021 11:45:00 AM 25.53 77.954 0.38 8.47 29.65 9.15
8/12/2021 12:00:00 PM 25.54 77.972 0.38 8.49 29.44 9.27
8/12/2021 12:15:00 PM 25.61 78.098 0.38 8.51 29.86 9.36
8/12/2021 12:30:00 PM 25.76 78.368 0.38 8.53 29.73 9.48
8/12/2021 12:45:00 PM 25.9 78.62 0.38 8.53 29.94 9.51
8/12/2021 1:00:00 PM 26.06 78.908 0.381 8.56 29.86 9.7
8/12/2021 1:15:00 PM 26.17 79.106 0.381 8.57 29.91 9.8
8/12/2021 1:30:00 PM 26.33 79.394 0.381 8.6 30.45 9.95
8/12/2021 1:45:00 PM 26.48 79.664 0.381 8.61 29.65 9.98
8/12/2021 2:00:00 PM 26.53 79.754 0.381 8.63 29.43 10.11
8/12/2021 2:15:00 PM 26.57 79.826 0.381 8.65 29.16 10.23
8/12/2021 2:30:00 PM 26.59 79.862 0.381 8.66 28.96 10.26
8/12/2021 2:45:00 PM 26.58 79.844 0.382 8.66 28.71 10.25
8/12/2021 3:00:00 PM 26.55 79.79 0.382 8.66 28.73 10.17
8/12/2021 3:15:00 PM 26.49 79.682 0.382 8.65 29.2 10.03
8/12/2021 3:30:00 PM 26.43 79.574 0.383 8.63 29.3 9.88
8/12/2021 3:45:00 PM 26.4 79.52 0.383 8.6 30.99 9.76
8/12/2021 4:00:00 PM 26.39 79.502 0.383 8.6 30.74 9.69
8/12/2021 4:15:00 PM 26.38 79.484 0.383 8.59 30.83 9.57
8/12/2021 4:30:00 PM 26.38 79.484 0.384 8.6 30.57 9.69
8/12/2021 4:45:00 PM 26.43 79.574 0.384 8.61 30.51 9.76
8/12/2021 5:00:00 PM 26.49 79.682 0.384 8.63 30.27 9.82
8/12/2021 5:15:00 PM 26.54 79.772 0.384 8.65 30.06 9.9
8/12/2021 5:30:00 PM 26.58 79.844 0.384 8.66 30.2 10.01
8/12/2021 5:45:00 PM 26.61 79.898 0.384 8.67 29.79 10.04
8/12/2021 6:00:00 PM 26.58 79.844 0.384 8.68 30.04 10.05
8/12/2021 6:15:00 PM 26.53 79.754 0.384 8.68 29.7 9.98
8/12/2021 6:30:00 PM 26.51 79.718 0.384 8.66 29.99 9.91
8/12/2021 6:45:00 PM 26.52 79.736 0.384 8.67 29.74 9.91
8/12/2021 7:00:00 PM 26.5 79.7 0.385 8.65 29.39 9.76
8/12/2021 7:15:00 PM 26.46 79.628 0.385 8.64 29.18 9.62
8/12/2021 7:30:00 PM 26.42 79.556 0.385 8.63 29.14 9.57
8/12/2021 7:45:00 PM 26.39 79.502 0.385 8.62 28.85 9.48
8/12/2021 8:00:00 PM 26.37 79.466 0.386 8.62 28.99 9.46
8/12/2021 8:15:00 PM 26.35 79.43 0.386 8.61 28.88 9.36
8/12/2021 8:30:00 PM 26.32 79.376 0.386 8.6 30.8 9.28
8/12/2021 8:45:00 PM 26.3 79.34 0.386 8.59 31.3 9.17
8/12/2021 9:00:00 PM 26.28 79.304 0.387 8.57 31.33 9.1
8/12/2021 9:15:00 PM 26.26 79.268 0.387 8.57 30.81 9.03
8/12/2021 9:30:00 PM 26.23 79.214 0.387 8.54 30.08 8.91
8/12/2021 9:45:00 PM 26.2 79.16 0.387 8.53 29.67 8.8
8/12/2021 10:00:00 PM 26.16 79.088 0.388 8.52 29.55 8.68
8/12/2021 10:15:00 PM 26.12 79.016 0.388 8.49 28.97 8.6
8/12/2021 10:30:00 PM 26.08 78.944 0.388 8.48 28.96 8.49
8/12/2021 10:45:00 PM 26.04 78.872 0.389 8.46 29.77 8.38
8/12/2021 11:00:00 PM 25.99 78.782 0.389 8.44 29.61 8.32
8/12/2021 11:15:00 PM 25.96 78.728 0.389 8.43 29.49 8.23
8/12/2021 11:30:00 PM 25.91 78.638 0.389 8.41 28.94 8.14
8/12/2021 11:45:00 PM 25.87 78.566 0.39 8.39 28.34 8.02
8/13/2021 12:00:00 AM 25.83 78.494 0.39 8.37 27.72 7.93
8/13/2021 12:15:00 AM 25.79 78.422 0.39 8.34 27.59 7.86
8/13/2021 12:30:00 AM 25.75 78.35 0.391 8.33 27.73 7.82
8/13/2021 12:45:00 AM 25.71 78.278 0.391 8.32 27.83 7.79
8/13/2021 1:00:00 AM 25.68 78.224 0.391 8.3 28.24 7.69
8/13/2021 1:15:00 AM 25.64 78.152 0.392 8.28 28.09 7.66
8/13/2021 1:30:00 AM 25.6 78.08 0.392 8.28 28.03 7.61
8/13/2021 1:45:00 AM 25.56 78.008 0.392 8.26 28.05 7.55
8/13/2021 2:00:00 AM 25.52 77.936 0.393 8.25 28.49 7.48
8/13/2021 2:15:00 AM 25.47 77.846 0.393 8.23 28.18 7.47
8/13/2021 2:30:00 AM 25.43 77.774 0.394 8.23 29.85 7.42
8/13/2021 2:45:00 AM 25.39 77.702 0.394 8.21 29.53 7.37
8/13/2021 3:00:00 AM 25.34 77.612 0.394 8.2 29.12 7.35
8/13/2021 3:15:00 AM 25.29 77.522 0.394 8.19 29.48 7.33
8/13/2021 3:30:00 AM 25.25 77.45 0.395 8.18 29.03 7.26
8/13/2021 3:45:00 AM 25.2 77.36 0.395 8.16 29.19 7.24
8/13/2021 4:00:00 AM 25.15 77.27 0.395 8.16 29.13 7.21
8/13/2021 4:15:00 AM 25.1 77.18 0.396 8.15 28.8 7.19
8/13/2021 4:30:00 AM 25.06 77.108 0.396 8.15 29.13 7.17
8/13/2021 4:45:00 AM 25.01 77.018 0.396 8.13 27.39 7.12
8/13/2021 5:00:00 AM 24.96 76.92799 0.397 8.13 27.12 7.1
8/13/2021 5:15:00 AM 24.91 76.838 0.397 8.11 26.85 7.07
8/13/2021 5:30:00 AM 24.86 76.748 0.398 8.1 26.95 7.01
8/13/2021 5:45:00 AM 24.81 76.658 0.398 8.1 28.19 7.02
8/13/2021 6:00:00 AM 24.77 76.586 0.398 8.09 28.71 6.99
8/13/2021 6:15:00 AM 24.72 76.496 0.399 8.09 27.94 6.97
8/13/2021 6:30:00 AM 24.67 76.406 0.399 8.07 28.9 6.96
8/13/2021 6:45:00 AM 24.63 76.334 0.399 8.07 28.57 6.95
8/13/2021 7:00:00 AM 24.61 76.298 0.399 8.07 28.47 6.95
8/13/2021 7:15:00 AM 24.59 76.262 0.4 8.05 28.16 6.94
8/13/2021 7:30:00 AM 24.57 76.226 0.4 8.06 28.27 6.95
8/13/2021 7:45:00 AM 24.55 76.19 0.4 8.06 28.5 7.04
8/13/2021 8:00:00 AM 24.54 76.172 0.401 8.05 28.25 7.04
8/13/2021 8:15:00 AM 24.53 76.154 0.401 8.06 28.23 7.1
8/13/2021 8:30:00 AM 24.53 76.154 0.401 8.06 27.77 7.18
8/13/2021 8:45:00 AM 24.52 76.136 0.402 8.07 27.94 7.25
8/13/2021 9:00:00 AM 24.53 76.154 0.402 8.06 28.63 7.32
8/13/2021 9:15:00 AM 24.58 76.244 0.402 8.09 27.97 7.47
8/13/2021 9:30:00 AM 24.62 76.316 0.402 8.1 27.82 7.54
8/13/2021 9:45:00 AM 24.67 76.406 0.403 8.12 27.91 7.65
8/13/2021 10:00:00 AM 24.75 76.55 0.403 8.13 28.29 7.85
8/13/2021 10:15:00 AM 24.86 76.748 0.403 8.16 28.03 7.99
8/13/2021 10:30:00 AM 24.98 76.964 0.403 8.18 28.33 8.2
8/13/2021 10:45:00 AM 25.03 77.054 0.403 8.21 28.05 8.32
8/13/2021 11:00:00 AM 25.1 77.18 0.403 8.23 28.32 8.51
8/13/2021 11:15:00 AM 25.17 77.306 0.403 8.25 28.92 8.63
8/13/2021 11:30:00 AM 25.24 77.432 0.403 8.28 27.76 8.84
8/13/2021 11:45:00 AM 25.35 77.63 0.404 8.29 27.89 8.91
8/13/2021 12:00:00 PM 25.52 77.936 0.404 8.33 27.63 9.06
8/13/2021 12:15:00 PM 25.66 78.188 0.404 8.34 27.89 9.23
8/13/2021 12:30:00 PM 25.8 78.44 0.404 8.37 27.61 9.37
8/13/2021 12:45:00 PM 25.93 78.674 0.404 8.39 27.34 9.55
8/13/2021 1:00:00 PM 26.08 78.944 0.404 8.41 27.62 9.74
8/13/2021 1:15:00 PM 26.22 79.196 0.404 8.45 27.37 9.92
8/13/2021 1:30:00 PM 26.42 79.556 0.404 8.48 28.36 10.07
8/13/2021 1:45:00 PM 26.58 79.844 0.404 8.5 27.79 10.21
8/13/2021 2:00:00 PM 26.72 80.096 0.404 8.51 27.93 10.29
8/13/2021 2:15:00 PM 26.82 80.276 0.405 8.53 29.76 10.37
8/13/2021 2:30:00 PM 26.92 80.456 0.405 8.54 28.9 10.45
8/13/2021 2:45:00 PM 26.95 80.51 0.405 8.56 28.61 10.53
8/13/2021 3:00:00 PM 26.95 80.51 0.405 8.57 27.94 10.53
8/13/2021 3:15:00 PM 26.98 80.564 0.405 8.58 27.64 10.61
8/13/2021 3:30:00 PM 27.04 80.672 0.405 8.58 27.77 10.61
8/13/2021 3:45:00 PM 27.1 80.78 0.405 8.59 29.82 10.69
8/13/2021 4:00:00 PM 27.1 80.78 0.405 8.6 29.33 10.67
8/13/2021 4:15:00 PM 27.1 80.78 0.405 8.61 28.89 10.68
8/13/2021 4:30:00 PM 27.1 80.78 0.405 8.62 28.52 10.77
8/13/2021 4:45:00 PM 27.06 80.708 0.405 8.63 28.79 10.72
8/13/2021 5:00:00 PM 27.01 80.618 0.406 8.62 30.21 10.68
8/13/2021 5:15:00 PM 26.92 80.456 0.405 8.62 29.63 10.55
8/13/2021 5:30:00 PM 26.86 80.348 0.405 8.61 28.68 10.47
8/13/2021 5:45:00 PM 26.83 80.294 0.406 8.61 29.07 10.39
8/13/2021 6:00:00 PM 26.8 80.24 0.406 8.61 29.46 10.37
8/13/2021 6:15:00 PM 26.77 80.186 0.406 8.59 29.13 10.23
8/13/2021 6:30:00 PM 26.74 80.132 0.406 8.59 29.13 10.19
8/13/2021 6:45:00 PM 26.71 80.078 0.406 8.59 29.1 10.14
8/13/2021 7:00:00 PM 26.69 80.042 0.406 8.59 28.65 10.13
8/13/2021 7:15:00 PM 26.65 79.97 0.406 8.6 28.9 10.13
8/13/2021 7:30:00 PM 26.61 79.898 0.407 8.58 28.9 10.06
8/13/2021 7:45:00 PM 26.57 79.826 0.407 8.6 28.79 10.03
8/13/2021 8:00:00 PM 26.52 79.736 0.407 8.59 28.99 9.97
8/13/2021 8:15:00 PM 26.48 79.664 0.407 8.58 29.18 9.84
8/13/2021 8:30:00 PM 26.43 79.574 0.407 8.56 29.35 9.75
8/13/2021 8:45:00 PM 26.38 79.484 0.407 8.55 29.1 9.6
8/13/2021 9:00:00 PM 26.32 79.376 0.408 8.53 30.07 9.43
8/13/2021 9:15:00 PM 26.28 79.304 0.408 8.5 29.85 9.27
8/13/2021 9:30:00 PM 26.23 79.214 0.408 8.48 29.85 9.12
8/13/2021 9:45:00 PM 26.19 79.142 0.408 8.47 29.43 9.03
8/13/2021 10:00:00 PM 26.16 79.088 0.409 8.46 29.64 8.94
8/13/2021 10:15:00 PM 26.13 79.034 0.409 8.44 29.48 8.85
8/13/2021 10:30:00 PM 26.09 78.962 0.409 8.43 29.13 8.77
8/13/2021 10:45:00 PM 26.07 78.926 0.409 8.42 29.63 8.7
8/13/2021 11:00:00 PM 26.04 78.872 0.409 8.42 29.99 8.63
8/13/2021 11:15:00 PM 26 78.8 0.409 8.39 29.83 8.56
8/13/2021 11:30:00 PM 25.96 78.728 0.409 8.39 29.2 8.48
8/13/2021 11:45:00 PM 25.92 78.656 0.409 8.37 29.29 8.38
8/14/2021 12:00:00 AM 25.87 78.566 0.409 8.36 29.17 8.28
8/14/2021 12:15:00 AM 25.83 78.494 0.409 8.34 29.75 8.22
8/14/2021 12:30:00 AM 25.78 78.404 0.409 8.32 30.13 8.12
8/14/2021 12:45:00 AM 25.73 78.314 0.409 8.3 29.83 8.05
8/14/2021 1:00:00 AM 25.68 78.224 0.409 8.29 29.05 7.99
8/14/2021 1:15:00 AM 25.62 78.116 0.41 8.27 29.05 7.92
8/14/2021 1:30:00 AM 25.57 78.026 0.409 8.27 29.22 7.88
8/14/2021 1:45:00 AM 25.52 77.936 0.409 8.26 29.09 7.83
8/14/2021 2:00:00 AM 25.47 77.846 0.409 8.25 28.56 7.79
8/14/2021 2:15:00 AM 25.42 77.756 0.41 8.23 28.53 7.68
8/14/2021 2:30:00 AM 25.36 77.648 0.41 8.22 28.41 7.69
8/14/2021 2:45:00 AM 25.31 77.558 0.41 8.22 28.48 7.64
8/14/2021 3:00:00 AM 25.26 77.468 0.41 8.21 28.63 7.59
8/14/2021 3:15:00 AM 25.2 77.36 0.41 8.2 28.86 7.56
8/14/2021 3:30:00 AM 25.16 77.288 0.41 8.18 29.48 7.5
8/14/2021 3:45:00 AM 25.11 77.198 0.41 8.18 30.41 7.46
8/14/2021 4:00:00 AM 25.06 77.108 0.41 8.17 29.98 7.43
8/14/2021 4:15:00 AM 25.02 77.036 0.41 8.17 29.27 7.42
8/14/2021 4:30:00 AM 24.97 76.946 0.41 8.16 29.06 7.39
8/14/2021 4:45:00 AM 24.93 76.874 0.41 8.16 29.13 7.35
8/14/2021 5:00:00 AM 24.88 76.784 0.41 8.14 28.86 7.31
8/14/2021 5:15:00 AM 24.84 76.712 0.411 8.14 28.94 7.29
8/14/2021 5:30:00 AM 24.8 76.64 0.411 8.14 28.78 7.27
8/14/2021 5:45:00 AM 24.76 76.568 0.411 8.13 29.38 7.24
8/14/2021 6:00:00 AM 24.72 76.496 0.411 8.12 29.98 7.23
8/14/2021 6:15:00 AM 24.68 76.424 0.411 8.11 29.65 7.2
8/14/2021 6:30:00 AM 24.64 76.352 0.411 8.11 29.39 7.15
8/14/2021 6:45:00 AM 24.6 76.28 0.411 8.1 29.45 7.14
8/14/2021 7:00:00 AM 24.55 76.19 0.412 8.1 27.79 7.13
8/14/2021 7:15:00 AM 24.51 76.118 0.412 8.1 27.62 7.09
8/14/2021 7:30:00 AM 24.47 76.046 0.412 8.08 27.76 7.1
8/14/2021 7:45:00 AM 24.42 75.956 0.412 8.08 28.05 7.08
8/14/2021 8:00:00 AM 24.38 75.884 0.412 8.08 27.08 7.08
8/14/2021 8:15:00 AM 24.34 75.812 0.412 8.08 26.88 7.08
8/14/2021 8:30:00 AM 24.31 75.758 0.413 8.07 27.31 7.08
8/14/2021 8:45:00 AM 24.27 75.686 0.413 8.08 27.01 7.14
8/14/2021 9:00:00 AM 24.23 75.614 0.413 8.07 29.97 7.13
8/14/2021 9:15:00 AM 24.2 75.56 0.413 8.08 29.84 7.17
8/14/2021 9:30:00 AM 24.18 75.524 0.413 8.08 29.97 7.24
8/14/2021 9:45:00 AM 24.15 75.47 0.413 8.08 28.93 7.32
8/14/2021 10:00:00 AM 24.12 75.416 0.413 8.07 30.06 7.3
8/14/2021 10:15:00 AM 24.09 75.362 0.413 8.07 29.53 7.33
8/14/2021 10:30:00 AM 24.07 75.326 0.413 8.1 29.48 7.43
8/14/2021 10:45:00 AM 24.07 75.326 0.413 8.1 29.51 7.57
8/14/2021 11:00:00 AM 24.09 75.362 0.413 8.12 29.69 7.67
8/14/2021 11:15:00 AM 24.1 75.38 0.413 8.12 30.09 7.8
8/14/2021 11:30:00 AM 24.14 75.452 0.413 8.15 30.19 7.98
8/14/2021 11:45:00 AM 24.17 75.506 0.413 8.17 30.21 8.12
8/14/2021 12:00:00 PM 24.18 75.524 0.414 8.19 30.17 8.21
8/14/2021 12:15:00 PM 24.19 75.542 0.414 8.22 30.01 8.42
8/14/2021 12:30:00 PM 24.23 75.614 0.414 8.25 30.03 8.58
8/14/2021 12:45:00 PM 24.3 75.74 0.414 8.27 30.24 8.71
8/14/2021 1:00:00 PM 24.36 75.848 0.414 8.28 30.54 8.86
8/14/2021 1:15:00 PM 24.41 75.938 0.414 8.31 30.2 8.96
8/14/2021 1:30:00 PM 24.52 76.136 0.414 8.33 29.85 9.1
8/14/2021 1:45:00 PM 24.67 76.406 0.414 8.35 30.02 9.29
8/14/2021 2:00:00 PM 24.81 76.658 0.414 8.37 30.33 9.38
8/14/2021 2:15:00 PM 24.92 76.856 0.413 8.39 30.77 9.51
8/14/2021 2:30:00 PM 25.07 77.126 0.413 8.41 30.34 9.72
8/14/2021 2:45:00 PM 25.23 77.414 0.413 8.44 30.33 9.85
8/14/2021 3:00:00 PM 25.36 77.648 0.413 8.46 33.16 9.95
8/14/2021 3:15:00 PM 25.49 77.882 0.412 8.48 33.41 10.06
8/14/2021 3:30:00 PM 25.6 78.08 0.412 8.5 33.38 10.24
8/14/2021 3:45:00 PM 25.69 78.242 0.412 8.51 33.73 10.31
8/14/2021 4:00:00 PM 25.78 78.404 0.411 8.53 33.42 10.36
8/14/2021 4:15:00 PM 25.88 78.584 0.411 8.54 32.32 10.41
8/14/2021 4:30:00 PM 25.92 78.656 0.411 8.56 31.99 10.47
8/14/2021 4:45:00 PM 25.95 78.71 0.41 8.57 32.05 10.55
8/14/2021 5:00:00 PM 26.01 78.818 0.41 8.58 32.76 10.61
8/14/2021 5:15:00 PM 26.03 78.854 0.409 8.59 32.89 10.64
8/14/2021 5:30:00 PM 26.03 78.854 0.409 8.59 32.52 10.62
8/14/2021 5:45:00 PM 26.02 78.836 0.409 8.59 33.15 10.63
8/14/2021 6:00:00 PM 26.01 78.818 0.408 8.61 32.81 10.57
8/14/2021 6:15:00 PM 25.99 78.782 0.408 8.61 33.67 10.62
8/14/2021 6:30:00 PM 25.95 78.71 0.407 8.61 33.28 10.57
8/14/2021 6:45:00 PM 25.88 78.584 0.406 8.61 33.2 10.52
8/14/2021 7:00:00 PM 25.83 78.494 0.406 8.61 32.71 10.39
8/14/2021 7:15:00 PM 25.77 78.386 0.405 8.6 32.88 10.38
8/14/2021 7:30:00 PM 25.71 78.278 0.405 8.59 33.05 10.29
8/14/2021 7:45:00 PM 25.65 78.17 0.404 8.59 33.11 10.2
8/14/2021 8:00:00 PM 25.59 78.062 0.404 8.59 33.59 10.15
8/14/2021 8:15:00 PM 25.53 77.954 0.403 8.58 34.01 9.95
8/14/2021 8:30:00 PM 25.47 77.846 0.403 8.57 33.66 9.91
8/14/2021 8:45:00 PM 25.42 77.756 0.403 8.56 37.88 9.75
8/14/2021 9:00:00 PM 25.36 77.648 0.402 8.54 34.51 9.73
8/14/2021 9:15:00 PM 25.29 77.522 0.402 8.52 36.13 9.6
8/14/2021 9:30:00 PM 25.22 77.396 0.402 8.51 36.68 9.48
8/14/2021 9:45:00 PM 25.16 77.288 0.401 8.48 35.24 9.3
8/14/2021 10:00:00 PM 25.08 77.144 0.401 8.48 38.49 9.28
8/14/2021 10:15:00 PM 25.01 77.018 0.401 8.45 35.6 9.15
8/14/2021 10:30:00 PM 24.93 76.874 0.4 8.43 35.95 9.09
8/14/2021 10:45:00 PM 24.85 76.73 0.4 8.43 35.01 9.03
8/14/2021 11:00:00 PM 24.78 76.604 0.4 8.41 35.26 8.89
8/14/2021 11:15:00 PM 24.7 76.46 0.4 8.4 35.07 8.83
8/14/2021 11:30:00 PM 24.62 76.316 0.399 8.38 35.42 8.75
8/14/2021 11:45:00 PM 24.55 76.19 0.399 8.36 35.47 8.64
8/15/2021 12:00:00 AM 24.46 76.028 0.399 8.34 34.81 8.54
8/15/2021 12:15:00 AM 24.38 75.884 0.399 8.32 34.7 8.47
8/15/2021 12:30:00 AM 24.3 75.74 0.398 8.31 34.51 8.37
8/15/2021 12:45:00 AM 24.21 75.578 0.399 8.3 34.48 8.33
8/15/2021 1:00:00 AM 24.13 75.434 0.399 8.28 34.33 8.24
8/15/2021 1:15:00 AM 24.04 75.272 0.399 8.26 34 8.19
8/15/2021 1:30:00 AM 23.95 75.11 0.399 8.26 34.29 8.13
8/15/2021 1:45:00 AM 23.87 74.966 0.399 8.23 33.96 8.07
8/15/2021 2:00:00 AM 23.78 74.804 0.399 8.22 33.76 8.03
8/15/2021 2:15:00 AM 23.69 74.642 0.399 8.2 34.32 8.01
8/15/2021 2:30:00 AM 23.61 74.498 0.4 8.2 33.62 7.95
8/15/2021 2:45:00 AM 23.52 74.336 0.4 8.19 33.42 7.92
8/15/2021 3:00:00 AM 23.44 74.192 0.4 8.18 33.9 7.88
8/15/2021 3:15:00 AM 23.36 74.048 0.4 8.18 33.99 7.87
8/15/2021 3:30:00 AM 23.28 73.904 0.4 8.17 33.65 7.86
8/15/2021 3:45:00 AM 23.2 73.76 0.4 8.16 33.46 7.82
8/15/2021 4:00:00 AM 23.12 73.616 0.4 8.16 33.73 7.79
8/15/2021 4:15:00 AM 23.05 73.49 0.4 8.16 33.53 7.77
8/15/2021 4:30:00 AM 22.98 73.364 0.4 8.15 33.64 7.76
8/15/2021 4:45:00 AM 22.9 73.22 0.4 8.14 34.2 7.74
8/15/2021 5:00:00 AM 22.83 73.094 0.401 8.14 35.51 7.73
8/15/2021 5:15:00 AM 22.76 72.968 0.401 8.14 36.18 7.68
8/15/2021 5:30:00 AM 22.68 72.824 0.401 8.13 34.98 7.71
8/15/2021 5:45:00 AM 22.6 72.68 0.401 8.13 35.96 7.71
8/15/2021 6:00:00 AM 22.54 72.57201 0.401 8.13 36.6 7.66
8/15/2021 6:15:00 AM 22.49 72.482 0.401 8.12 35.16 7.67
8/15/2021 6:30:00 AM 22.44 72.392 0.401 8.12 35.14 7.59
8/15/2021 6:45:00 AM 22.39 72.302 0.401 8.12 35.21 7.62
8/15/2021 7:00:00 AM 22.35 72.23 0.401 8.12 35.61 7.58
8/15/2021 7:15:00 AM 22.32 72.176 0.401 8.12 36.21 7.62
8/15/2021 7:30:00 AM 22.29 72.122 0.401 8.13 36.21 7.64
8/15/2021 7:45:00 AM 22.26 72.068 0.401 8.13 36.07 7.65
8/15/2021 8:00:00 AM 22.23 72.014 0.401 8.13 36.15 7.72
8/15/2021 8:15:00 AM 22.21 71.978 0.401 8.13 36.13 7.73
8/15/2021 8:30:00 AM 22.22 71.996 0.401 8.15 40.39 7.87
8/15/2021 8:45:00 AM 22.22 71.996 0.401 8.16 36.22 7.99
8/15/2021 9:00:00 AM 22.23 72.014 0.401 8.18 36.64 8.07
8/15/2021 9:15:00 AM 22.25 72.05 0.401 8.2 36.45 8.17
8/15/2021 9:30:00 AM 22.28 72.104 0.401 8.21 36.9 8.25
8/15/2021 9:45:00 AM 22.35 72.23 0.401 8.23 36.4 8.39
8/15/2021 10:00:00 AM 22.41 72.338 0.401 8.26 36.53 8.56
8/15/2021 10:15:00 AM 22.49 72.482 0.401 8.28 36.54 8.77
8/15/2021 10:30:00 AM 22.57 72.626 0.401 8.3 35.5 8.88
8/15/2021 10:45:00 AM 22.68 72.824 0.4 8.32 35.37 9.05
8/15/2021 11:00:00 AM 22.79 73.022 0.4 8.34 35.79 9.18
8/15/2021 11:15:00 AM 22.88 73.184 0.4 8.36 35.85 9.32
8/15/2021 11:30:00 AM 23 73.4 0.4 8.38 35.85 9.46
8/15/2021 11:45:00 AM 23.13 73.634 0.4 8.4 35.75 9.6
8/15/2021 12:00:00 PM 23.21 73.778 0.399 8.43 35.46 9.77
8/15/2021 12:15:00 PM 23.33 73.994 0.399 8.44 35.73 9.87
8/15/2021 12:30:00 PM 23.4 74.12 0.399 8.46 35.68 9.97
8/15/2021 12:45:00 PM 23.48 74.264 0.399 8.49 36.14 10.09
8/15/2021 1:00:00 PM 23.55 74.39 0.399 8.5 36.32 10.2
8/15/2021 1:15:00 PM 23.65 74.57 0.398 8.51 35.79 10.23
8/15/2021 1:30:00 PM 23.77 74.786 0.398 8.54 35.38 10.37
8/15/2021 1:45:00 PM 23.83 74.894 0.398 8.55 35.13 10.47
8/15/2021 2:00:00 PM 23.87 74.966 0.398 8.56 34.97 10.55
8/15/2021 2:15:00 PM 23.93 75.074 0.398 8.59 35.29 10.68
8/15/2021 2:30:00 PM 24.06 75.308 0.397 8.6 35.82 10.78
8/15/2021 2:45:00 PM 24.19 75.542 0.397 8.62 35.26 10.87
8/15/2021 3:00:00 PM 24.29 75.722 0.397 8.65 33.67 10.94
8/15/2021 3:15:00 PM 24.37 75.866 0.397 8.66 33.45 11.02
8/15/2021 3:30:00 PM 24.46 76.028 0.397 8.67 34.21 11.08
8/15/2021 3:45:00 PM 24.55 76.19 0.397 8.69 34.13 11.14
8/15/2021 4:00:00 PM 24.59 76.262 0.397 8.69 33.7 11.2
8/15/2021 4:15:00 PM 24.62 76.316 0.397 8.7 33.72 11.21
8/15/2021 4:30:00 PM 24.63 76.334 0.397 8.71 33.93 11.22
8/15/2021 4:45:00 PM 24.66 76.388 0.397 8.72 33.56 11.25
8/15/2021 5:00:00 PM 24.68 76.424 0.396 8.72 34.32 11.24
8/15/2021 5:15:00 PM 24.7 76.46 0.396 8.72 35.27 11.29
8/15/2021 5:30:00 PM 24.71 76.478 0.396 8.73 35.16 11.24
8/15/2021 5:45:00 PM 24.72 76.496 0.396 8.74 35.17 11.29
8/15/2021 6:00:00 PM 24.73 76.514 0.396 8.75 35.36 11.27
8/15/2021 6:15:00 PM 24.72 76.496 0.396 8.76 34.83 11.24
8/15/2021 6:30:00 PM 24.71 76.478 0.396 8.76 34.94 11.2
8/15/2021 6:45:00 PM 24.69 76.442 0.396 8.75 34.96 11.19
8/15/2021 7:00:00 PM 24.68 76.424 0.395 8.75 35.84 11.08
8/15/2021 7:15:00 PM 24.65 76.37 0.395 8.76 35.59 11.03
8/15/2021 7:30:00 PM 24.62 76.316 0.395 8.74 35.86 10.93
8/15/2021 7:45:00 PM 24.59 76.262 0.395 8.74 35.9 10.87
8/15/2021 8:00:00 PM 24.54 76.172 0.394 8.74 35.75 10.78
8/15/2021 8:15:00 PM 24.5 76.1 0.394 8.73 35.51 10.65
8/15/2021 8:30:00 PM 24.45 76.01 0.394 8.72 35.81 10.55
8/15/2021 8:45:00 PM 24.4 75.92 0.394 8.71 36.63 10.44
8/15/2021 9:00:00 PM 24.34 75.812 0.394 8.7 36.21 10.3
8/15/2021 9:15:00 PM 24.27 75.686 0.393 8.69 36.53 10.21
8/15/2021 9:30:00 PM 24.2 75.56 0.393 8.67 36.74 10.06
8/15/2021 9:45:00 PM 24.14 75.452 0.393 8.66 40.29 9.94
8/15/2021 10:00:00 PM 24.08 75.344 0.392 8.64 38.62 9.82
8/15/2021 10:15:00 PM 24.02 75.236 0.392 8.64 38.39 9.74
8/15/2021 10:30:00 PM 23.96 75.128 0.392 8.61 37.87 9.6
8/15/2021 10:45:00 PM 23.89 75.002 0.392 8.61 37.17 9.51
8/15/2021 11:00:00 PM 23.83 74.894 0.391 8.6 35.75 9.47
8/15/2021 11:15:00 PM 23.77 74.786 0.391 8.58 36.73 9.36
8/15/2021 11:30:00 PM 23.71 74.67799 0.39 8.57 35.32 9.26
8/15/2021 11:45:00 PM 23.64 74.552 0.39 8.55 35.44 9.16
8/16/2021 12:00:00 AM 23.57 74.426 0.39 8.55 35.53 9.11
8/16/2021 12:15:00 AM 23.51 74.318 0.389 8.53 36.2 9.02
8/16/2021 12:30:00 AM 23.45 74.21 0.389 8.52 35.79 8.95
8/16/2021 12:45:00 AM 23.38 74.084 0.388 8.51 36.24 8.91
8/16/2021 1:00:00 AM 23.31 73.958 0.388 8.5 36.13 8.83
8/16/2021 1:15:00 AM 23.24 73.832 0.387 8.49 35.85 8.8
8/16/2021 1:30:00 AM 23.17 73.706 0.387 8.48 35.63 8.74
8/16/2021 1:45:00 AM 23.1 73.58 0.386 8.48 36.27 8.71
8/16/2021 2:00:00 AM 23.03 73.454 0.386 8.47 35.92 8.68
8/16/2021 2:15:00 AM 22.97 73.346 0.385 8.46 35.99 8.62
8/16/2021 2:30:00 AM 22.91 73.238 0.385 8.45 36.95 8.57
8/16/2021 2:45:00 AM 22.84 73.112 0.384 8.45 36.39 8.56
8/16/2021 3:00:00 AM 22.78 73.004 0.383 8.44 35.69 8.52
8/16/2021 3:15:00 AM 22.72 72.896 0.383 8.43 35.42 8.5
8/16/2021 3:30:00 AM 22.66 72.788 0.382 8.42 35.72 8.41
8/16/2021 3:45:00 AM 22.59 72.662 0.382 8.42 35.02 8.4
8/16/2021 4:00:00 AM 22.53 72.554 0.381 8.41 34.7 8.39
8/16/2021 4:15:00 AM 22.47 72.446 0.38 8.4 34.75 8.35
8/16/2021 4:30:00 AM 22.4 72.32 0.38 8.39 35.28 8.34
8/16/2021 4:45:00 AM 22.34 72.212 0.379 8.38 34.97 8.3
8/16/2021 5:00:00 AM 22.27 72.086 0.379 8.37 35.11 8.25
8/16/2021 5:15:00 AM 22.21 71.978 0.378 8.35 35.04 8.23
8/16/2021 5:30:00 AM 22.15 71.87 0.377 8.35 34.87 8.22
8/16/2021 5:45:00 AM 22.09 71.762 0.377 8.34 34.24 8.19
8/16/2021 6:00:00 AM 22.03 71.654 0.376 8.33 36.86 8.16
8/16/2021 6:15:00 AM 21.97 71.546 0.376 8.33 35.54 8.13
8/16/2021 6:30:00 AM 21.93 71.474 0.375 8.32 34.81 8.11
8/16/2021 6:45:00 AM 21.89 71.402 0.375 8.29 34.65 8.05
8/16/2021 7:00:00 AM 21.85 71.33 0.374 8.29 36.36 8.01
8/16/2021 7:15:00 AM 21.82 71.276 0.374 8.29 35.5 8.02
8/16/2021 7:30:00 AM 21.81 71.258 0.373 8.28 35.14 8.05
8/16/2021 7:45:00 AM 21.79 71.222 0.373 8.29 35.41 8.07
8/16/2021 8:00:00 AM 21.8 71.24 0.373 8.28 36.4 8.13
8/16/2021 8:15:00 AM 21.8 71.24 0.372 8.29 35.75 8.18
8/16/2021 8:30:00 AM 21.79 71.222 0.372 8.29 35.64 8.2
8/16/2021 8:45:00 AM 21.79 71.222 0.372 8.29 35.8 8.29
8/16/2021 9:00:00 AM 21.8 71.24 0.371 8.31 35.66 8.4
8/16/2021 9:15:00 AM 21.84 71.312 0.371 8.32 36.08 8.48
8/16/2021 9:30:00 AM 21.89 71.402 0.37 8.34 35.48 8.62
8/16/2021 9:45:00 AM 21.92 71.456 0.37 8.35 37.09 8.69
8/16/2021 10:00:00 AM 21.94 71.492 0.37 8.37 36.23 8.81
8/16/2021 10:15:00 AM 21.96 71.528 0.369 8.38 35.95 8.89
8/16/2021 10:30:00 AM 21.99 71.582 0.369 8.39 35.91 8.92
8/16/2021 10:45:00 AM 22.02 71.636 0.369 8.39 36.05 9.06
8/16/2021 11:00:00 AM 22.04 71.672 0.369 8.41 37.69 9.11
8/16/2021 11:15:00 AM 22.05 71.69 0.368 8.41 36.87 9.17
8/16/2021 11:30:00 AM 22.08 71.744 0.368 8.42 37.01 9.21
8/16/2021 11:45:00 AM 22.13 71.834 0.368 8.43 36.94 9.35
8/16/2021 12:00:00 PM 22.21 71.978 0.367 8.46 36.86 9.5
8/16/2021 12:15:00 PM 22.28 72.104 0.367 8.46 37.43 9.54
8/16/2021 12:30:00 PM 22.32 72.176 0.367 8.48 37.3 9.62
8/16/2021 12:45:00 PM 22.37 72.266 0.367 8.5 37.13 9.76
8/16/2021 1:00:00 PM 22.46 72.42799 0.366 8.52 37.34 9.91
8/16/2021 1:15:00 PM 22.6 72.68 0.366 8.54 37.18 10
8/16/2021 1:30:00 PM 22.73 72.914 0.366 8.57 36.55 10.2
8/16/2021 1:45:00 PM 22.76 72.968 0.366 8.58 37.74 10.23
8/16/2021 2:00:00 PM 22.82 73.076 0.366 8.58 38.2 10.34
8/16/2021 2:15:00 PM 22.89 73.202 0.365 8.6 37.09 10.4
8/16/2021 2:30:00 PM 22.91 73.238 0.365 8.61 37.06 10.52
8/16/2021 2:45:00 PM 22.91 73.238 0.365 8.61 37.07 10.5
8/16/2021 3:00:00 PM 22.9 73.22 0.365 8.61 37.1 10.47
8/16/2021 3:15:00 PM 22.89 73.202 0.365 8.62 37.31 10.46
8/16/2021 3:30:00 PM 22.9 73.22 0.365 8.62 37.15 10.51
8/16/2021 3:45:00 PM 22.89 73.202 0.365 8.61 36.21 10.43
8/16/2021 4:00:00 PM 22.87 73.166 0.365 8.6 36.64 10.4
8/16/2021 4:15:00 PM 22.87 73.166 0.365 8.6 35.99 10.36
8/16/2021 4:30:00 PM 22.87 73.166 0.365 8.6 36.62 10.36
8/16/2021 4:45:00 PM 22.87 73.166 0.365 8.6 36.62 10.34
8/16/2021 5:00:00 PM 22.86 73.148 0.365 8.6 35.85 10.32
8/16/2021 5:15:00 PM 22.87 73.166 0.365 8.61 35.78 10.3
8/16/2021 5:30:00 PM 22.87 73.166 0.365 8.6 34.98 10.35
8/16/2021 5:45:00 PM 22.86 73.148 0.365 8.61 35.09 10.32
8/16/2021 6:00:00 PM 22.87 73.166 0.365 8.61 35.17 10.33
8/16/2021 6:15:00 PM 22.86 73.148 0.365 8.61 35.26 10.26
8/16/2021 6:30:00 PM 22.85 73.13 0.365 8.6 35.47 10.27
8/16/2021 6:45:00 PM 22.84 73.112 0.366 8.59 35.23 10.18
8/16/2021 7:00:00 PM 22.82 73.076 0.366 8.59 35.2 10.1
8/16/2021 7:15:00 PM 22.8 73.04 0.366 8.57 34.87 9.99
8/16/2021 7:30:00 PM 22.78 73.004 0.366 8.56 35.78 9.95
8/16/2021 7:45:00 PM 22.75 72.95 0.366 8.54 36.66 9.85
8/16/2021 8:00:00 PM 22.73 72.914 0.366 8.53 36.81 9.77
8/16/2021 8:15:00 PM 22.71 72.878 0.366 8.53 37.84 9.73
8/16/2021 8:30:00 PM 22.69 72.842 0.367 8.51 37.43 9.66
8/16/2021 8:45:00 PM 22.67 72.806 0.367 8.5 37.2 9.61
8/16/2021 9:00:00 PM 22.65 72.77 0.367 8.49 37.18 9.5
8/16/2021 9:15:00 PM 22.63 72.734 0.367 8.47 36.59 9.4
8/16/2021 9:30:00 PM 22.61 72.698 0.367 8.46 37.27 9.34
8/16/2021 9:45:00 PM 22.59 72.662 0.367 8.43 37.03 9.28
8/16/2021 10:00:00 PM 22.57 72.626 0.368 8.42 37.64 9.14
8/16/2021 10:15:00 PM 22.55 72.59 0.368 8.41 37.19 9.12
8/16/2021 10:30:00 PM 22.53 72.554 0.368 8.4 37.75 9.07
8/16/2021 10:45:00 PM 22.51 72.518 0.368 8.39 37.18 9
8/16/2021 11:00:00 PM 22.49 72.482 0.368 8.37 57.21 8.94
8/16/2021 11:15:00 PM 22.46 72.42799 0.368 8.37 33.38 8.9
8/16/2021 11:30:00 PM 22.44 72.392 0.368 8.35 151.16 8.81
8/16/2021 11:45:00 PM 22.41 72.338 0.369 8.34 33.48 8.76
8/17/2021 12:00:00 AM 22.38 72.284 0.369 8.31 32.45 8.68
8/17/2021 12:15:00 AM 22.35 72.23 0.369 8.3 31.37 8.63
8/17/2021 12:30:00 AM 22.32 72.176 0.37 8.28 34.46 8.57
8/17/2021 12:45:00 AM 22.29 72.122 0.37 8.27 32.19 8.53
8/17/2021 1:00:00 AM 22.26 72.068 0.37 8.27 35.27 8.49
8/17/2021 1:15:00 AM 22.23 72.014 0.37 8.26 35.17 8.43
8/17/2021 1:30:00 AM 22.2 71.96 0.371 8.24 34.55 8.41
8/17/2021 1:45:00 AM 22.18 71.924 0.371 8.24 34.21 8.37
8/17/2021 2:00:00 AM 22.15 71.87 0.372 8.24 33.17 8.36
8/17/2021 2:15:00 AM 22.12 71.816 0.372 8.21 33.28 8.3
8/17/2021 2:30:00 AM 22.09 71.762 0.372 8.21 33.04 8.3
8/17/2021 2:45:00 AM 22.06 71.708 0.373 8.2 33.42 8.22
8/17/2021 3:00:00 AM 22.04 71.672 0.373 8.2 32.46 8.2
8/17/2021 3:15:00 AM 22.01 71.618 0.374 8.19 31.95 8.18
8/17/2021 3:30:00 AM 21.99 71.582 0.374 8.18 32.53 8.11
8/17/2021 3:45:00 AM 21.96 71.528 0.374 8.17 32.4 8.11
8/17/2021 4:00:00 AM 21.94 71.492 0.375 8.17 32.56 8.08
8/17/2021 4:15:00 AM 21.91 71.438 0.376 8.16 32.24 8.08
8/17/2021 4:30:00 AM 21.89 71.402 0.376 8.16 32.53 8.07
8/17/2021 4:45:00 AM 21.87 71.366 0.377 8.15 32.56 8.03
8/17/2021 5:00:00 AM 21.85 71.33 0.377 8.15 33.02 8.03
8/17/2021 5:15:00 AM 21.82 71.276 0.378 8.14 32.47 8.02
8/17/2021 5:30:00 AM 21.8 71.24 0.378 8.13 32.84 7.98
8/17/2021 5:45:00 AM 21.78 71.204 0.379 8.13 32.61 7.97
8/17/2021 6:00:00 AM 21.76 71.168 0.379 8.13 33.34 7.94
8/17/2021 6:15:00 AM 21.74 71.132 0.38 8.12 33.34 7.91
8/17/2021 6:30:00 AM 21.67 71.006 0.37 8.12 38.68 8
8/17/2021 6:45:00 AM 21.65 70.97 0.371 8.12 39.71 8.07
8/17/2021 7:00:00 AM 21.64 70.952 0.373 8.11 39.71 8.03
8/17/2021 7:15:00 AM 21.62 70.916 0.374 8.1 35.71 7.99
8/17/2021 7:30:00 AM 21.61 70.898 0.374 8.09 37.77 7.95
8/17/2021 7:45:00 AM 21.54 70.772 0.374 8.08 40.65 7.98
8/17/2021 8:00:00 AM 21.51 70.718 0.375 8.06 39.87 7.92
8/17/2021 8:15:00 AM 21.51 70.718 0.377 8.04 38.84 7.87
8/17/2021 8:30:00 AM 21.51 70.718 0.378 8.04 37.64 7.91
8/17/2021 8:45:00 AM 21.53 70.754 0.379 8.04 36.27 7.94
8/17/2021 9:00:00 AM 21.54 70.772 0.38 8.04 35.3 7.95
8/17/2021 9:15:00 AM 21.55 70.79 0.381 8.05 33.8 8
8/17/2021 9:30:00 AM 21.57 70.826 0.381 8.05 34.85 8.07
8/17/2021 9:45:00 AM 21.6 70.88 0.382 8.06 34.73 8.14
8/17/2021 10:00:00 AM 21.63 70.934 0.382 8.08 36.31 8.2
8/17/2021 10:15:00 AM 21.68 71.024 0.383 8.1 35.13 8.38
8/17/2021 10:30:00 AM 21.72 71.096 0.383 8.12 34.87 8.43
8/17/2021 10:45:00 AM 21.74 71.132 0.383 8.13 34.5 8.56
8/17/2021 11:00:00 AM 21.77 71.186 0.383 8.14 33.38 8.66
8/17/2021 11:15:00 AM 21.85 71.33 0.383 8.16 33.83 8.85
8/17/2021 11:30:00 AM 21.96 71.528 0.383 8.18 34.34 8.95
8/17/2021 11:45:00 AM 22.03 71.654 0.383 8.19 33.84 9.05
8/17/2021 12:00:00 PM 22.07 71.726 0.384 8.2 33.86 9.11
8/17/2021 12:15:00 PM 22.16 71.888 0.384 8.22 34.33 9.23
8/17/2021 12:30:00 PM 22.27 72.086 0.384 8.24 34.12 9.33
8/17/2021 12:45:00 PM 22.38 72.284 0.384 8.27 33.69 9.52
8/17/2021 1:00:00 PM 22.48 72.464 0.384 8.29 34.24 9.66
8/17/2021 1:15:00 PM 22.59 72.662 0.384 8.31 34.07 9.74
8/17/2021 1:30:00 PM 22.64 72.752 0.384 8.33 34.57 9.83
8/17/2021 1:45:00 PM 22.73 72.914 0.384 8.35 34.16 9.92
8/17/2021 2:00:00 PM 22.79 73.022 0.384 8.38 34.2 10.08
8/17/2021 2:15:00 PM 22.82 73.076 0.384 8.39 34.51 10.11
8/17/2021 2:30:00 PM 22.9 73.22 0.384 8.41 34.4 10.24
8/17/2021 2:45:00 PM 22.99 73.382 0.385 8.42 34.58 10.33
8/17/2021 3:00:00 PM 23.08 73.544 0.385 8.44 34.37 10.38
8/17/2021 3:15:00 PM 23.15 73.67 0.385 8.46 34.46 10.52
8/17/2021 3:30:00 PM 23.2 73.76 0.385 8.48 34.44 10.56
8/17/2021 3:45:00 PM 23.27 73.886 0.385 8.51 34.14 10.66
8/17/2021 4:00:00 PM 23.32 73.976 0.385 8.52 34.52 10.66
8/17/2021 4:15:00 PM 23.35 74.03 0.385 8.53 34.79 10.77
8/17/2021 4:30:00 PM 23.38 74.084 0.386 8.54 34.82 10.81
8/17/2021 4:45:00 PM 23.39 74.102 0.386 8.56 35.29 10.86
8/17/2021 5:00:00 PM 23.4 74.12 0.387 8.57 34.28 10.84
8/17/2021 5:15:00 PM 23.41 74.138 0.388 8.57 33.93 10.8
8/17/2021 5:30:00 PM 23.41 74.138 0.388 8.57 33.59 10.82
8/17/2021 5:45:00 PM 23.42 74.156 0.389 8.57 34.29 10.82
8/17/2021 6:00:00 PM 23.42 74.156 0.39 8.56 35.41 10.8
8/17/2021 6:15:00 PM 23.42 74.156 0.391 8.57 35.27 10.83
8/17/2021 6:30:00 PM 23.4 74.12 0.393 8.57 35.53 10.8
8/17/2021 6:45:00 PM 23.37 74.066 0.394 8.56 35.1 10.7
8/17/2021 7:00:00 PM 23.33 73.994 0.396 8.55 35.08 10.61
8/17/2021 7:15:00 PM 23.28 73.904 0.396 8.53 35.31 10.52
8/17/2021 7:30:00 PM 23.24 73.832 0.396 8.52 36.01 10.42
8/17/2021 7:45:00 PM 23.19 73.742 0.396 8.5 35.51 10.27
8/17/2021 8:00:00 PM 23.14 73.652 0.394 8.48 35.81 10.14
8/17/2021 8:15:00 PM 23.1 73.58 0.393 8.45 35.63 9.99
8/17/2021 8:30:00 PM 23.06 73.508 0.391 8.43 35.21 9.87
8/17/2021 8:45:00 PM 23.04 73.472 0.389 8.4 33.82 9.75
8/17/2021 9:00:00 PM 23.01 73.418 0.386 8.39 38.53 9.57
8/17/2021 9:15:00 PM 22.99 73.382 0.384 8.37 33.12 9.49
8/17/2021 9:30:00 PM 22.97 73.346 0.382 8.35 35.87 9.38
8/17/2021 9:45:00 PM 22.95 73.31 0.379 8.33 33.9 9.28
8/17/2021 10:00:00 PM 22.93 73.274 0.377 8.31 34.88 9.18
8/17/2021 10:15:00 PM 22.91 73.238 0.375 8.28 34.67 9.09
8/17/2021 10:30:00 PM 22.89 73.202 0.373 8.27 34.72 8.97
8/17/2021 10:45:00 PM 22.88 73.184 0.372 8.25 34.5 8.9
8/17/2021 11:00:00 PM 22.86 73.148 0.37 8.23 35.23 8.82
8/17/2021 11:15:00 PM 22.84 73.112 0.369 8.22 34.68 8.73
8/17/2021 11:30:00 PM 22.82 73.076 0.368 8.2 34.66 8.68
8/17/2021 11:45:00 PM 22.8 73.04 0.367 8.19 34.71 8.62
8/18/2021 12:00:00 AM 22.79 73.022 0.367 8.17 34.25 8.52
8/18/2021 12:15:00 AM 22.78 73.004 0.366 8.15 34.92 8.43
8/18/2021 12:30:00 AM 22.76 72.968 0.366 8.15 34.86 8.43
8/18/2021 12:45:00 AM 22.76 72.968 0.366 8.15 34.59 8.4
8/18/2021 1:00:00 AM 22.75 72.95 0.365 8.14 34.55 8.36
8/18/2021 1:15:00 AM 22.73 72.914 0.365 8.13 34.25 8.29
8/18/2021 1:30:00 AM 22.72 72.896 0.366 8.11 34.96 8.26
8/18/2021 1:45:00 AM 22.71 72.878 0.366 8.11 34.84 8.2
8/18/2021 2:00:00 AM 22.7 72.86 0.366 8.1 33.96 8.19
8/18/2021 2:15:00 AM 22.69 72.842 0.366 8.09 34.93 8.1
8/18/2021 2:30:00 AM 22.68 72.824 0.366 8.08 34.08 8.11
8/18/2021 2:45:00 AM 22.68 72.824 0.366 8.09 34.37 8.09
8/18/2021 3:00:00 AM 22.67 72.806 0.367 8.08 37.24 8.03
8/18/2021 3:15:00 AM 22.66 72.788 0.367 8.07 38.68 8.04
8/18/2021 3:30:00 AM 22.66 72.788 0.367 8.06 36.73 7.95
8/18/2021 3:45:00 AM 22.65 72.77 0.367 8.07 36.13 7.97
8/18/2021 4:00:00 AM 22.64 72.752 0.368 8.05 35.95 7.93
8/18/2021 4:15:00 AM 22.63 72.734 0.367 8.05 36.68 7.87
8/18/2021 4:30:00 AM 22.62 72.716 0.367 8.05 36.04 7.9
8/18/2021 4:45:00 AM 22.61 72.698 0.368 8.05 36.25 7.89
8/18/2021 5:00:00 AM 22.6 72.68 0.368 8.05 34.93 7.89
8/18/2021 5:15:00 AM 22.59 72.662 0.368 8.04 34.61 7.85
8/18/2021 5:30:00 AM 22.57 72.626 0.368 8.03 34.85 7.81
8/18/2021 5:45:00 AM 22.56 72.608 0.368 8.04 35.85 7.83
8/18/2021 6:00:00 AM 22.55 72.59 0.368 8.03 34.75 7.76
8/18/2021 6:15:00 AM 22.53 72.554 0.368 8.03 35.14 7.8
8/18/2021 6:30:00 AM 22.51 72.518 0.368 8.03 36.48 7.78
8/18/2021 6:45:00 AM 22.5 72.5 0.367 8.04 36.76 7.81
8/18/2021 7:00:00 AM 22.48 72.464 0.367 8.03 36.75 7.78
8/18/2021 7:15:00 AM 22.46 72.42799 0.367 8.04 36.34 7.8
8/18/2021 7:30:00 AM 22.45 72.41 0.366 8.04 36.66 7.83
8/18/2021 7:45:00 AM 22.43 72.374 0.366 8.05 36.56 7.8
8/18/2021 8:00:00 AM 22.41 72.338 0.366 8.05 39.82 7.85
8/18/2021 8:15:00 AM 22.39 72.302 0.366 8.05 34.7 7.88
8/18/2021 8:30:00 AM 22.38 72.284 0.366 8.05 35.87 7.91
8/18/2021 8:45:00 AM 22.39 72.302 0.365 8.06 37.8 7.96
8/18/2021 9:00:00 AM 22.39 72.302 0.363 8.07 38.33 8.03
8/18/2021 9:15:00 AM 22.38 72.284 0.36 8.07 38.95 8.11
8/18/2021 9:30:00 AM 22.35 72.23 0.355 8.06 41.93 8.14
8/18/2021 9:45:00 AM 22.33 72.194 0.35 8.06 51.64 8.23
8/18/2021 10:00:00 AM 22.32 72.176 0.345 8.05 45.75 8.28
8/18/2021 10:15:00 AM 22.3 72.14 0.341 8.03 50.08 8.3
8/18/2021 10:30:00 AM 22.29 72.122 0.336 8.03 53.66 8.3
8/18/2021 10:45:00 AM 22.27 72.086 0.332 8.01 61.67 8.27
8/18/2021 11:00:00 AM 22.26 72.068 0.325 8 72.77 8.21
8/18/2021 11:15:00 AM 22.26 72.068 0.32 7.98 95.8 8.17
8/18/2021 11:30:00 AM 22.25 72.05 0.314 7.95 115.39 8.11
8/18/2021 11:45:00 AM 22.26 72.068 0.308 7.93 117.33 8.05
8/18/2021 12:00:00 PM 22.26 72.068 0.302 7.91 136.61 8
8/18/2021 12:15:00 PM 22.26 72.068 0.296 7.89 160.63 7.96
8/18/2021 12:30:00 PM 22.25 72.05 0.291 7.87 190.49 7.93
8/18/2021 12:45:00 PM 22.24 72.032 0.286 7.85 174.3 7.87
8/18/2021 1:00:00 PM 22.23 72.014 0.282 7.83 180.33 7.86
8/18/2021 1:15:00 PM 22.21 71.978 0.277 7.83 197.82 7.87
8/18/2021 1:30:00 PM 22.2 71.96 0.274 7.82 219.32 7.83
8/18/2021 1:45:00 PM 22.2 71.96 0.272 7.81 199.26 7.84
8/18/2021 2:00:00 PM 22.19 71.942 0.27 7.79 199.57 7.79
8/18/2021 2:15:00 PM 22.2 71.96 0.268 7.8 186.27 7.81
8/18/2021 2:30:00 PM 22.2 71.96 0.267 7.78 200.42 7.8
8/18/2021 2:45:00 PM 22.19 71.942 0.267 7.79 224.78 7.79
8/18/2021 3:00:00 PM 22.18 71.924 0.268 7.79 232.41 7.79
8/18/2021 3:15:00 PM 22.17 71.906 0.268 7.78 261.22 7.79
8/18/2021 3:30:00 PM 22.16 71.888 0.269 7.79 195.8 7.78
8/18/2021 3:45:00 PM 22.13 71.834 0.27 7.79 330.66 7.79
8/18/2021 4:00:00 PM 22.09 71.762 0.269 7.78 227.08 7.82
8/18/2021 4:15:00 PM 22.05 71.69 0.269 7.79 223.78 7.82
8/18/2021 4:30:00 PM 22.01 71.618 0.268 7.78 196.83 7.84
8/18/2021 4:45:00 PM 21.96 71.528 0.267 7.79 235.09 7.81
8/18/2021 5:00:00 PM 21.91 71.438 0.268 7.79 296.22 7.86
8/18/2021 5:15:00 PM 21.87 71.366 0.269 7.78 183.1 7.86
8/18/2021 5:30:00 PM 21.83 71.294 0.271 7.78 199.81 7.86
8/18/2021 5:45:00 PM 21.81 71.258 0.275 7.78 150.29 7.89
8/18/2021 6:00:00 PM 21.8 71.24 0.279 7.78 144.97 7.94
8/18/2021 6:15:00 PM 21.81 71.258 0.284 7.8 130.33 7.98
8/18/2021 6:30:00 PM 21.8 71.24 0.289 7.8 110.19 8.01
8/18/2021 6:45:00 PM 21.77 71.186 0.292 7.82 119.21 8.07
8/18/2021 7:00:00 PM 21.73 71.114 0.295 7.83 128.59 8.13
8/18/2021 7:15:00 PM 21.73 71.114 0.295 7.85 126.97 8.21
8/18/2021 7:30:00 PM 21.74 71.132 0.295 7.85 102.24 8.24
8/18/2021 7:45:00 PM 21.76 71.168 0.295 7.88 88.89 8.28
8/18/2021 8:00:00 PM 21.77 71.186 0.293 7.89 120.48 8.32
8/18/2021 8:15:00 PM 21.76 71.168 0.29 7.89 93.56 8.36
8/18/2021 8:30:00 PM 21.75 71.15 0.286 7.9 115.63 8.38
8/18/2021 8:45:00 PM 21.77 71.186 0.281 7.89 117.05 8.41
8/18/2021 9:00:00 PM 21.77 71.186 0.274 7.9 131.11 8.42
8/18/2021 9:15:00 PM 21.76 71.168 0.266 7.88 143.77 8.42
8/18/2021 9:30:00 PM 21.71 71.078 0.258 7.87 146.24 8.41
8/18/2021 9:45:00 PM 21.66 70.988 0.248 7.85 222.07 8.39
8/18/2021 10:00:00 PM 21.6 70.88 0.242 7.84 227.4 8.37
8/18/2021 10:15:00 PM 21.54 70.772 0.239 7.78 232.34 8.34
8/18/2021 10:30:00 PM 21.49 70.682 0.236 7.78 302.02 8.31
8/18/2021 10:45:00 PM 21.44 70.592 0.233 7.76 309.24 8.3
8/18/2021 11:00:00 PM 21.4 70.52 0.229 7.73 304.6 8.29
8/18/2021 11:15:00 PM 21.36 70.448 0.224 7.76 324.13 8.31
8/18/2021 11:30:00 PM 21.32 70.376 0.218 7.76 363.46 8.31
8/18/2021 11:45:00 PM 21.28 70.304 0.213 7.75 397.52 8.31
8/19/2021 12:00:00 AM 21.26 70.268 0.209 7.73 337.53 8.31
8/19/2021 12:15:00 AM 21.25 70.25 0.206 7.72 367.87 8.3
8/19/2021 12:30:00 AM 21.27 70.286 0.203 7.72 329.38 8.28
8/19/2021 12:45:00 AM 21.29 70.32201 0.201 7.7 378.93 8.26
8/19/2021 1:00:00 AM 21.3 70.34 0.197 7.71 303.46 8.24
8/19/2021 1:15:00 AM 21.27 70.286 0.191 7.7 447.53 8.22
8/19/2021 1:30:00 AM 21.18 70.124 0.185 7.68 539.59 8.22
8/19/2021 1:45:00 AM 21.09 69.962 0.179 7.68 667.31 8.21
8/19/2021 2:00:00 AM 20.98 69.764 0.174 7.66 632.33 8.2
8/19/2021 2:15:00 AM 20.89 69.602 0.167 7.61 624.54 8.2
8/19/2021 2:30:00 AM 20.82 69.476 0.151 7.61 58.25 8.2
8/19/2021 2:45:00 AM 20.76 69.368 0.143 7.61 68.44 8.2
8/19/2021 3:00:00 AM 20.72 69.296 0.138 7.6 76.48 8.2
8/19/2021 3:15:00 AM 20.68 69.224 0.133 7.59 64.19 8.21
8/19/2021 3:30:00 AM 20.63 69.134 0.129 7.58 73.88 8.22
8/19/2021 3:45:00 AM 20.59 69.062 0.126 7.57 72.6 8.24
8/19/2021 4:00:00 AM 20.55 68.99 0.124 7.55 78.87 8.23
8/19/2021 4:15:00 AM 20.5 68.9 0.122 7.53 77.51 8.23
8/19/2021 4:30:00 AM 20.45 68.81 0.121 7.52 107.48 8.21
8/19/2021 4:45:00 AM 20.4 68.72 0.119 7.5 132.88 8.19
8/19/2021 5:00:00 AM 20.36 68.648 0.119 7.48 148.78 8.16
8/19/2021 5:15:00 AM 20.32 68.576 0.118 7.46 165.93 8.14
8/19/2021 5:30:00 AM 20.29 68.522 0.117 7.45 176.88 8.1
8/19/2021 5:45:00 AM 20.26 68.468 0.117 7.45 203.55 8.08
8/19/2021 6:00:00 AM 20.25 68.45 0.117 7.44 223.54 8.06
8/19/2021 6:15:00 AM 20.24 68.432 0.118 7.44 239.06 8.04
8/19/2021 6:30:00 AM 20.24 68.432 0.118 7.44 277.91 8.03
8/19/2021 6:45:00 AM 20.23 68.414 0.118 7.44 281.55 8.02
8/19/2021 7:00:00 AM 20.23 68.414 0.118 7.45 279.79 8.02
8/19/2021 7:15:00 AM 20.23 68.414 0.118 7.45 286.67 8.03
8/19/2021 7:30:00 AM 20.23 68.414 0.119 7.45 301.27 8.02
8/19/2021 7:45:00 AM 20.23 68.414 0.119 7.45 350.79 8.02
8/19/2021 8:00:00 AM 20.24 68.432 0.119 7.45 324.96 8.04
8/19/2021 8:15:00 AM 20.24 68.432 0.119 7.46 362.08 8.04
8/19/2021 8:30:00 AM 20.24 68.432 0.119 7.45 361.23 8.04
8/19/2021 8:45:00 AM 20.25 68.45 0.119 7.46 390.74 8.04
8/19/2021 9:00:00 AM 20.24 68.432 0.119 7.46 368.53 8.05
8/19/2021 9:15:00 AM 20.24 68.432 0.12 7.46 359.3 8.05
8/19/2021 9:30:00 AM 20.24 68.432 0.12 7.46 385.8 8.03
8/19/2021 9:45:00 AM 20.23 68.414 0.119 7.46 459.18 8.04
8/19/2021 10:00:00 AM 20.22 68.396 0.12 7.46 452.07 8.05
8/19/2021 10:15:00 AM 20.22 68.396 0.12 7.47 425.83 8.05
8/19/2021 10:30:00 AM 20.22 68.396 0.121 7.47 451.6 8.05
8/19/2021 10:45:00 AM 20.21 68.378 0.12 7.48 479.83 8.05
8/19/2021 11:00:00 AM 20.2 68.36 0.121 7.49 451.58 8.06
8/19/2021 11:15:00 AM 20.19 68.342 0.121 7.51 485.78 8.04
8/19/2021 11:30:00 AM 20.19 68.342 0.121 7.52 492.34 8.03
8/19/2021 11:45:00 AM 20.19 68.342 0.122 7.54 510.33 8.02
8/19/2021 12:00:00 PM 20.2 68.36 0.122 7.55 535.42 8
8/19/2021 12:15:00 PM 20.2 68.36 0.122 7.56 591.92 7.98
8/19/2021 12:30:00 PM 20.2 68.36 0.123 7.58 577.97 7.97
8/19/2021 12:45:00 PM 20.21 68.378 0.124 7.59 560 7.95
8/19/2021 1:00:00 PM 20.23 68.414 0.123 7.6 543.08 7.94
8/19/2021 1:15:00 PM 20.24 68.432 0.124 7.61 651.65 7.91
8/19/2021 1:30:00 PM 20.24 68.432 0.124 7.62 620.31 7.9
8/19/2021 1:45:00 PM 20.25 68.45 0.124 7.63 716.55 7.88
8/19/2021 2:00:00 PM 20.26 68.468 0.124 7.63 694.4 7.87
8/19/2021 2:15:00 PM 20.26 68.468 0.125 7.64 763.53 7.85
8/19/2021 2:30:00 PM 20.26 68.468 0.125 7.64 763.46 7.85
8/19/2021 2:45:00 PM 20.26 68.468 0.124 7.64 816.57 7.84
8/19/2021 3:00:00 PM 20.26 68.468 0.124 7.65 758.69 7.83
8/19/2021 3:15:00 PM 20.26 68.468 0.124 7.65 926.65 7.83
8/19/2021 3:30:00 PM 20.28 68.504 0.125 7.65 911.55 7.83
8/19/2021 3:45:00 PM 20.3 68.54 0.124 7.63 914.31 7.84
8/19/2021 4:00:00 PM 20.31 68.558 0.124 7.65 905.08 7.84
8/19/2021 4:15:00 PM 20.34 68.612 0.124 7.66 1017.37 7.84
8/19/2021 4:30:00 PM 20.35 68.63 0.125 7.66 1043.33 7.84
8/19/2021 4:45:00 PM 20.36 68.648 0.124 7.66 1264.85 7.85
8/19/2021 5:00:00 PM 20.37 68.666 0.123 7.66 1193.74 7.85
8/19/2021 5:15:00 PM 20.38 68.684 0.153 7.62 1486.99 7.86
8/19/2021 5:30:00 PM 20.4 68.72 0.153 7.66 1411.8 7.87
8/19/2021 5:45:00 PM 20.42 68.756 0.153 7.66 1797.8 7.87
8/19/2021 6:00:00 PM 20.43 68.774 0.154 7.65 1362.94 7.88
8/19/2021 6:15:00 PM 20.44 68.792 0.154 7.68 1434.79 7.89
8/19/2021 6:30:00 PM 20.45 68.81 0.154 7.68 1646.58 7.9
8/19/2021 6:45:00 PM 20.46 68.828 0.154 7.68 1389.75 7.9
8/19/2021 7:00:00 PM 20.48 68.864 0.154 7.68 1346.38 7.92
8/19/2021 7:15:00 PM 20.5 68.9 0.154 7.69 1482.42 7.92
8/19/2021 7:30:00 PM 20.51 68.918 0.155 7.69 1476.69 7.92
8/19/2021 7:45:00 PM 20.52 68.936 0.155 7.68 1272.83 7.94
8/19/2021 8:00:00 PM 20.52 68.936 0.155 7.68 1490.76 7.94
8/19/2021 8:15:00 PM 20.52 68.936 0.155 7.66 1287.74 7.95
8/19/2021 8:30:00 PM 20.52 68.936 0.156 7.68 1309.3 7.96
8/19/2021 8:45:00 PM 20.53 68.954 0.156 7.67 1190.05 7.97
8/19/2021 9:00:00 PM 20.53 68.954 0.156 7.68 1446.54 7.97
8/19/2021 9:15:00 PM 20.53 68.954 0.157 7.68 1156.99 7.97
8/19/2021 9:30:00 PM 20.54 68.972 0.157 7.68 1293.91 7.99
8/19/2021 9:45:00 PM 20.55 68.99 0.158 7.68 1001.74 8
8/19/2021 10:00:00 PM 20.55 68.99 0.158 7.66 1209.43 8
8/19/2021 10:15:00 PM 20.56 69.008 0.159 7.67 1293.67 8
8/19/2021 10:30:00 PM 20.56 69.008 0.16 7.67 1028.37 8.01
8/19/2021 10:45:00 PM 20.56 69.008 0.16 7.67 1098.47 8.01
8/19/2021 11:00:00 PM 20.56 69.008 0.161 7.66 1002.61 8.01
8/19/2021 11:15:00 PM 20.56 69.008 0.162 7.67 1026.65 8.03
8/19/2021 11:30:00 PM 20.55 68.99 0.163 7.66 924.26 8.03
8/19/2021 11:45:00 PM 20.55 68.99 0.163 7.67 911.11 8.04
8/20/2021 12:00:00 AM 20.55 68.99 0.164 7.64 897.9 8.04
8/20/2021 12:15:00 AM 20.55 68.99 0.165 7.66 869.4 8.05
8/20/2021 12:30:00 AM 20.55 68.99 0.165 7.64 930.5 8.06
8/20/2021 12:45:00 AM 20.55 68.99 0.166 7.64 776.09 8.07
8/20/2021 1:00:00 AM 20.54 68.972 0.167 7.64 1105 8.08
8/20/2021 1:15:00 AM 20.54 68.972 0.167 7.65 884.23 8.09
8/20/2021 1:30:00 AM 20.54 68.972 0.168 7.65 801.98 8.1
8/20/2021 1:45:00 AM 20.53 68.954 0.168 7.65 848.97 8.1
8/20/2021 2:00:00 AM 20.52 68.936 0.169 7.64 657.34 8.12
8/20/2021 2:15:00 AM 20.5 68.9 0.169 7.62 664.38 8.14
8/20/2021 2:30:00 AM 20.47 68.846 0.169 7.63 786.31 8.15
8/20/2021 2:45:00 AM 20.44 68.792 0.169 7.62 548.75 8.16
8/20/2021 3:00:00 AM 20.41 68.738 0.169 7.6 659.72 8.18
8/20/2021 3:15:00 AM 20.38 68.684 0.169 7.6 563.4 8.2
8/20/2021 3:30:00 AM 20.35 68.63 0.169 7.6 682.1 8.2
8/20/2021 3:45:00 AM 20.33 68.594 0.169 7.6 667.22 8.22
8/20/2021 4:00:00 AM 20.31 68.558 0.169 7.59 784.07 8.23
8/20/2021 4:15:00 AM 20.29 68.522 0.169 7.58 607.08 8.23
8/20/2021 4:30:00 AM 20.27 68.486 0.169 7.57 658.71 8.24
8/20/2021 4:45:00 AM 20.25 68.45 0.17 7.57 604.02 8.25
8/20/2021 5:00:00 AM 20.23 68.414 0.17 7.56 498.24 8.26
8/20/2021 5:15:00 AM 20.21 68.378 0.17 7.54 495.88 8.26
8/20/2021 5:30:00 AM 20.19 68.342 0.17 7.53 581.17 8.27
8/20/2021 5:45:00 AM 20.16 68.288 0.17 7.54 570.96 8.29
8/20/2021 6:00:00 AM 20.14 68.252 0.17 7.54 630.02 8.29
8/20/2021 6:15:00 AM 20.11 68.198 0.171 7.51 607.55 8.3
8/20/2021 6:30:00 AM 20.09 68.162 0.171 7.52 526.74 8.32
8/20/2021 6:45:00 AM 20.07 68.126 0.171 7.52 538.05 8.33
8/20/2021 7:00:00 AM 20.05 68.09 0.171 7.53 451.4 8.34
8/20/2021 7:15:00 AM 20.03 68.054 0.172 7.51 574.72 8.36
8/20/2021 7:30:00 AM 20.01 68.018 0.172 7.53 765.79 8.38
8/20/2021 7:45:00 AM 19.99 67.982 0.172 7.53 516.46 8.39
8/20/2021 8:00:00 AM 19.97 67.946 0.172 7.53 505.09 8.42
8/20/2021 8:15:00 AM 19.96 67.92799 0.173 7.51 563.23 8.42
8/20/2021 8:30:00 AM 19.95 67.91 0.173 7.52 767.14 8.44
8/20/2021 8:45:00 AM 19.94 67.892 0.173 7.52 574.56 8.45
8/20/2021 9:00:00 AM 19.94 67.892 0.173 7.53 379.97 8.46
8/20/2021 9:15:00 AM 19.94 67.892 0.173 7.52 478.4 8.47
8/20/2021 9:30:00 AM 19.95 67.91 0.174 7.52 583.24 8.48
8/20/2021 9:45:00 AM 19.95 67.91 0.174 7.54 498.33 8.49
8/20/2021 10:00:00 AM 19.96 67.92799 0.174 7.52 393.15 8.5
8/20/2021 10:15:00 AM 19.98 67.964 0.174 7.53 503.41 8.51
8/20/2021 10:30:00 AM 19.99 67.982 0.174 7.53 459.08 8.51
8/20/2021 10:45:00 AM 20.01 68.018 0.174 7.53 528.26 8.52
8/20/2021 11:00:00 AM 20.02 68.036 0.174 7.54 374.12 8.54
8/20/2021 11:15:00 AM 20.05 68.09 0.175 7.53 453.87 8.54
8/20/2021 11:30:00 AM 20.07 68.126 0.175 7.52 390.94 8.55
8/20/2021 11:45:00 AM 20.09 68.162 0.175 7.54 521.91 8.55
8/20/2021 12:00:00 PM 20.1 68.18 0.175 7.53 455.82 8.55
8/20/2021 12:15:00 PM 20.11 68.198 0.175 7.53 408.62 8.55
8/20/2021 12:30:00 PM 20.14 68.252 0.175 7.54 404.17 8.56
8/20/2021 12:45:00 PM 20.16 68.288 0.175 7.54 515.7 8.57
8/20/2021 1:00:00 PM 20.19 68.342 0.175 7.54 377.78 8.57
8/20/2021 1:15:00 PM 20.21 68.378 0.175 7.53 367.58 8.57
8/20/2021 1:30:00 PM 20.22 68.396 0.176 7.54 435.36 8.58
8/20/2021 1:45:00 PM 20.25 68.45 0.176 7.54 476.72 8.58
8/20/2021 2:00:00 PM 20.27 68.486 0.176 7.55 636.3 8.58
8/20/2021 2:15:00 PM 20.28 68.504 0.176 7.54 408.47 8.59
8/20/2021 2:30:00 PM 20.29 68.522 0.176 7.55 339.65 8.59
8/20/2021 2:45:00 PM 20.3 68.54 0.176 7.55 377.04 8.6
8/20/2021 3:00:00 PM 20.31 68.558 0.176 7.54 515.89 8.6
8/20/2021 3:15:00 PM 20.32 68.576 0.176 7.54 432.94 8.6
8/20/2021 3:30:00 PM 20.33 68.594 0.176 7.54 484.63 8.61
8/20/2021 3:45:00 PM 20.33 68.594 0.176 7.53 518.08 8.61
8/20/2021 4:00:00 PM 20.33 68.594 0.176 7.55 434.06 8.62
8/20/2021 4:15:00 PM 20.35 68.63 0.176 7.52 401.06 8.62
8/20/2021 4:30:00 PM 20.38 68.684 0.176 7.54 495.19 8.63
8/20/2021 4:45:00 PM 20.41 68.738 0.176 7.55 393.85 8.63
8/20/2021 5:00:00 PM 20.43 68.774 0.176 7.54 525.57 8.64
8/20/2021 5:15:00 PM 20.45 68.81 0.176 7.55 461.56 8.63
8/20/2021 5:30:00 PM 20.48 68.864 0.176 7.55 533.48 8.64
8/20/2021 5:45:00 PM 20.51 68.918 0.176 7.55 526.87 8.64
8/20/2021 6:00:00 PM 20.53 68.954 0.176 7.54 355.53 8.64
8/20/2021 6:15:00 PM 20.55 68.99 0.176 7.55 418.01 8.64
8/20/2021 6:30:00 PM 20.56 69.008 0.176 7.56 441.47 8.64
8/20/2021 6:45:00 PM 20.57 69.026 0.176 7.54 410.04 8.64
8/20/2021 7:00:00 PM 20.56 69.008 0.176 7.54 525.4 8.64
8/20/2021 7:15:00 PM 20.55 68.99 0.176 7.55 461.09 8.64
8/20/2021 7:30:00 PM 20.55 68.99 0.176 7.55 400.33 8.64
8/20/2021 7:45:00 PM 20.55 68.99 0.176 7.54 322.15 8.64
8/20/2021 8:00:00 PM 20.55 68.99 0.176 7.55 405.05 8.64
8/20/2021 8:15:00 PM 20.55 68.99 0.177 7.55 454.66 8.64
8/20/2021 8:30:00 PM 20.55 68.99 0.176 7.54 448.71 8.64
8/20/2021 8:45:00 PM 20.55 68.99 0.176 7.56 405.64 8.64
8/20/2021 9:00:00 PM 20.55 68.99 0.176 7.54 457.87 8.64
8/20/2021 9:15:00 PM 20.54 68.972 0.176 7.56 493.83 8.64
8/20/2021 9:30:00 PM 20.54 68.972 0.176 7.56 521.77 8.63
8/20/2021 9:45:00 PM 20.53 68.954 0.177 7.56 588.99 8.64
8/20/2021 10:00:00 PM 20.53 68.954 0.177 7.55 513.46 8.64
8/20/2021 10:15:00 PM 20.53 68.954 0.177 7.56 461.75 8.64
8/20/2021 10:30:00 PM 20.52 68.936 0.177 7.56 481.92 8.63
8/20/2021 10:45:00 PM 20.52 68.936 0.177 7.54 476.93 8.63
8/20/2021 11:00:00 PM 20.51 68.918 0.176 7.54 563.78 8.64
8/20/2021 11:15:00 PM 20.51 68.918 0.176 7.56 367.49 8.63
8/20/2021 11:30:00 PM 20.51 68.918 0.177 7.57 445.33 8.64
8/20/2021 11:45:00 PM 20.5 68.9 0.177 7.57 608.35 8.63
8/21/2021 12:00:00 AM 20.49 68.882 0.176 7.56 448.53 8.63
8/21/2021 12:15:00 AM 20.48 68.864 0.176 7.56 592.48 8.63
8/21/2021 12:30:00 AM 20.47 68.846 0.176 7.55 666.95 8.63
8/21/2021 12:45:00 AM 20.46 68.828 0.176 7.57 386.26 8.63
8/21/2021 1:00:00 AM 20.45 68.81 0.175 7.56 541.71 8.63
8/21/2021 1:15:00 AM 20.44 68.792 0.176 7.56 427.37 8.63
8/21/2021 1:30:00 AM 20.43 68.774 0.177 7.57 605.34 8.63
8/21/2021 1:45:00 AM 20.42 68.756 0.177 7.56 591.44 8.63
8/21/2021 2:00:00 AM 20.41 68.738 0.177 7.54 423.23 8.63
8/21/2021 2:15:00 AM 20.4 68.72 0.177 7.56 456.34 8.63
8/21/2021 2:30:00 AM 20.39 68.702 0.177 7.56 578.85 8.62
8/21/2021 2:45:00 AM 20.38 68.684 0.177 7.54 602.56 8.62
8/21/2021 3:00:00 AM 20.37 68.666 0.177 7.56 453.5 8.62
8/21/2021 3:15:00 AM 20.36 68.648 0.177 7.57 697.57 8.63
8/21/2021 3:30:00 AM 20.34 68.612 0.177 7.54 562.73 8.63
8/21/2021 3:45:00 AM 20.33 68.594 0.177 7.56 494.64 8.63
8/21/2021 4:00:00 AM 20.32 68.576 0.177 7.57 718.32 8.63
8/21/2021 4:15:00 AM 20.31 68.558 0.177 7.56 518.7 8.63
8/21/2021 4:30:00 AM 20.3 68.54 0.177 7.57 450.17 8.63
8/21/2021 4:45:00 AM 20.28 68.504 0.177 7.55 439.72 8.63
8/21/2021 5:00:00 AM 20.27 68.486 0.177 7.54 480.36 8.63
8/21/2021 5:15:00 AM 20.26 68.468 0.177 7.55 739.52 8.63
8/21/2021 5:30:00 AM 20.25 68.45 0.177 7.56 591.54 8.64
8/21/2021 5:45:00 AM 20.23 68.414 0.177 7.56 694.97 8.63
8/21/2021 6:00:00 AM 20.22 68.396 0.177 7.56 487.01 8.64
8/21/2021 6:15:00 AM 20.21 68.378 0.177 7.55 481.76 8.64
8/21/2021 6:30:00 AM 20.2 68.36 0.178 7.54 394.14 8.64
8/21/2021 6:45:00 AM 20.18 68.324 0.178 7.56 540.37 8.64
8/21/2021 7:00:00 AM 20.17 68.306 0.178 7.55 764.63 8.64
8/21/2021 7:15:00 AM 20.16 68.288 0.178 7.56 404.48 8.65
8/21/2021 7:30:00 AM 20.15 68.27 0.178 7.55 486.22 8.65
8/21/2021 7:45:00 AM 20.14 68.252 0.178 7.55 484.95 8.65
8/21/2021 8:00:00 AM 20.13 68.234 0.178 7.56 441.69 8.65
8/21/2021 8:15:00 AM 20.13 68.234 0.178 7.54 535.32 8.66
8/21/2021 8:30:00 AM 20.12 68.216 0.178 7.56 541.54 8.65
8/21/2021 8:45:00 AM 20.12 68.216 0.179 7.56 526.21 8.66
8/21/2021 9:00:00 AM 20.12 68.216 0.179 7.54 451.83 8.66
8/21/2021 9:15:00 AM 20.13 68.234 0.179 7.54 463.05 8.66
8/21/2021 9:30:00 AM 20.13 68.234 0.179 7.56 607.88 8.67
8/21/2021 9:45:00 AM 20.14 68.252 0.179 7.56 499.81 8.66
8/21/2021 10:00:00 AM 20.14 68.252 0.179 7.54 413.8 8.67
8/21/2021 10:15:00 AM 20.15 68.27 0.179 7.55 442.97 8.67
8/21/2021 10:30:00 AM 20.16 68.288 0.179 7.55 558.13 8.67
8/21/2021 10:45:00 AM 20.17 68.306 0.179 7.56 528.54 8.67
8/21/2021 11:00:00 AM 20.19 68.342 0.179 7.55 421 8.67
8/21/2021 11:15:00 AM 20.2 68.36 0.18 7.57 680.07 8.68
8/21/2021 11:30:00 AM 20.23 68.414 0.18 7.58 504.54 8.68
8/21/2021 11:45:00 AM 20.25 68.45 0.181 7.56 457.53 8.68
8/21/2021 12:00:00 PM 20.27 68.486 0.181 7.59 492.05 8.68
8/21/2021 12:15:00 PM 20.31 68.558 0.181 7.59 604.96 8.68
8/21/2021 12:30:00 PM 20.35 68.63 0.182 7.56 450.76 8.68
8/21/2021 12:45:00 PM 20.4 68.72 0.182 7.57 518.41 8.68
8/21/2021 1:00:00 PM 20.46 68.828 0.183 7.59 479.54 8.68
8/21/2021 1:15:00 PM 20.5 68.9 0.079 7.6 563.21 8.67
8/21/2021 1:30:00 PM 20.52 68.936 0.092 7.6 440.78 8.68
8/21/2021 1:45:00 PM 20.54 68.972 0.099 7.6 448.12 8.67
8/21/2021 2:00:00 PM 20.57 69.026 0.102 7.6 477 8.67
8/21/2021 2:15:00 PM 20.6 69.08 0.103 7.6 431.91 8.67
8/21/2021 2:30:00 PM 20.63 69.134 0.103 7.61 393.91 8.66
8/21/2021 2:45:00 PM 20.66 69.188 0.106 7.61 392.3 8.66
8/21/2021 3:00:00 PM 20.7 69.26 0.108 7.6 574.7 8.65
8/21/2021 3:15:00 PM 20.75 69.35 0.109 7.61 408.97 8.64
8/21/2021 3:30:00 PM 20.78 69.404 0.109 7.61 423.38 8.64
8/21/2021 3:45:00 PM 20.81 69.458 0.109 7.61 444.82 8.63
8/21/2021 4:00:00 PM 20.84 69.512 0.109 7.61 397.55 8.62
8/21/2021 4:15:00 PM 20.86 69.548 0.11 7.61 635.71 8.61
8/21/2021 4:30:00 PM 20.87 69.566 0.111 7.61 559.42 8.6
8/21/2021 4:45:00 PM 20.88 69.584 0.115 7.61 532.55 8.6
8/21/2021 5:00:00 PM 20.89 69.602 0.119 7.62 479.47 8.59
8/21/2021 5:15:00 PM 20.9 69.62 0.121 7.61 485.27 8.59
8/21/2021 5:30:00 PM 20.9 69.62 0.121 7.61 471.93 8.58
8/21/2021 5:45:00 PM 20.9 69.62 0.121 7.62 508.32 8.58
8/21/2021 6:00:00 PM 20.91 69.638 0.12 7.61 531.18 8.58
8/21/2021 6:15:00 PM 20.91 69.638 0.121 7.61 618.3 8.57
8/21/2021 6:30:00 PM 20.92 69.656 0.122 7.61 628.51 8.57
8/21/2021 6:45:00 PM 20.91 69.638 0.123 7.61 701.15 8.57
8/21/2021 7:00:00 PM 20.9 69.62 0.122 7.61 683.45 8.57
8/21/2021 7:15:00 PM 20.89 69.602 0.122 7.6 778.26 8.57
8/21/2021 7:30:00 PM 20.89 69.602 0.123 7.6 572.62 8.56
8/21/2021 7:45:00 PM 20.88 69.584 0.122 7.59 753.96 8.57
8/21/2021 8:00:00 PM 20.88 69.584 0.121 7.59 773.16 8.58
8/21/2021 8:15:00 PM 20.86 69.548 0.123 7.59 791.44 8.58
8/21/2021 8:30:00 PM 20.85 69.53 0.123 7.59 793.07 8.59
8/21/2021 8:45:00 PM 20.83 69.494 0.122 7.59 580 8.59
8/21/2021 9:00:00 PM 20.81 69.458 0.123 7.58 642.31 8.59
8/21/2021 9:15:00 PM 20.79 69.422 0.124 7.58 586.51 8.6
8/21/2021 9:30:00 PM 20.78 69.404 0.125 7.58 690.74 8.6
8/21/2021 9:45:00 PM 20.77 69.386 0.125 7.58 766.33 8.6
8/21/2021 10:00:00 PM 20.76 69.368 0.126 7.58 667.71 8.61
8/21/2021 10:15:00 PM 20.75 69.35 0.127 7.58 833.06 8.61
8/21/2021 10:30:00 PM 20.74 69.332 0.127 7.58 652.36 8.61
8/21/2021 10:45:00 PM 20.73 69.314 0.128 7.58 551.62 8.62
8/21/2021 11:00:00 PM 20.73 69.314 0.128 7.58 470.2 8.62
8/21/2021 11:15:00 PM 20.72 69.296 0.129 7.58 564.12 8.62
8/21/2021 11:30:00 PM 20.71 69.278 0.129 7.58 774.29 8.62
8/21/2021 11:45:00 PM 20.71 69.278 0.129 7.58 667.58 8.62
8/22/2021 12:00:00 AM 20.7 69.26 0.129 7.58 580.9 8.63
8/22/2021 12:15:00 AM 20.7 69.26 0.129 7.58 570.53 8.63
8/22/2021 12:30:00 AM 20.7 69.26 0.129 7.58 498.06 8.63
8/22/2021 12:45:00 AM 20.69 69.242 0.13 7.58 605.89 8.63
8/22/2021 1:00:00 AM 20.69 69.242 0.131 7.58 621.24 8.62
8/22/2021 1:15:00 AM 20.68 69.224 0.131 7.58 481.22 8.63
8/22/2021 1:30:00 AM 20.67 69.206 0.131 7.58 521.09 8.63
8/22/2021 1:45:00 AM 20.66 69.188 0.131 7.58 561.51 8.63
8/22/2021 2:00:00 AM 20.65 69.17 0.131 7.58 415.07 8.63
8/22/2021 2:15:00 AM 20.63 69.134 0.133 7.58 418.98 8.63
8/22/2021 2:30:00 AM 20.62 69.116 0.133 7.58 556.06 8.63
8/22/2021 2:45:00 AM 20.61 69.098 0.134 7.58 622.06 8.63
8/22/2021 3:00:00 AM 20.59 69.062 0.135 7.57 464.33 8.63
8/22/2021 3:15:00 AM 20.58 69.044 0.134 7.58 523.03 8.63
8/22/2021 3:30:00 AM 20.57 69.026 0.135 7.57 420.41 8.63
8/22/2021 3:45:00 AM 20.55 68.99 0.135 7.57 463.37 8.63
8/22/2021 4:00:00 AM 20.54 68.972 0.136 7.57 478.26 8.63
8/22/2021 4:15:00 AM 20.52 68.936 0.137 7.57 591.7 8.63
8/22/2021 4:30:00 AM 20.51 68.918 0.138 7.57 846.8 8.63
8/22/2021 4:45:00 AM 20.49 68.882 0.139 7.57 451.06 8.63
8/22/2021 5:00:00 AM 20.48 68.864 0.139 7.57 422.49 8.63
8/22/2021 5:15:00 AM 20.47 68.846 0.139 7.57 495.07 8.63
8/22/2021 5:30:00 AM 20.46 68.828 0.139 7.57 487.17 8.63
8/22/2021 5:45:00 AM 20.45 68.81 0.139 7.57 420.17 8.63
8/22/2021 6:00:00 AM 20.44 68.792 0.139 7.57 544.2 8.63
8/22/2021 6:15:00 AM 20.43 68.774 0.14 7.57 701.9 8.64
8/22/2021 6:30:00 AM 20.42 68.756 0.141 7.57 467.54 8.64
8/22/2021 6:45:00 AM 20.42 68.756 0.141 7.57 455.34 8.64
8/22/2021 7:00:00 AM 20.41 68.738 0.141 7.57 594.97 8.64
8/22/2021 7:15:00 AM 20.41 68.738 0.14 7.57 509.35 8.65
8/22/2021 7:30:00 AM 20.42 68.756 0.141 7.57 497.88 8.66
8/22/2021 7:45:00 AM 20.42 68.756 0.14 7.57 684.8 8.65
8/22/2021 8:00:00 AM 20.42 68.756 0.141 7.57 526.01 8.65
8/22/2021 8:15:00 AM 20.42 68.756 0.141 7.57 514.26 8.66
8/22/2021 8:30:00 AM 20.42 68.756 0.141 7.57 601.03 8.66
8/22/2021 8:45:00 AM 20.42 68.756 0.141 7.58 476.32 8.66
8/22/2021 9:00:00 AM 20.43 68.774 0.141 7.58 446.91 8.66
8/22/2021 9:15:00 AM 20.45 68.81 0.141 7.58 419.76 8.66
8/22/2021 9:30:00 AM 20.48 68.864 0.142 7.58 510.79 8.66
8/22/2021 9:45:00 AM 20.49 68.882 0.142 7.58 448.43 8.66
8/22/2021 10:00:00 AM 20.51 68.918 0.143 7.58 556.11 8.67
8/22/2021 10:15:00 AM 20.53 68.954 0.143 7.58 384.36 8.67
8/22/2021 10:30:00 AM 20.55 68.99 0.143 7.58 556.42 8.67
8/22/2021 10:45:00 AM 20.59 69.062 0.144 7.58 669.59 8.67
8/22/2021 11:00:00 AM 20.64 69.152 0.144 7.58 401.18 8.67
8/22/2021 11:15:00 AM 20.66 69.188 0.143 7.58 606.76 8.67
8/22/2021 11:30:00 AM 20.68 69.224 0.144 7.59 476.39 8.66
8/22/2021 11:45:00 AM 20.7 69.26 0.144 7.59 572.36 8.66
8/22/2021 12:00:00 PM 20.72 69.296 0.144 7.58 431.45 8.66
8/22/2021 12:15:00 PM 20.74 69.332 0.144 7.59 390.17 8.66
8/22/2021 12:30:00 PM 20.74 69.332 0.144 7.59 565.72 8.66
8/22/2021 12:45:00 PM 20.75 69.35 0.145 7.59 510.95 8.66
8/22/2021 1:00:00 PM 20.76 69.368 0.144 7.59 585.38 8.67
8/22/2021 1:15:00 PM 20.77 69.386 0.146 7.59 380.22 8.66
8/22/2021 1:30:00 PM 20.79 69.422 0.147 7.59 430.92 8.66
8/22/2021 1:45:00 PM 20.8 69.44 0.147 7.59 465.54 8.66
8/22/2021 2:00:00 PM 20.83 69.494 0.147 7.59 397.98 8.65
8/22/2021 2:15:00 PM 20.84 69.512 0.146 7.59 478.72 8.66
8/22/2021 2:30:00 PM 20.86 69.548 0.148 7.59 473.1 8.66
8/22/2021 2:45:00 PM 20.87 69.566 0.148 7.59 438.41 8.65
8/22/2021 3:00:00 PM 20.89 69.602 0.149 7.59 379.69 8.65
8/22/2021 3:15:00 PM 20.91 69.638 0.15 7.59 441.32 8.66
8/22/2021 3:30:00 PM 20.94 69.692 0.148 7.59 498.99 8.65
8/22/2021 3:45:00 PM 20.97 69.746 0.148 7.59 664.45 8.65
8/22/2021 4:00:00 PM 20.99 69.782 0.147 7.58 562.79 8.64
8/22/2021 4:15:00 PM 21.01 69.818 0.146 7.59 384.85 8.64
8/22/2021 4:30:00 PM 21.04 69.872 0.148 7.59 619.82 8.64
8/22/2021 4:45:00 PM 21.06 69.908 0.148 7.59 405.66 8.64
8/22/2021 5:00:00 PM 21.08 69.944 0.149 7.59 598.93 8.65
8/22/2021 5:15:00 PM 21.1 69.98 0.148 7.59 461.09 8.64
8/22/2021 5:30:00 PM 21.12 70.016 0.147 7.59 429.69 8.63
8/22/2021 5:45:00 PM 21.15 70.07 0.146 7.59 338.69 8.64
8/22/2021 6:00:00 PM 21.18 70.124 0.146 7.59 434.58 8.63
8/22/2021 6:15:00 PM 21.19 70.142 0.146 7.59 484.94 8.62
8/22/2021 6:30:00 PM 21.21 70.17799 0.148 7.59 397.74 8.62
8/22/2021 6:45:00 PM 21.22 70.196 0.149 7.59 427.09 8.62
8/22/2021 7:00:00 PM 21.22 70.196 0.149 7.6 433.63 8.62
8/22/2021 7:15:00 PM 21.23 70.214 0.15 7.6 507.12 8.62
8/22/2021 7:30:00 PM 21.24 70.232 0.15 7.6 573.16 8.62
8/22/2021 7:45:00 PM 21.25 70.25 0.151 7.6 394.44 8.62
8/22/2021 8:00:00 PM 21.25 70.25 0.151 7.6 369.72 8.63
8/22/2021 8:15:00 PM 21.25 70.25 0.151 7.6 436.28 8.62
8/22/2021 8:30:00 PM 21.25 70.25 0.151 7.6 423.68 8.62
8/22/2021 8:45:00 PM 21.25 70.25 0.152 7.6 403.31 8.61
8/22/2021 9:00:00 PM 21.25 70.25 0.152 7.6 442.4 8.61
8/22/2021 9:15:00 PM 21.24 70.232 0.153 7.6 447.61 8.61
8/22/2021 9:30:00 PM 21.24 70.232 0.153 7.6 510.01 8.61
8/22/2021 9:45:00 PM 21.24 70.232 0.153 7.6 800.73 8.61
8/22/2021 10:00:00 PM 21.23 70.214 0.153 7.6 427.81 8.6
8/22/2021 10:15:00 PM 21.22 70.196 0.154 7.6 430.22 8.6
8/22/2021 10:30:00 PM 21.22 70.196 0.154 7.6 728.08 8.6
8/22/2021 10:45:00 PM 21.2 70.16 0.154 7.6 386.44 8.6
8/22/2021 11:00:00 PM 21.18 70.124 0.153 7.6 410.62 8.62
8/22/2021 11:15:00 PM 21.15 70.07 0.153 7.61 411.42 8.62
8/22/2021 11:30:00 PM 21.12 70.016 0.153 7.6 403.86 8.62
8/22/2021 11:45:00 PM 21.09 69.962 0.153 7.6 460.49 8.62
8/23/2021 12:00:00 AM 21.06 69.908 0.153 7.6 411.33 8.63
8/23/2021 12:15:00 AM 21.03 69.854 0.153 7.6 480.43 8.64
8/23/2021 12:30:00 AM 21 69.8 0.152 7.6 424.08 8.63
8/23/2021 12:45:00 AM 20.98 69.764 0.152 7.6 399.4 8.64
8/23/2021 1:00:00 AM 20.95 69.71 0.153 7.61 422.57 8.64
8/23/2021 1:15:00 AM 20.93 69.674 0.153 7.61 495.35 8.65
8/23/2021 1:30:00 AM 20.91 69.638 0.152 7.6 395.41 8.65
8/23/2021 1:45:00 AM 20.89 69.602 0.152 7.6 547.25 8.65
8/23/2021 2:00:00 AM 20.87 69.566 0.152 7.6 359.13 8.66
8/23/2021 2:15:00 AM 20.85 69.53 0.153 7.6 405.97 8.66
8/23/2021 2:30:00 AM 20.84 69.512 0.152 7.6 508.77 8.65
8/23/2021 2:45:00 AM 20.82 69.476 0.152 7.6 529.32 8.65
8/23/2021 3:00:00 AM 20.8 69.44 0.152 7.6 453.36 8.66
8/23/2021 3:15:00 AM 20.79 69.422 0.152 7.6 396.59 8.65
8/23/2021 3:30:00 AM 20.78 69.404 0.151 7.61 475.68 8.66
8/23/2021 3:45:00 AM 20.77 69.386 0.151 7.6 370.02 8.67
8/23/2021 4:00:00 AM 20.76 69.368 0.151 7.6 487.41 8.66
8/23/2021 4:15:00 AM 20.74 69.332 0.151 7.61 465 8.66
8/23/2021 4:30:00 AM 20.73 69.314 0.151 7.6 625.96 8.66
8/23/2021 4:45:00 AM 20.72 69.296 0.151 7.6 494.87 8.66
8/23/2021 5:00:00 AM 20.7 69.26 0.151 7.6 426.55 8.66
8/23/2021 5:15:00 AM 20.69 69.242 0.151 7.6 404.11 8.66
8/23/2021 5:30:00 AM 20.67 69.206 0.151 7.6 490.25 8.66
8/23/2021 5:45:00 AM 20.66 69.188 0.151 7.6 779.23 8.66
8/23/2021 6:00:00 AM 20.66 69.188 0.151 7.6 377.7 8.66
8/23/2021 6:15:00 AM 20.65 69.17 0.151 7.6 460.32 8.66
8/23/2021 6:30:00 AM 20.64 69.152 0.15 7.6 432.36 8.65
8/23/2021 6:45:00 AM 20.63 69.134 0.151 7.6 562.64 8.66
8/23/2021 7:00:00 AM 20.62 69.116 0.152 7.6 537.41 8.66
8/23/2021 7:15:00 AM 20.62 69.116 0.151 7.6 475.46 8.65
8/23/2021 7:30:00 AM 20.62 69.116 0.152 7.59 440.08 8.65
8/23/2021 7:45:00 AM 20.62 69.116 0.152 7.59 607.64 8.65
8/23/2021 8:00:00 AM 20.63 69.134 0.152 7.59 589.08 8.65
8/23/2021 8:15:00 AM 20.63 69.134 0.152 7.59 712.84 8.65
8/23/2021 8:30:00 AM 20.63 69.134 0.153 7.59 368.84 8.66
8/23/2021 8:45:00 AM 20.64 69.152 0.154 7.59 431.57 8.65
8/23/2021 9:00:00 AM 20.65 69.17 0.154 7.59 438.4 8.66
8/23/2021 9:15:00 AM 20.69 69.242 0.154 7.59 459.32 8.66
8/23/2021 9:30:00 AM 20.7 69.26 0.154 7.59 377.46 8.66
8/23/2021 9:45:00 AM 20.72 69.296 0.153 7.59 519.97 8.65
8/23/2021 10:00:00 AM 20.75 69.35 0.153 7.6 509.5 8.66
8/23/2021 10:15:00 AM 20.77 69.386 0.153 7.6 402.58 8.66
8/23/2021 10:30:00 AM 20.78 69.404 0.153 7.6 528.99 8.66
8/23/2021 10:45:00 AM 20.79 69.422 0.154 7.6 421.82 8.66
8/23/2021 11:00:00 AM 20.82 69.476 0.154 7.6 691.13 8.66
8/23/2021 11:15:00 AM 20.86 69.548 0.154 7.59 625.75 8.66
8/23/2021 11:30:00 AM 20.88 69.584 0.154 7.6 608.84 8.66
8/23/2021 11:45:00 AM 20.89 69.602 0.153 7.6 479.82 8.66
8/23/2021 12:00:00 PM 20.92 69.656 0.154 7.6 403.47 8.67
8/23/2021 12:15:00 PM 20.96 69.728 0.153 7.6 736.62 8.66
8/23/2021 12:30:00 PM 21.02 69.836 0.153 7.6 411.1 8.65
8/23/2021 12:45:00 PM 21.07 69.926 0.153 7.6 435.87 8.66
8/23/2021 1:00:00 PM 21.09 69.962 0.154 7.6 508.72 8.66
8/23/2021 1:15:00 PM 21.14 70.052 0.155 7.6 570.25 8.65
8/23/2021 1:30:00 PM 21.21 70.17799 0.154 7.6 537.04 8.65
8/23/2021 1:45:00 PM 21.27 70.286 0.153 7.6 485.88 8.66
8/23/2021 2:00:00 PM 21.31 70.358 0.154 7.6 442.83 8.65
8/23/2021 2:15:00 PM 21.38 70.484 0.154 7.6 430.83 8.64
8/23/2021 2:30:00 PM 21.39 70.502 0.152 7.6 558.89 8.65
8/23/2021 2:45:00 PM 21.42 70.556 0.153 7.6 422.5 8.64
8/23/2021 3:00:00 PM 21.44 70.592 0.151 7.6 438.08 8.64
8/23/2021 3:15:00 PM 21.45 70.61 0.152 7.6 637.9 8.64
8/23/2021 3:30:00 PM 21.44 70.592 0.152 7.6 414.16 8.64
8/23/2021 3:45:00 PM 21.44 70.592 0.152 7.6 401.82 8.65
8/23/2021 4:00:00 PM 21.44 70.592 0.152 7.6 322.08 8.64
8/23/2021 4:15:00 PM 21.45 70.61 0.152 7.6 383.18 8.64
8/23/2021 4:30:00 PM 21.45 70.61 0.151 7.6 424.74 8.64
8/23/2021 4:45:00 PM 21.46 70.628 0.152 7.6 382.02 8.64
8/23/2021 5:00:00 PM 21.45 70.61 0.155 7.6 476.58 8.63
8/23/2021 5:15:00 PM 21.46 70.628 0.152 7.6 362.35 8.63
8/23/2021 5:30:00 PM 21.46 70.628 0.154 7.61 679.36 8.62
8/23/2021 5:45:00 PM 21.44 70.592 0.155 7.6 392.37 8.63
8/23/2021 6:00:00 PM 21.43 70.574 0.156 7.61 459.74 8.63
8/23/2021 6:15:00 PM 21.42 70.556 0.156 7.61 548.39 8.62
8/23/2021 6:30:00 PM 21.44 70.592 0.156 7.61 419.29 8.61
8/23/2021 6:45:00 PM 21.46 70.628 0.157 7.61 413.86 8.61
8/23/2021 7:00:00 PM 21.5 70.7 0.157 7.61 443.44 8.6
8/23/2021 7:15:00 PM 21.54 70.772 0.157 7.61 565.45 8.59
8/23/2021 7:30:00 PM 21.57 70.826 0.157 7.61 407.01 8.59
8/23/2021 7:45:00 PM 21.58 70.844 0.158 7.61 432.34 8.57
8/23/2021 8:00:00 PM 21.61 70.898 0.159 7.61 422.85 8.57
8/23/2021 8:15:00 PM 21.63 70.934 0.159 7.61 368.77 8.55
8/23/2021 8:30:00 PM 21.66 70.988 0.159 7.61 372.63 8.55
8/23/2021 8:45:00 PM 21.67 71.006 0.159 7.61 390.33 8.55
8/23/2021 9:00:00 PM 21.68 71.024 0.16 7.61 385.82 8.53
8/23/2021 9:15:00 PM 21.69 71.042 0.16 7.61 334.5 8.52
8/23/2021 9:30:00 PM 21.7 71.06 0.16 7.61 478.65 8.51
8/23/2021 9:45:00 PM 21.71 71.078 0.16 7.61 460.25 8.52
8/23/2021 10:00:00 PM 21.71 71.078 0.161 7.61 459.75 8.51
8/23/2021 10:15:00 PM 21.72 71.096 0.162 7.62 381.93 8.5
8/23/2021 10:30:00 PM 21.72 71.096 0.163 7.62 345.85 8.5
8/23/2021 10:45:00 PM 21.72 71.096 0.164 7.62 389.2 8.49
8/23/2021 11:00:00 PM 21.72 71.096 0.164 7.62 401.78 8.5
8/23/2021 11:15:00 PM 21.71 71.078 0.165 7.62 410.68 8.48
8/23/2021 11:30:00 PM 21.7 71.06 0.165 7.62 444.97 8.47
8/23/2021 11:45:00 PM 21.7 71.06 0.165 7.63 382.77 8.48
8/24/2021 12:00:00 AM 21.69 71.042 0.167 7.63 323.95 8.48
8/24/2021 12:15:00 AM 21.68 71.024 0.167 7.63 296.53 8.48
8/24/2021 12:30:00 AM 21.67 71.006 0.168 7.63 419.39 8.47
8/24/2021 12:45:00 AM 21.66 70.988 0.168 7.63 418.81 8.46
8/24/2021 1:00:00 AM 21.65 70.97 0.168 7.63 424.02 8.47
8/24/2021 1:15:00 AM 21.64 70.952 0.169 7.64 344.51 8.46
8/24/2021 1:30:00 AM 21.63 70.934 0.169 7.64 375.01 8.44
8/24/2021 1:45:00 AM 21.61 70.898 0.17 7.64 366.91 8.45
8/24/2021 2:00:00 AM 21.6 70.88 0.17 7.64 348.11 8.45
8/24/2021 2:15:00 AM 21.58 70.844 0.171 7.65 316.68 8.43
8/24/2021 2:30:00 AM 21.57 70.826 0.171 7.65 435.94 8.44
8/24/2021 2:45:00 AM 21.55 70.79 0.172 7.64 280.46 8.43
8/24/2021 3:00:00 AM 21.53 70.754 0.173 7.65 391.09 8.4
8/24/2021 3:15:00 AM 21.52 70.736 0.173 7.65 1259.5 8.43
8/24/2021 3:30:00 AM 21.5 70.7 0.174 7.65 410.93 8.42
8/24/2021 3:45:00 AM 21.48 70.664 0.175 7.65 314.87 8.41
8/24/2021 4:00:00 AM 21.46 70.628 0.176 7.66 361.72 8.42
8/24/2021 4:15:00 AM 21.44 70.592 0.177 7.66 307.36 8.42
8/24/2021 4:30:00 AM 21.43 70.574 0.178 7.66 263.92 8.42
8/24/2021 4:45:00 AM 21.41 70.538 0.178 7.66 299.6 8.41
8/24/2021 5:00:00 AM 21.39 70.502 0.178 7.66 464.45 8.41
8/24/2021 5:15:00 AM 21.38 70.484 0.179 7.66 322.05 8.41
8/24/2021 5:30:00 AM 21.36 70.448 0.179 7.66 311.32 8.4
8/24/2021 5:45:00 AM 21.35 70.43 0.179 7.66 282.24 8.41
8/24/2021 6:00:00 AM 21.34 70.412 0.179 7.66 341.35 8.4
8/24/2021 6:15:00 AM 21.33 70.394 0.179 7.67 327.86 8.4
8/24/2021 6:30:00 AM 21.31 70.358 0.179 7.66 319 8.4
8/24/2021 6:45:00 AM 21.29 70.32201 0.179 7.67 398.17 8.4
8/24/2021 7:00:00 AM 21.27 70.286 0.179 7.66 312.56 8.41
8/24/2021 7:15:00 AM 21.26 70.268 0.179 7.66 322.92 8.41
8/24/2021 7:30:00 AM 21.24 70.232 0.178 7.67 253.06 8.42
8/24/2021 7:45:00 AM 21.23 70.214 0.178 7.67 264.94 8.43
8/24/2021 8:00:00 AM 21.22 70.196 0.178 7.67 344.46 8.43
8/24/2021 8:15:00 AM 21.22 70.196 0.178 7.67 323.91 8.45
8/24/2021 8:30:00 AM 21.22 70.196 0.179 7.67 398.25 8.44
8/24/2021 8:45:00 AM 21.24 70.232 0.178 7.67 322.55 8.46
8/24/2021 9:00:00 AM 21.25 70.25 0.179 7.67 332.93 8.46
8/24/2021 9:15:00 AM 21.28 70.304 0.179 7.67 312.94 8.46
8/24/2021 9:30:00 AM 21.32 70.376 0.179 7.68 315.72 8.46
8/24/2021 9:45:00 AM 21.36 70.448 0.179 7.68 273.81 8.46
8/24/2021 10:00:00 AM 21.39 70.502 0.178 7.68 253.46 8.47
8/24/2021 10:15:00 AM 21.43 70.574 0.179 7.68 406.29 8.47
8/24/2021 10:30:00 AM 21.47 70.646 0.179 7.67 347.07 8.48
8/24/2021 10:45:00 AM 21.51 70.718 0.179 7.68 277.54 8.48
8/24/2021 11:00:00 AM 21.56 70.808 0.179 7.68 283.33 8.48
8/24/2021 11:15:00 AM 21.6 70.88 0.179 7.68 291.19 8.48
8/24/2021 11:30:00 AM 21.65 70.97 0.18 7.68 291.53 8.49
8/24/2021 11:45:00 AM 21.69 71.042 0.18 7.68 249.26 8.49
8/24/2021 12:00:00 PM 21.74 71.132 0.18 7.68 250.06 8.49
8/24/2021 12:15:00 PM 21.79 71.222 0.18 7.68 380.9 8.49
8/24/2021 12:30:00 PM 21.83 71.294 0.18 7.69 326.24 8.5
8/24/2021 12:45:00 PM 21.88 71.384 0.18 7.69 320.5 8.49
8/24/2021 1:00:00 PM 21.93 71.474 0.18 7.69 526.55 8.49
8/24/2021 1:15:00 PM 21.98 71.564 0.181 7.69 273.34 8.49
8/24/2021 1:30:00 PM 22.02 71.636 0.181 7.69 259.73 8.49
8/24/2021 1:45:00 PM 22.07 71.726 0.181 7.69 311.85 8.48
8/24/2021 2:00:00 PM 22.11 71.798 0.181 7.69 303.3 8.49
8/24/2021 2:15:00 PM 22.15 71.87 0.182 7.69 298.03 8.48
8/24/2021 2:30:00 PM 22.19 71.942 0.182 7.69 259.65 8.48
8/24/2021 2:45:00 PM 22.23 72.014 0.182 7.69 321.4 8.48
8/24/2021 3:00:00 PM 22.28 72.104 0.182 7.69 343.72 8.49
8/24/2021 3:15:00 PM 22.31 72.158 0.182 7.69 460.81 8.48
8/24/2021 3:30:00 PM 22.35 72.23 0.182 7.69 309.55 8.47
8/24/2021 3:45:00 PM 22.39 72.302 0.182 7.69 557.47 8.48
8/24/2021 4:00:00 PM 22.42 72.356 0.182 7.69 270.35 8.47
8/24/2021 4:15:00 PM 22.45 72.41 0.182 7.69 368.62 8.47
8/24/2021 4:30:00 PM 22.48 72.464 0.183 7.7 250.76 8.46
8/24/2021 4:45:00 PM 22.51 72.518 0.183 7.7 381.25 8.47
8/24/2021 5:00:00 PM 22.53 72.554 0.183 7.7 291.05 8.46
8/24/2021 5:15:00 PM 22.56 72.608 0.183 7.7 266.26 8.47
8/24/2021 5:30:00 PM 22.58 72.644 0.184 7.7 292.78 8.46
8/24/2021 5:45:00 PM 22.61 72.698 0.184 7.71 287.05 8.47
8/24/2021 6:00:00 PM 22.62 72.716 0.184 7.7 309.9 8.45
8/24/2021 6:15:00 PM 22.64 72.752 0.184 7.7 284.33 8.45
8/24/2021 6:30:00 PM 22.65 72.77 0.185 7.7 258.67 8.45
8/24/2021 6:45:00 PM 22.67 72.806 0.185 7.71 320.67 8.45
8/24/2021 7:00:00 PM 22.68 72.824 0.185 7.71 323.52 8.44
8/24/2021 7:15:00 PM 22.69 72.842 0.185 7.71 312.14 8.44
8/24/2021 7:30:00 PM 22.69 72.842 0.185 7.71 250.96 8.44
8/24/2021 7:45:00 PM 22.7 72.86 0.185 7.71 282.55 8.44
8/24/2021 8:00:00 PM 22.7 72.86 0.186 7.71 310.03 8.43
8/24/2021 8:15:00 PM 22.7 72.86 0.186 7.71 292.81 8.43
8/24/2021 8:30:00 PM 22.69 72.842 0.185 7.71 293.29 8.42
8/24/2021 8:45:00 PM 22.69 72.842 0.185 7.71 597.61 8.41
8/24/2021 9:00:00 PM 22.7 72.86 0.186 7.71 275.68 8.41
8/24/2021 9:15:00 PM 22.7 72.86 0.187 7.71 256.76 8.4
8/24/2021 9:30:00 PM 22.71 72.878 0.186 7.71 407.47 8.4
8/24/2021 9:45:00 PM 22.71 72.878 0.187 7.71 343.4 8.41
8/24/2021 10:00:00 PM 22.72 72.896 0.187 7.72 220.4 8.4
8/24/2021 10:15:00 PM 22.72 72.896 0.187 7.71 351.55 8.39
8/24/2021 10:30:00 PM 22.72 72.896 0.187 7.71 476.8 8.36
8/24/2021 10:45:00 PM 22.72 72.896 0.18 7.72 285.99 8.37
8/24/2021 11:00:00 PM 22.73 72.914 0.188 7.72 264.44 8.37
8/24/2021 11:15:00 PM 22.73 72.914 0.189 7.72 390.9 8.36
8/24/2021 11:30:00 PM 22.74 72.932 0.19 7.72 275.94 8.36
8/24/2021 11:45:00 PM 22.74 72.932 0.19 7.72 298.45 8.35
8/25/2021 12:00:00 AM 22.75 72.95 0.19 7.72 204.33 8.34
8/25/2021 12:15:00 AM 22.75 72.95 0.191 7.72 359.33 8.33
8/25/2021 12:30:00 AM 22.76 72.968 0.19 7.73 232.1 8.33
8/25/2021 12:45:00 AM 22.77 72.986 0.192 7.72 211.35 8.31
8/25/2021 1:00:00 AM 22.76 72.968 0.192 7.72 212.6 8.3
8/25/2021 1:15:00 AM 22.76 72.968 0.193 7.72 217.68 8.29
8/25/2021 1:30:00 AM 22.76 72.968 0.194 7.72 278.89 8.28
8/25/2021 1:45:00 AM 22.75 72.95 0.195 7.72 242.66 8.27
8/25/2021 2:00:00 AM 22.74 72.932 0.194 7.73 229.43 8.28
8/25/2021 2:15:00 AM 22.73 72.914 0.196 7.73 214.01 8.27
8/25/2021 2:30:00 AM 22.72 72.896 0.197 7.73 320.02 8.27
8/25/2021 2:45:00 AM 22.7 72.86 0.196 7.73 246.51 8.26
8/25/2021 3:00:00 AM 22.68 72.824 0.197 7.73 239.57 8.27
8/25/2021 3:15:00 AM 22.66 72.788 0.199 7.73 217.18 8.27
8/25/2021 3:30:00 AM 22.63 72.734 0.2 7.74 243.75 8.26
8/25/2021 3:45:00 AM 22.6 72.68 0.199 7.74 233.58 8.25
8/25/2021 4:00:00 AM 22.58 72.644 0.2 7.74 242.45 8.2
8/25/2021 4:15:00 AM 22.55 72.59 0.199 7.74 195.15 8.18
8/25/2021 4:30:00 AM 22.52 72.536 0.202 7.74 225.26 8.24
8/25/2021 4:45:00 AM 22.5 72.5 0.203 7.74 212.51 8.26
8/25/2021 5:00:00 AM 22.47 72.446 0.203 7.74 230.21 8.23
8/25/2021 5:15:00 AM 22.44 72.392 0.205 7.74 212.67 8.25
8/25/2021 5:30:00 AM 22.41 72.338 0.206 7.74 170.38 8.24
8/25/2021 5:45:00 AM 22.39 72.302 0.205 7.74 212.37 8.24
8/25/2021 6:00:00 AM 22.37 72.266 0.206 7.74 188.65 8.25
8/25/2021 6:15:00 AM 22.34 72.212 0.208 7.74 193.79 8.24
8/25/2021 6:30:00 AM 22.31 72.158 0.206 7.74 253.47 8.26
8/25/2021 6:45:00 AM 22.29 72.122 0.209 7.74 186.87 8.23
8/25/2021 7:00:00 AM 22.28 72.104 0.21 7.74 153.06 8.23
8/25/2021 7:15:00 AM 22.26 72.068 0.211 7.74 159.07 8.22
8/25/2021 7:30:00 AM 22.25 72.05 0.211 7.74 172.57 8.22
8/25/2021 7:45:00 AM 22.24 72.032 0.213 7.74 214.85 8.23
8/25/2021 8:00:00 AM 22.23 72.014 0.214 7.74 172.87 8.23
8/25/2021 8:15:00 AM 22.22 71.996 0.212 7.75 219.49 8.23
8/25/2021 8:30:00 AM 22.22 71.996 0.214 7.74 160.72 8.21
8/25/2021 8:45:00 AM 22.23 72.014 0.214 7.75 187.16 8.25
8/25/2021 9:00:00 AM 22.25 72.05 0.213 7.74 163.58 8.24
8/25/2021 9:15:00 AM 22.28 72.104 0.214 7.74 150.52 8.21
8/25/2021 9:30:00 AM 22.31 72.158 0.216 7.74 178.36 8.24
8/25/2021 9:45:00 AM 22.35 72.23 0.215 7.75 118.09 8.23
8/25/2021 10:00:00 AM 22.41 72.338 0.215 7.75 134.67 8.24
8/25/2021 10:15:00 AM 22.48 72.464 0.216 7.75 152.9 8.24
8/25/2021 10:30:00 AM 22.56 72.608 0.216 7.75 116.86 8.26
8/25/2021 10:45:00 AM 22.65 72.77 0.217 7.75 145.67 8.25
8/25/2021 11:00:00 AM 22.75 72.95 0.218 7.76 119.04 8.23
8/25/2021 11:15:00 AM 22.83 73.094 0.218 7.76 97.64 8.25
8/25/2021 11:30:00 AM 22.91 73.238 0.218 7.76 103.96 8.26
8/25/2021 11:45:00 AM 22.99 73.382 0.218 7.77 97.87 8.26
8/25/2021 12:00:00 PM 23.09 73.562 0.22 7.77 90.23 8.28
8/25/2021 12:15:00 PM 23.18 73.724 0.219 7.77 83.16 8.28
8/25/2021 12:30:00 PM 23.27 73.886 0.22 7.77 74.8 8.3
8/25/2021 12:45:00 PM 23.34 74.012 0.219 7.77 79.2 8.3
8/25/2021 1:00:00 PM 23.36 74.048 0.22 7.78 65.28 8.29
8/25/2021 1:15:00 PM 23.39 74.102 0.219 7.77 71.5 8.28
8/25/2021 1:30:00 PM 23.47 74.246 0.218 7.78 69.74 8.32
8/25/2021 1:45:00 PM 23.56 74.408 0.219 7.78 63.39 8.33
8/25/2021 2:00:00 PM 23.65 74.57 0.22 7.78 79.27 8.33
8/25/2021 2:15:00 PM 23.75 74.75 0.219 7.79 66.83 8.35
8/25/2021 2:30:00 PM 23.83 74.894 0.222 7.8 64.58 8.36
8/25/2021 2:45:00 PM 23.91 75.038 0.223 7.8 61.52 8.36
8/25/2021 3:00:00 PM 23.95 75.11 0.223 7.81 57.82 8.37
8/25/2021 3:15:00 PM 24.01 75.218 0.224 7.81 66.56 8.36
8/25/2021 3:30:00 PM 24.05 75.29 0.225 7.81 61.2 8.38
8/25/2021 3:45:00 PM 24.08 75.344 0.227 7.82 57.16 8.36
8/25/2021 4:00:00 PM 24.08 75.344 0.228 7.82 62.2 8.39
8/25/2021 4:15:00 PM 24.07 75.326 0.227 7.82 57.45 8.38
8/25/2021 4:30:00 PM 24.08 75.344 0.228 7.82 59.31 8.4
8/25/2021 4:45:00 PM 24.07 75.326 0.227 7.82 55.63 8.36
8/25/2021 5:00:00 PM 24.08 75.344 0.228 7.82 56.16 8.35
8/25/2021 5:15:00 PM 24.08 75.344 0.23 7.82 60.48 8.35
8/25/2021 5:30:00 PM 24.08 75.344 0.231 7.82 56.03 8.35
8/25/2021 5:45:00 PM 24.08 75.344 0.231 7.81 54.66 8.34
8/25/2021 6:00:00 PM 24.1 75.38 0.231 7.81 55.82 8.34
8/25/2021 6:15:00 PM 24.12 75.416 0.231 7.82 55.72 8.34
8/25/2021 6:30:00 PM 24.11 75.398 0.232 7.81 55.69 8.33
8/25/2021 6:45:00 PM 24.11 75.398 0.233 7.81 58.31 8.33
8/25/2021 7:00:00 PM 24.11 75.398 0.233 7.81 53.85 8.31
8/25/2021 7:15:00 PM 24.11 75.398 0.233 7.81 61.47 8.3
8/25/2021 7:30:00 PM 24.11 75.398 0.233 7.81 55.52 8.3
8/25/2021 7:45:00 PM 24.11 75.398 0.233 7.81 53.25 8.29
8/25/2021 8:00:00 PM 24.1 75.38 0.233 7.81 54.21 8.28
8/25/2021 8:15:00 PM 24.09 75.362 0.234 7.81 60.33 8.24
8/25/2021 8:30:00 PM 24.08 75.344 0.234 7.81 52.72 8.26
8/25/2021 8:45:00 PM 24.07 75.326 0.234 7.8 53.24 8.23
8/25/2021 9:00:00 PM 24.05 75.29 0.235 7.8 54.49 8.22
8/25/2021 9:15:00 PM 24.04 75.272 0.235 7.8 64.61 8.21
8/25/2021 9:30:00 PM 24.03 75.254 0.236 7.8 54.01 8.21
8/25/2021 9:45:00 PM 24.02 75.236 0.236 7.79 54.57 8.21
8/25/2021 10:00:00 PM 24.01 75.218 0.235 7.79 51.75 8.16
8/25/2021 10:15:00 PM 24.01 75.218 0.237 7.8 51.88 8.14
8/25/2021 10:30:00 PM 24 75.2 0.237 7.8 52.69 8.14
8/25/2021 10:45:00 PM 24 75.2 0.238 7.8 53.34 8.14
8/25/2021 11:00:00 PM 23.99 75.182 0.237 7.8 50.27 8.16
8/25/2021 11:15:00 PM 23.99 75.182 0.238 7.8 49.97 8.15
8/25/2021 11:30:00 PM 23.98 75.164 0.239 7.81 49.93 8.13
8/25/2021 11:45:00 PM 23.98 75.164 0.239 7.81 48.05 8.14
8/26/2021 12:00:00 AM 23.97 75.146 0.24 7.81 44.76 8.13
8/26/2021 12:15:00 AM 23.97 75.146 0.24 7.81 45.02 8.14
8/26/2021 12:30:00 AM 23.97 75.146 0.239 7.8 43.27 8.11
8/26/2021 12:45:00 AM 23.97 75.146 0.241 7.81 42.91 8.08
8/26/2021 1:00:00 AM 23.96 75.128 0.241 7.81 42.93 8.1
8/26/2021 1:15:00 AM 23.96 75.128 0.242 7.81 43.25 8.09
8/26/2021 1:30:00 AM 23.95 75.11 0.241 7.81 41.65 8.06
8/26/2021 1:45:00 AM 23.95 75.11 0.243 7.81 46.44 8.07
8/26/2021 2:00:00 AM 23.94 75.092 0.235 7.81 46.07 8.05
8/26/2021 2:15:00 AM 23.93 75.074 0.241 7.81 41.15 8.05
8/26/2021 2:30:00 AM 23.92 75.056 0.241 7.8 42.51 8.04
8/26/2021 2:45:00 AM 23.91 75.038 0.244 7.81 42.95 8
8/26/2021 3:00:00 AM 23.88 74.984 0.245 7.81 41.21 7.97
8/26/2021 3:15:00 AM 23.86 74.948 0.246 7.8 41.47 8.04
8/26/2021 3:30:00 AM 23.83 74.894 0.244 7.81 39.47 8.04
8/26/2021 3:45:00 AM 23.8 74.84 0.245 7.81 65.12 8.04
8/26/2021 4:00:00 AM 23.76 74.768 0.244 7.81 39.75 8.04
8/26/2021 4:15:00 AM 23.73 74.714 0.243 7.8 39.9 7.98
8/26/2021 4:30:00 AM 23.69 74.642 0.245 7.8 43.49 7.98
8/26/2021 4:45:00 AM 23.65 74.57 0.246 7.81 40.47 8.03
8/26/2021 5:00:00 AM 23.62 74.516 0.246 7.8 156.6 7.98
8/26/2021 5:15:00 AM 23.58 74.444 0.248 7.8 41.32 8
8/26/2021 5:30:00 AM 23.54 74.372 0.249 7.8 38.47 8.01
8/26/2021 5:45:00 AM 23.5 74.3 0.249 7.8 39.07 8.01
8/26/2021 6:00:00 AM 23.46 74.228 0.249 7.8 39.58 8
8/26/2021 6:15:00 AM 23.43 74.174 0.25 7.8 39.19 8
8/26/2021 6:30:00 AM 23.39 74.102 0.25 7.8 43.2 8.02
8/26/2021 6:45:00 AM 23.36 74.048 0.251 7.81 55.28 8
8/26/2021 7:00:00 AM 23.33 73.994 0.251 7.81 114.48 8.01
8/26/2021 7:15:00 AM 23.3 73.94 0.252 7.81 173.57 8.01
8/26/2021 7:30:00 AM 23.27 73.886 0.252 7.81 70.75 8.01
8/26/2021 7:45:00 AM 23.25 73.85 0.252 7.81 198.99 8.02
8/26/2021 8:00:00 AM 23.23 73.814 0.252 7.81 100.35 8
8/26/2021 8:15:00 AM 23.21 73.778 0.253 7.81 48.78 8.02
8/26/2021 8:30:00 AM 23.2 73.76 0.253 7.81 89.61 8.03
8/26/2021 8:45:00 AM 23.19 73.742 0.253 7.81 47.45 8
8/26/2021 9:00:00 AM 23.19 73.742 0.254 7.81 48.61 8.05
8/26/2021 9:15:00 AM 23.19 73.742 0.253 7.81 116.09 8.07
8/26/2021 9:30:00 AM 23.21 73.778 0.254 7.81 82.26 8.09
8/26/2021 9:45:00 AM 23.23 73.814 0.255 7.81 37.03 8.02
8/26/2021 10:00:00 AM 23.27 73.886 0.254 7.82 86.23 8.11
8/26/2021 10:15:00 AM 23.29 73.922 0.255 7.83 88.6 8.14
8/26/2021 10:30:00 AM 23.32 73.976 0.253 7.83 101.55 8.15
8/26/2021 10:45:00 AM 23.33 73.994 0.255 7.83 91.11 8.18
8/26/2021 11:00:00 AM 23.34 74.012 0.256 7.83 89.31 8.18
8/26/2021 11:15:00 AM 23.35 74.03 0.256 7.83 40.01 8.19
8/26/2021 11:30:00 AM 23.38 74.084 0.257 7.84 134.33 8.24
8/26/2021 11:45:00 AM 23.41 74.138 0.257 7.84 115.89 8.26
8/26/2021 12:00:00 PM 23.45 74.21 0.257 7.85 108.92 8.27
8/26/2021 12:15:00 PM 23.49 74.282 0.257 7.85 127.25 8.3
8/26/2021 12:30:00 PM 23.51 74.318 0.258 7.86 70.73 8.31
8/26/2021 12:45:00 PM 23.53 74.354 0.259 7.86 123.21 8.32
8/26/2021 1:00:00 PM 23.54 74.372 0.259 7.86 85.37 8.33
8/26/2021 1:15:00 PM 23.56 74.408 0.26 7.87 94.72 8.33
8/26/2021 1:30:00 PM 23.58 74.444 0.259 7.87 81.91 8.37
8/26/2021 1:45:00 PM 23.61 74.498 0.261 7.86 139.51 8.35
8/26/2021 2:00:00 PM 23.64 74.552 0.261 7.87 83.71 8.38
8/26/2021 2:15:00 PM 23.69 74.642 0.261 7.88 98.27 8.4
8/26/2021 2:30:00 PM 23.74 74.732 0.26 7.89 247.34 8.43
8/26/2021 2:45:00 PM 23.8 74.84 0.261 7.9 190.85 8.43
8/26/2021 3:00:00 PM 23.86 74.948 0.26 7.9 48.32 8.4
8/26/2021 3:15:00 PM 23.9 75.02 0.264 7.91 43.84 8.45
8/26/2021 3:30:00 PM 23.92 75.056 0.263 7.91 44.56 8.46
8/26/2021 3:45:00 PM 23.93 75.074 0.263 7.91 53.44 8.46
8/26/2021 4:00:00 PM 23.94 75.092 0.264 7.91 65.08 8.44
8/26/2021 4:15:00 PM 23.95 75.11 0.263 7.92 73.52 8.45
8/26/2021 4:30:00 PM 23.95 75.11 0.264 7.92 67.2 8.45
8/26/2021 4:45:00 PM 23.95 75.11 0.265 7.92 44.19 8.48
8/26/2021 5:00:00 PM 23.94 75.092 0.265 7.91 46.04 8.43
8/26/2021 5:15:00 PM 23.94 75.092 0.266 7.91 64.11 8.44
8/26/2021 5:30:00 PM 23.92 75.056 0.266 7.91 48.56 8.44
8/26/2021 5:45:00 PM 23.9 75.02 0.265 7.91 90.95 8.46
8/26/2021 6:00:00 PM 23.87 74.966 0.267 7.91 81.57 8.41
8/26/2021 6:15:00 PM 23.84 74.912 0.268 7.91 75.88 8.45
8/26/2021 6:30:00 PM 23.81 74.858 0.268 7.92 40.45 8.45
8/26/2021 6:45:00 PM 23.78 74.804 0.27 7.91 37.45 8.42
8/26/2021 7:00:00 PM 23.74 74.732 0.27 7.92 119.98 8.4
8/26/2021 7:15:00 PM 23.7 74.66 0.271 7.92 129.05 8.44
8/26/2021 7:30:00 PM 23.66 74.588 0.272 7.92 144.43 8.43
8/26/2021 7:45:00 PM 23.62 74.516 0.272 7.92 45.15 8.39
8/26/2021 8:00:00 PM 23.58 74.444 0.272 7.91 50.68 8.37
8/26/2021 8:15:00 PM 23.53 74.354 0.273 7.92 39.7 8.38
8/26/2021 8:30:00 PM 23.49 74.282 0.273 7.92 36.13 8.34
8/26/2021 8:45:00 PM 23.45 74.21 0.274 7.91 37.9 8.34
8/26/2021 9:00:00 PM 23.41 74.138 0.275 7.91 38.87 8.34
8/26/2021 9:15:00 PM 23.38 74.084 0.276 7.91 39.42 8.32
8/26/2021 9:30:00 PM 23.34 74.012 0.275 7.91 38.45 8.23
8/26/2021 9:45:00 PM 23.3 73.94 0.273 7.91 41.62 8.31
8/26/2021 10:00:00 PM 23.26 73.868 0.272 7.91 40.87 8.26
8/26/2021 10:15:00 PM 23.22 73.796 0.272 7.9 38.77 8.29
8/26/2021 10:30:00 PM 23.18 73.724 0.273 7.91 40.15 8.31
8/26/2021 10:45:00 PM 23.14 73.652 0.275 7.91 42.16 8.24
8/26/2021 11:00:00 PM 23.1 73.58 0.277 7.9 39.43 8.27
8/26/2021 11:15:00 PM 23.07 73.526 0.277 7.9 38.31 8.28
8/26/2021 11:30:00 PM 23.03 73.454 0.276 7.9 39.06 8.3
8/26/2021 11:45:00 PM 23 73.4 0.277 7.9 37.03 8.27
8/27/2021 12:00:00 AM 22.96 73.328 0.277 7.9 41.79 8.27
8/27/2021 12:15:00 AM 22.93 73.274 0.276 7.89 40.33 8.23
8/27/2021 12:30:00 AM 22.9 73.22 0.277 7.89 39.85 8.26
8/27/2021 12:45:00 AM 22.87 73.166 0.278 7.89 39.65 8.22
8/27/2021 1:00:00 AM 22.84 73.112 0.277 7.89 40.41 8.21
8/27/2021 1:15:00 AM 22.82 73.076 0.276 7.89 41.54 8.25
8/27/2021 1:30:00 AM 22.79 73.022 0.275 7.88 41.98 8.22
8/27/2021 1:45:00 AM 22.76 72.968 0.273 7.88 42.62 8.19
8/27/2021 2:00:00 AM 22.74 72.932 0.275 7.88 43.45 8.22
8/27/2021 2:15:00 AM 22.72 72.896 0.274 7.87 45.71 8.21
8/27/2021 2:30:00 AM 22.71 72.878 0.273 7.87 46.66 8.19
8/27/2021 2:45:00 AM 22.69 72.842 0.272 7.86 46.45 8.16
8/27/2021 3:00:00 AM 22.68 72.824 0.268 7.86 49.68 8.13
8/27/2021 3:15:00 AM 22.67 72.806 0.267 7.85 50.65 8.14
8/27/2021 3:30:00 AM 22.66 72.788 0.266 7.85 56.82 8.17
8/27/2021 3:45:00 AM 22.64 72.752 0.265 7.85 50 8.11
8/27/2021 4:00:00 AM 22.63 72.734 0.265 7.85 52.29 8.12
8/27/2021 4:15:00 AM 22.61 72.698 0.264 7.85 52.43 8.11
8/27/2021 4:30:00 AM 22.6 72.68 0.264 7.84 50.53 8.12
8/27/2021 4:45:00 AM 22.59 72.662 0.264 7.84 52.57 8.1
8/27/2021 5:00:00 AM 22.57 72.626 0.264 7.84 54.86 8.07
8/27/2021 5:15:00 AM 22.56 72.608 0.264 7.84 54.58 8.14
8/27/2021 5:30:00 AM 22.54 72.57201 0.264 7.84 54.14 8.14
8/27/2021 5:45:00 AM 22.52 72.536 0.264 7.84 57.43 8.1
8/27/2021 6:00:00 AM 22.5 72.5 0.265 7.84 55.82 8.11
8/27/2021 6:15:00 AM 22.48 72.464 0.264 7.84 57.39 8.13
8/27/2021 6:30:00 AM 22.46 72.42799 0.265 7.84 85.94 8.08
8/27/2021 6:45:00 AM 22.44 72.392 0.265 7.84 70.57 8.12
8/27/2021 7:00:00 AM 22.42 72.356 0.266 7.84 104.63 8.08
8/27/2021 7:15:00 AM 22.41 72.338 0.266 7.84 76.51 8.03
8/27/2021 7:30:00 AM 22.39 72.302 0.267 7.84 61.67 8.14
8/27/2021 7:45:00 AM 22.38 72.284 0.268 7.84 66.01 8.12
8/27/2021 8:00:00 AM 22.37 72.266 0.268 7.84 61.9 8.12
8/27/2021 8:15:00 AM 22.35 72.23 0.268 7.84 62.95 8.16
8/27/2021 8:30:00 AM 22.34 72.212 0.269 7.84 63.86 8.11
8/27/2021 8:45:00 AM 22.34 72.212 0.268 7.84 248.3 8.13
8/27/2021 9:00:00 AM 22.33 72.194 0.269 7.84 66.38 8.12
8/27/2021 9:15:00 AM 22.33 72.194 0.27 7.84 81.96 8.1
8/27/2021 9:30:00 AM 22.33 72.194 0.27 7.84 90 8.11
8/27/2021 9:45:00 AM 22.34 72.212 0.271 7.85 73.41 8.15
8/27/2021 10:00:00 AM 22.35 72.23 0.271 7.85 96.61 8.15
8/27/2021 10:15:00 AM 22.36 72.248 0.272 7.85 189.14 8.19
8/27/2021 10:30:00 AM 22.38 72.284 0.271 7.85 197.19 8.21
8/27/2021 10:45:00 AM 22.4 72.32 0.27 7.85 182.71 8.21
8/27/2021 11:00:00 AM 22.43 72.374 0.272 7.85 191.95 8.24
8/27/2021 11:15:00 AM 22.46 72.42799 0.272 7.85 50.81 8.28
8/27/2021 11:30:00 AM 22.5 72.5 0.272 7.85 46.15 8.25
8/27/2021 11:45:00 AM 22.54 72.57201 0.272 7.86 41.51 8.26
8/27/2021 12:00:00 PM 22.59 72.662 0.272 7.86 44.84 8.25
8/27/2021 12:15:00 PM 22.67 72.806 0.273 7.87 48.47 8.31
8/27/2021 12:30:00 PM 22.72 72.896 0.272 7.87 44.78 8.35
8/27/2021 12:45:00 PM 22.78 73.004 0.273 7.88 72.59 8.4
8/27/2021 1:00:00 PM 22.88 73.184 0.275 7.88 42.87 8.35
8/27/2021 1:15:00 PM 22.98 73.364 0.275 7.88 116.62 8.2
8/27/2021 1:30:00 PM 23.07 73.526 0.276 7.89 45.37 8.41
8/27/2021 1:45:00 PM 23.18 73.724 0.276 7.89 199.31 8.44
8/27/2021 2:00:00 PM 23.28 73.904 0.277 7.9 87.62 8.47
8/27/2021 2:15:00 PM 23.38 74.084 0.277 7.9 245.51 8.49
8/27/2021 2:30:00 PM 23.49 74.282 0.277 7.91 59.82 8.49
8/27/2021 2:45:00 PM 23.6 74.48 0.279 7.92 44.54 8.52
8/27/2021 3:00:00 PM 23.73 74.714 0.278 7.92 37.29 8.52
8/27/2021 3:15:00 PM 23.8 74.84 0.279 7.93 44.64 8.55
8/27/2021 3:30:00 PM 23.82 74.876 0.279 7.93 43.7 8.52
8/27/2021 3:45:00 PM 23.82 74.876 0.28 7.94 43.75 8.53
8/27/2021 4:00:00 PM 23.8 74.84 0.281 7.94 47.48 8.53
8/27/2021 4:15:00 PM 23.76 74.768 0.281 7.94 48.24 8.57
8/27/2021 4:30:00 PM 23.74 74.732 0.281 7.93 52.76 8.52
8/27/2021 4:45:00 PM 23.71 74.67799 0.282 7.94 52.23 8.54
8/27/2021 5:00:00 PM 23.7 74.66 0.282 7.94 43.62 8.54
8/27/2021 5:15:00 PM 23.68 74.624 0.283 7.94 42.4 8.54
8/27/2021 5:30:00 PM 23.67 74.606 0.282 7.94 42.86 8.53
8/27/2021 5:45:00 PM 23.66 74.588 0.283 7.95 75.04 8.52
8/27/2021 6:00:00 PM 23.65 74.57 0.283 7.95 47.11 8.51
8/27/2021 6:15:00 PM 23.64 74.552 0.279 7.95 44.99 8.5
8/27/2021 6:30:00 PM 23.62 74.516 0.281 7.95 65.64 8.49
8/27/2021 6:45:00 PM 23.61 74.498 0.28 7.95 136.94 8.47
8/27/2021 7:00:00 PM 23.6 74.48 0.283 7.95 45.14 8.49
8/27/2021 7:15:00 PM 23.59 74.462 0.284 7.94 43.04 8.45
8/27/2021 7:30:00 PM 23.58 74.444 0.285 7.95 39.93 8.46
8/27/2021 7:45:00 PM 23.56 74.408 0.284 7.95 41.85 8.47
8/27/2021 8:00:00 PM 23.55 74.39 0.283 7.95 39.89 8.45
8/27/2021 8:15:00 PM 23.52 74.336 0.284 7.95 40.03 8.46
8/27/2021 8:30:00 PM 23.5 74.3 0.284 7.96 65.98 8.46
8/27/2021 8:45:00 PM 23.48 74.264 0.285 7.96 41.12 8.47
8/27/2021 9:00:00 PM 23.44 74.192 0.285 7.95 43.53 8.42
8/27/2021 9:15:00 PM 23.42 74.156 0.284 7.95 49.8 8.45
8/27/2021 9:30:00 PM 23.42 74.156 0.285 7.96 44.07 8.45
8/27/2021 9:45:00 PM 23.42 74.156 0.285 7.97 82 8.46
8/27/2021 10:00:00 PM 23.42 74.156 0.283 7.98 58.49 8.46
8/27/2021 10:15:00 PM 23.43 74.174 0.283 7.98 49.64 8.46
8/27/2021 10:30:00 PM 23.44 74.192 0.284 7.98 48.55 8.45
8/27/2021 10:45:00 PM 23.45 74.21 0.282 7.99 51.12 8.45
8/27/2021 11:00:00 PM 23.45 74.21 0.283 7.99 52.82 8.43
8/27/2021 11:15:00 PM 23.44 74.192 0.281 7.99 50 8.4
8/27/2021 11:30:00 PM 23.42 74.156 0.279 7.98 70.54 8.4
8/27/2021 11:45:00 PM 23.39 74.102 0.276 7.97 77.56 8.38
8/28/2021 12:00:00 AM 23.34 74.012 0.273 7.96 115.2 8.34
8/28/2021 12:15:00 AM 23.27 73.886 0.27 7.93 196.31 8.31
8/28/2021 12:30:00 AM 23.17 73.706 0.263 7.89 303.88 8.3
8/28/2021 12:45:00 AM 23.07 73.526 0.254 7.85 434.08 8.25
8/28/2021 1:00:00 AM 22.94 73.292 0.245 7.8 597.18 8.2
8/28/2021 1:15:00 AM 22.81 73.058 0.234 7.75 893.7 8.17
8/28/2021 1:30:00 AM 22.69 72.842 0.224 7.71 753.07 8.15
8/28/2021 1:45:00 AM 22.57 72.626 0.216 7.68 964.33 8.12
8/28/2021 2:00:00 AM 22.45 72.41 0.207 7.65 887.63 8.12
8/28/2021 2:15:00 AM 22.35 72.23 0.2 7.63 1161.93 8.13
8/28/2021 2:30:00 AM 22.27 72.086 0.195 7.62 872.28 8.09
8/28/2021 2:45:00 AM 22.19 71.942 0.19 7.6 971.61 8.11
8/28/2021 3:00:00 AM 22.11 71.798 0.185 7.6 848.59 8.11
8/28/2021 3:15:00 AM 22.03 71.654 0.182 7.59 765.66 8.13
8/28/2021 3:30:00 AM 21.97 71.546 0.179 7.58 825.38 8.15
8/28/2021 3:45:00 AM 21.91 71.438 0.177 7.57 977.72 8.17
8/28/2021 4:00:00 AM 21.86 71.348 0.176 7.58 816.47 8.18
8/28/2021 4:15:00 AM 21.82 71.276 0.174 7.6 898.43 8.17
8/28/2021 4:30:00 AM 21.77 71.186 0.173 7.61 598.38 8.19
8/28/2021 4:45:00 AM 21.74 71.132 0.172 7.62 648.22 8.22
8/28/2021 5:00:00 AM 21.71 71.078 0.174 7.62 671.62 8.24
8/28/2021 5:15:00 AM 21.68 71.024 0.174 7.63 516.69 8.24
8/28/2021 5:30:00 AM 21.65 70.97 0.176 7.64 471.27 8.27
8/28/2021 5:45:00 AM 21.64 70.952 0.178 7.65 433.92 8.28
8/28/2021 6:00:00 AM 21.62 70.916 0.18 7.66 380.98 8.28
8/28/2021 6:15:00 AM 21.61 70.898 0.182 7.67 353.05 8.27
8/28/2021 6:30:00 AM 21.61 70.898 0.188 7.68 290.68 8.3
8/28/2021 6:45:00 AM 21.61 70.898 0.19 7.69 271.84 8.29
8/28/2021 7:00:00 AM 21.62 70.916 0.196 7.7 274.94 8.31
8/28/2021 7:15:00 AM 21.64 70.952 0.2 7.72 200.04 8.31
8/28/2021 7:30:00 AM 21.67 71.006 0.206 7.73 168.49 8.32
8/28/2021 7:45:00 AM 21.69 71.042 0.211 7.75 224.81 8.32
8/28/2021 8:00:00 AM 21.73 71.114 0.216 7.76 158.25 8.31
8/28/2021 8:15:00 AM 21.76 71.168 0.22 7.78 199.53 8.31
8/28/2021 8:30:00 AM 21.79 71.222 0.226 7.79 177.12 8.32
8/28/2021 8:45:00 AM 21.82 71.276 0.229 7.8 184.29 8.32
8/28/2021 9:00:00 AM 21.85 71.33 0.232 7.81 180.66 8.32
8/28/2021 9:15:00 AM 21.87 71.366 0.233 7.81 210.69 8.32
8/28/2021 9:30:00 AM 21.89 71.402 0.233 7.82 236.65 8.32
8/28/2021 9:45:00 AM 21.91 71.438 0.233 7.82 326.59 8.3
8/28/2021 10:00:00 AM 21.92 71.456 0.232 7.82 287.56 8.29
8/28/2021 10:15:00 AM 21.94 71.492 0.231 7.82 310.25 8.28
8/28/2021 10:30:00 AM 21.96 71.528 0.229 7.82 422.64 8.26
8/28/2021 10:45:00 AM 21.98 71.564 0.229 7.82 342.26 8.25
8/28/2021 11:00:00 AM 22.01 71.618 0.228 7.82 331.75 8.25
8/28/2021 11:15:00 AM 22.05 71.69 0.229 7.81 400.67 8.26
8/28/2021 11:30:00 AM 22.08 71.744 0.227 7.82 363.79 8.24
8/28/2021 11:45:00 AM 22.12 71.816 0.227 7.82 290.67 8.25
8/28/2021 12:00:00 PM 22.16 71.888 0.226 7.82 337 8.25
8/28/2021 12:15:00 PM 22.19 71.942 0.226 7.83 282.25 8.26
8/28/2021 12:30:00 PM 22.21 71.978 0.226 7.83 302.77 8.27
8/28/2021 12:45:00 PM 22.22 71.996 0.224 7.82 305.6 8.27
8/28/2021 1:00:00 PM 22.26 72.068 0.222 7.82 327.7 8.28
8/28/2021 1:15:00 PM 22.28 72.104 0.219 7.82 355.59 8.26
8/28/2021 1:30:00 PM 22.34 72.212 0.217 7.81 517.55 8.25
8/28/2021 1:45:00 PM 22.4 72.32 0.214 7.79 446.98 8.25
8/28/2021 2:00:00 PM 22.46 72.42799 0.21 7.78 480.52 8.25
8/28/2021 2:15:00 PM 22.5 72.5 0.207 7.77 474.69 8.25
8/28/2021 2:30:00 PM 22.55 72.59 0.205 7.77 550.42 8.24
8/28/2021 2:45:00 PM 22.6 72.68 0.203 7.77 591.66 8.24
8/28/2021 3:00:00 PM 22.63 72.734 0.201 7.76 658.35 8.23
8/28/2021 3:15:00 PM 22.68 72.824 0.199 7.76 463.42 8.23
8/28/2021 3:30:00 PM 22.72 72.896 0.199 7.75 461.98 8.24
8/28/2021 3:45:00 PM 22.76 72.968 0.198 7.75 519.91 8.24
8/28/2021 4:00:00 PM 22.77 72.986 0.198 7.75 464.14 8.25
8/28/2021 4:15:00 PM 22.79 73.022 0.199 7.75 597.86 8.25
8/28/2021 4:30:00 PM 22.81 73.058 0.2 7.76 401.31 8.27
8/28/2021 4:45:00 PM 22.83 73.094 0.201 7.76 502.82 8.25
8/28/2021 5:00:00 PM 22.84 73.112 0.201 7.77 423.29 8.26
8/28/2021 5:15:00 PM 22.87 73.166 0.204 7.77 325.76 8.28
8/28/2021 5:30:00 PM 22.9 73.22 0.206 7.77 258.63 8.26
8/28/2021 5:45:00 PM 22.94 73.292 0.207 7.78 300.17 8.27
8/28/2021 6:00:00 PM 22.96 73.328 0.209 7.78 286.42 8.28
8/28/2021 6:15:00 PM 22.97 73.346 0.211 7.79 239.42 8.28
8/28/2021 6:30:00 PM 22.98 73.364 0.212 7.79 189.14 8.28
8/28/2021 6:45:00 PM 23 73.4 0.213 7.79 234.18 8.27
8/28/2021 7:00:00 PM 23.02 73.436 0.213 7.79 174.32 8.27
8/28/2021 7:15:00 PM 23.05 73.49 0.215 7.8 174.88 8.26
8/28/2021 7:30:00 PM 23.06 73.508 0.216 7.8 161.63 8.27
8/28/2021 7:45:00 PM 23.08 73.544 0.216 7.8 165.91 8.26
8/28/2021 8:00:00 PM 23.1 73.58 0.216 7.8 166.45 8.27
8/28/2021 8:15:00 PM 23.11 73.598 0.216 7.8 137.17 8.25
8/28/2021 8:30:00 PM 23.12 73.616 0.216 7.8 203.65 8.22
8/28/2021 8:45:00 PM 23.13 73.634 0.216 7.8 146.06 8.24
8/28/2021 9:00:00 PM 23.12 73.616 0.214 7.8 158.1 8.24
8/28/2021 9:15:00 PM 23.12 73.616 0.216 7.8 181.58 8.23
8/28/2021 9:30:00 PM 23.11 73.598 0.216 7.8 181.46 8.22
8/28/2021 9:45:00 PM 23.1 73.58 0.215 7.81 238.86 8.2
8/28/2021 10:00:00 PM 23.1 73.58 0.214 7.81 342.89 8.22
8/28/2021 10:15:00 PM 23.1 73.58 0.214 7.81 249.9 8.23
8/28/2021 10:30:00 PM 23.1 73.58 0.214 7.81 285.5 8.2
8/28/2021 10:45:00 PM 23.11 73.598 0.213 7.81 294.55 8.22
8/28/2021 11:00:00 PM 23.12 73.616 0.213 7.81 275.85 8.15
8/28/2021 11:15:00 PM 23.13 73.634 0.213 7.81 292.46 8.14
8/28/2021 11:30:00 PM 23.15 73.67 0.212 7.81 336.02 8.16
8/28/2021 11:45:00 PM 23.16 73.688 0.213 7.82 339.89 8.12
8/29/2021 12:00:00 AM 23.18 73.724 0.213 7.82 353.98 8.07
8/29/2021 12:15:00 AM 23.19 73.742 0.213 7.82 424.45 8.13
8/29/2021 12:30:00 AM 23.2 73.76 0.213 7.82 320.92 8.18
8/29/2021 12:45:00 AM 23.21 73.778 0.212 7.82 384.77 8.17
8/29/2021 1:00:00 AM 23.22 73.796 0.213 7.83 420.53 8.13
8/29/2021 1:15:00 AM 23.22 73.796 0.208 7.83 405.54 8.11
8/29/2021 1:30:00 AM 23.23 73.814 0.21 7.83 398.49 8.09
8/29/2021 1:45:00 AM 23.23 73.814 0.211 7.83 385.03 8.09
8/29/2021 2:00:00 AM 23.22 73.796 0.212 7.83 436.13 8.08
8/29/2021 2:15:00 AM 23.21 73.778 0.213 7.84 393.22 8.04
8/29/2021 2:30:00 AM 23.2 73.76 0.213 7.84 495.99 8.1
8/29/2021 2:45:00 AM 23.19 73.742 0.213 7.84 396.31 8.07
8/29/2021 3:00:00 AM 23.18 73.724 0.213 7.84 404.66 8.15
8/29/2021 3:15:00 AM 23.17 73.706 0.213 7.84 455.99 8.08
8/29/2021 3:30:00 AM 23.16 73.688 0.213 7.85 436.35 8.15
8/29/2021 3:45:00 AM 23.15 73.67 0.214 7.85 424.3 8.13
8/29/2021 4:00:00 AM 23.14 73.652 0.214 7.85 441.35 8.18
8/29/2021 4:15:00 AM 23.13 73.634 0.214 7.85 381 8.17
8/29/2021 4:30:00 AM 23.12 73.616 0.214 7.85 409.4 8.17
8/29/2021 4:45:00 AM 23.1 73.58 0.215 7.86 445.48 8.16
8/29/2021 5:00:00 AM 23.09 73.562 0.215 7.86 403.9 8.18
8/29/2021 5:15:00 AM 23.07 73.526 0.216 7.86 375.72 8.19
8/29/2021 5:30:00 AM 23.04 73.472 0.215 7.86 426.35 8.16
8/29/2021 5:45:00 AM 23.02 73.436 0.216 7.86 406.39 8.18
8/29/2021 6:00:00 AM 22.99 73.382 0.217 7.86 365.25 8.19
8/29/2021 6:15:00 AM 22.97 73.346 0.218 7.86 420.6 8.19
8/29/2021 6:30:00 AM 22.94 73.292 0.218 7.86 371.81 8.17
8/29/2021 6:45:00 AM 22.91 73.238 0.219 7.87 485.1 8.18
8/29/2021 7:00:00 AM 22.89 73.202 0.219 7.86 349.43 8.18
8/29/2021 7:15:00 AM 22.87 73.166 0.22 7.86 499.32 8.2
8/29/2021 7:30:00 AM 22.85 73.13 0.221 7.86 367.67 8.2
8/29/2021 7:45:00 AM 22.83 73.094 0.222 7.86 381.97 8.19
8/29/2021 8:00:00 AM 22.82 73.076 0.223 7.86 331.48 8.18
8/29/2021 8:15:00 AM 22.81 73.058 0.224 7.87 331.81 8.21
8/29/2021 8:30:00 AM 22.8 73.04 0.225 7.87 361.87 8.21
8/29/2021 8:45:00 AM 22.79 73.022 0.226 7.87 318.81 8.22
8/29/2021 9:00:00 AM 22.78 73.004 0.227 7.87 327.41 8.21
8/29/2021 9:15:00 AM 22.78 73.004 0.228 7.87 222.77 8.21
8/29/2021 9:30:00 AM 22.78 73.004 0.228 7.87 209.82 8.22
8/29/2021 9:45:00 AM 22.79 73.022 0.229 7.87 224.62 8.22
8/29/2021 10:00:00 AM 22.8 73.04 0.23 7.88 184.86 8.25
8/29/2021 10:15:00 AM 22.83 73.094 0.23 7.88 222.41 8.23
8/29/2021 10:30:00 AM 22.87 73.166 0.231 7.88 185.23 8.24
8/29/2021 10:45:00 AM 22.92 73.256 0.232 7.88 189.93 8.24
8/29/2021 11:00:00 AM 22.96 73.328 0.233 7.88 184.6 8.24
8/29/2021 11:15:00 AM 22.97 73.346 0.233 7.88 182.94 8.24
8/29/2021 11:30:00 AM 22.99 73.382 0.234 7.88 194.31 8.26
8/29/2021 11:45:00 AM 23.02 73.436 0.235 7.88 165.09 8.25
8/29/2021 12:00:00 PM 23.07 73.526 0.236 7.89 451.08 8.26
8/29/2021 12:15:00 PM 23.11 73.598 0.235 7.88 184.23 8.25
8/29/2021 12:30:00 PM 23.12 73.616 0.236 7.89 192.78 8.26
8/29/2021 12:45:00 PM 23.12 73.616 0.236 7.9 167.64 8.27
8/29/2021 1:00:00 PM 23.15 73.67 0.236 7.9 147.35 8.26
8/29/2021 1:15:00 PM 23.18 73.724 0.237 7.9 165.79 8.25
8/29/2021 1:30:00 PM 23.25 73.85 0.239 7.9 150.83 8.28
8/29/2021 1:45:00 PM 23.31 73.958 0.239 7.9 162.66 8.27
8/29/2021 2:00:00 PM 23.37 74.066 0.24 7.9 149.06 8.27
8/29/2021 2:15:00 PM 23.44 74.192 0.24 7.9 155.63 8.28
8/29/2021 2:30:00 PM 23.49 74.282 0.24 7.9 168.9 8.28
8/29/2021 2:45:00 PM 23.53 74.354 0.239 7.91 134.32 8.29
8/29/2021 3:00:00 PM 23.53 74.354 0.239 7.9 173.25 8.28
8/29/2021 3:15:00 PM 23.54 74.372 0.241 7.91 154.98 8.3
8/29/2021 3:30:00 PM 23.58 74.444 0.241 7.9 177.56 8.28
8/29/2021 3:45:00 PM 23.6 74.48 0.24 7.9 147.57 8.25
8/29/2021 4:00:00 PM 23.62 74.516 0.24 7.91 125.85 8.3
8/29/2021 4:15:00 PM 23.64 74.552 0.241 7.91 135.53 8.28
8/29/2021 4:30:00 PM 23.64 74.552 0.242 7.91 126.07 8.27
8/29/2021 4:45:00 PM 23.63 74.534 0.242 7.91 123.61 8.28
8/29/2021 5:00:00 PM 23.6 74.48 0.244 7.91 122.54 8.27
8/29/2021 5:15:00 PM 23.57 74.426 0.243 7.91 123.68 8.26
8/29/2021 5:30:00 PM 23.56 74.408 0.244 7.91 111.73 8.27
8/29/2021 5:45:00 PM 23.57 74.426 0.244 7.91 117.09 8.28
8/29/2021 6:00:00 PM 23.58 74.444 0.242 7.91 1132.98 8.27
8/29/2021 6:15:00 PM 23.57 74.426 0.245 7.91 151.77 8.28
8/29/2021 6:30:00 PM 23.57 74.426 0.246 7.91 100.92 8.27
8/29/2021 6:45:00 PM 23.56 74.408 0.246 7.91 93.2 8.29
8/29/2021 7:00:00 PM 23.56 74.408 0.246 7.91 102.15 8.26
8/29/2021 7:15:00 PM 23.56 74.408 0.249 7.91 202.94 8.27
8/29/2021 7:30:00 PM 23.56 74.408 0.248 7.91 104.32 8.26
8/29/2021 7:45:00 PM 23.55 74.39 0.248 7.91 99.73 8.28
8/29/2021 8:00:00 PM 23.54 74.372 0.248 7.91 92.26 8.24
8/29/2021 8:15:00 PM 23.52 74.336 0.247 7.91 101.46 8.25
8/29/2021 8:30:00 PM 23.49 74.282 0.249 7.91 96.9 8.26
8/29/2021 8:45:00 PM 23.46 74.228 0.25 7.91 88.97 8.23
8/29/2021 9:00:00 PM 23.43 74.174 0.249 7.91 112.07 8.24
8/29/2021 9:15:00 PM 23.39 74.102 0.249 7.91 94.66 8.21
8/29/2021 9:30:00 PM 23.36 74.048 0.249 7.9 94.23 8.24
8/29/2021 9:45:00 PM 23.32 73.976 0.25 7.9 84.48 8.24
8/29/2021 10:00:00 PM 23.29 73.922 0.25 7.9 86.29 8.25
8/29/2021 10:15:00 PM 23.27 73.886 0.251 7.9 92.53 8.25
8/29/2021 10:30:00 PM 23.25 73.85 0.251 7.9 86.4 8.25
8/29/2021 10:45:00 PM 23.23 73.814 0.251 7.9 84.93 8.23
8/29/2021 11:00:00 PM 23.23 73.814 0.252 7.91 80.94 8.21
8/29/2021 11:15:00 PM 23.22 73.796 0.253 7.9 91.01 8.2
8/29/2021 11:30:00 PM 23.21 73.778 0.253 7.9 94.46 8.24
8/29/2021 11:45:00 PM 23.21 73.778 0.253 7.91 1266.5 8.22
8/30/2021 12:00:00 AM 23.21 73.778 0.253 7.9 80.7 8.21
8/30/2021 12:15:00 AM 23.21 73.778 0.254 7.9 79.1 8.2
8/30/2021 12:30:00 AM 23.21 73.778 0.254 7.9 74.9 8.14
8/30/2021 12:45:00 AM 23.21 73.778 0.254 7.91 80.15 8.15
8/30/2021 1:00:00 AM 23.21 73.778 0.255 7.91 77.81 8.22
8/30/2021 1:15:00 AM 23.21 73.778 0.256 7.9 83.32 8.19
8/30/2021 1:30:00 AM 23.21 73.778 0.257 7.91 79.73 8.2
8/30/2021 1:45:00 AM 23.21 73.778 0.257 7.91 73.1 8.18
8/30/2021 2:00:00 AM 23.21 73.778 0.258 7.91 71.27 8.18
8/30/2021 2:15:00 AM 23.2 73.76 0.26 7.9 80.5 8.15
8/30/2021 2:30:00 AM 23.19 73.742 0.261 7.91 75.43 8.17
8/30/2021 2:45:00 AM 23.18 73.724 0.263 7.91 73.51 8.15
8/30/2021 3:00:00 AM 23.17 73.706 0.268 7.91 73.58 8.19
8/30/2021 3:15:00 AM 23.15 73.67 0.27 7.91 73.88 8.14
8/30/2021 3:30:00 AM 23.14 73.652 0.275 7.91 70.97 8.12
8/30/2021 3:45:00 AM 23.13 73.634 0.278 7.91 79.62 8.09
8/30/2021 4:00:00 AM 23.12 73.616 0.28 7.91 71.05 8.13
8/30/2021 4:15:00 AM 23.1 73.58 0.185 7.8 113.56 8.1
8/30/2021 4:30:00 AM 23.09 73.562 0.283 7.83 141.48 8.16
8/30/2021 4:45:00 AM 23.07 73.526 0.277 7.88 67.05 8.17
8/30/2021 5:00:00 AM 23.05 73.49 0.275 7.89 54.84 8.21
8/30/2021 5:15:00 AM 23.03 73.454 0.267 7.9 39.45 8.2
8/30/2021 5:30:00 AM 23.02 73.436 0.262 7.9 38.38 8.18
8/30/2021 5:45:00 AM 23 73.4 0.254 7.89 28.72 8.19
8/30/2021 6:00:00 AM 22.98 73.364 0.246 7.9 20.82 8.18
8/30/2021 6:15:00 AM 22.95 73.31 0.239 7.9 21.78 8.17
8/30/2021 6:30:00 AM 22.93 73.274 0.233 7.9 9.68 8.17
8/30/2021 6:45:00 AM 22.9 73.22 0.218 7.9 5.05 8.17
8/30/2021 7:00:00 AM 22.88 73.184 0.199 7.9 2.08 8.17
8/30/2021 7:15:00 AM 22.86 73.148 0.288 7.88 67.2 8.18
8/30/2021 7:30:00 AM 22.84 73.112 0.289 7.88 111.09 8.17
8/30/2021 7:45:00 AM 22.82 73.076 0.289 7.89 83.62 8.17
8/30/2021 8:00:00 AM 22.81 73.058 0.29 7.9 79.19 8.17
8/30/2021 8:15:00 AM 22.79 73.022 0.291 7.9 67.32 8.19
8/30/2021 8:30:00 AM 22.8 73.04 0.291 7.9 112.29 8.2
8/30/2021 8:45:00 AM 22.8 73.04 0.292 7.91 70.87 8.2
8/30/2021 9:00:00 AM 22.82 73.076 0.293 7.91 123.4 8.24
8/30/2021 9:15:00 AM 22.84 73.112 0.294 7.9 78.12 8.25
8/30/2021 9:30:00 AM 22.86 73.148 0.294 7.92 66.3 8.26
8/30/2021 9:45:00 AM 22.87 73.166 0.295 7.92 64.35 8.29
8/30/2021 10:00:00 AM 22.91 73.238 0.296 7.92 77.88 8.3
8/30/2021 10:15:00 AM 22.96 73.328 0.296 7.93 68.74 8.34
8/30/2021 10:30:00 AM 23 73.4 0.297 7.94 70.48 8.36
8/30/2021 10:45:00 AM 23.07 73.526 0.298 7.94 67.87 8.39
8/30/2021 11:00:00 AM 23.13 73.634 0.298 7.95 61.71 8.4
8/30/2021 11:15:00 AM 23.21 73.778 0.299 7.97 67.11 8.43
8/30/2021 11:30:00 AM 23.28 73.904 0.3 7.98 66.78 8.46
8/30/2021 11:45:00 AM 23.35 74.03 0.301 7.98 62.69 8.49
8/30/2021 12:00:00 PM 23.38 74.084 0.301 7.99 68.59 8.49
8/30/2021 12:15:00 PM 23.38 74.084 0.302 7.99 64.6 8.5
8/30/2021 12:30:00 PM 23.37 74.066 0.302 7.99 64.19 8.51
8/30/2021 12:45:00 PM 23.38 74.084 0.303 7.99 64.66 8.52
8/30/2021 1:00:00 PM 23.4 74.12 0.304 7.99 62.6 8.52
8/30/2021 1:15:00 PM 23.41 74.138 0.304 8 63.51 8.53
8/30/2021 1:30:00 PM 23.46 74.228 0.305 8 56.91 8.55
8/30/2021 1:45:00 PM 23.49 74.282 0.306 8.01 62.16 8.56
8/30/2021 2:00:00 PM 23.52 74.336 0.306 8 62.8 8.57
8/30/2021 2:15:00 PM 23.57 74.426 0.307 8.01 62.37 8.57
8/30/2021 2:30:00 PM 23.59 74.462 0.308 8.01 61.91 8.57
8/30/2021 2:45:00 PM 23.6 74.48 0.308 8.01 60.98 8.58
8/30/2021 3:00:00 PM 23.6 74.48 0.309 8.01 60.3 8.55
8/30/2021 3:15:00 PM 23.59 74.462 0.308 8.02 66.38 8.57
8/30/2021 3:30:00 PM 23.58 74.444 0.308 8.02 66.74 8.54
8/30/2021 3:45:00 PM 23.6 74.48 0.309 8.01 65.48 8.56
8/30/2021 4:00:00 PM 23.64 74.552 0.309 8.01 63.91 8.55
8/30/2021 4:15:00 PM 23.67 74.606 0.309 8.02 146.07 8.57
8/30/2021 4:30:00 PM 23.69 74.642 0.31 8.02 61.15 8.58
8/30/2021 4:45:00 PM 23.7 74.66 0.311 8.02 61.4 8.58
8/30/2021 5:00:00 PM 23.71 74.67799 0.312 8.02 57.91 8.57
8/30/2021 5:15:00 PM 23.71 74.67799 0.313 8.02 61.08 8.57
8/30/2021 5:30:00 PM 23.69 74.642 0.314 8.02 57.51 8.55
8/30/2021 5:45:00 PM 23.68 74.624 0.315 8.02 59.59 8.55
8/30/2021 6:00:00 PM 23.66 74.588 0.317 8.03 55.59 8.55
8/30/2021 6:15:00 PM 23.64 74.552 0.318 8.03 59.01 8.55
8/30/2021 6:30:00 PM 23.62 74.516 0.319 8.02 58.05 8.54
8/30/2021 6:45:00 PM 23.59 74.462 0.322 8.03 56.81 8.53
8/30/2021 7:00:00 PM 23.57 74.426 0.323 8.03 56.97 8.53
8/30/2021 7:15:00 PM 23.54 74.372 0.325 8.03 56.45 8.53
8/30/2021 7:30:00 PM 23.51 74.318 0.326 8.03 55.91 8.52
8/30/2021 7:45:00 PM 23.48 74.264 0.327 8.02 57.95 8.51
8/30/2021 8:00:00 PM 23.45 74.21 0.329 8.03 56.4 8.49
8/30/2021 8:15:00 PM 23.42 74.156 0.33 8.03 54.29 8.49
8/30/2021 8:30:00 PM 23.38 74.084 0.331 8.03 56.18 8.47
8/30/2021 8:45:00 PM 23.34 74.012 0.331 8.03 55.5 8.47
8/30/2021 9:00:00 PM 23.3 73.94 0.332 8.02 56.3 8.46
8/30/2021 9:15:00 PM 23.25 73.85 0.333 8.03 55.83 8.44
8/30/2021 9:30:00 PM 23.2 73.76 0.334 8.03 56.75 8.44
8/30/2021 9:45:00 PM 23.15 73.67 0.334 8.03 56.35 8.44
8/30/2021 10:00:00 PM 23.1 73.58 0.334 8.02 55.54 8.41
8/30/2021 10:15:00 PM 23.06 73.508 0.335 8.02 54.94 8.41
8/30/2021 10:30:00 PM 23.01 73.418 0.335 8.02 56.11 8.42
8/30/2021 10:45:00 PM 22.96 73.328 0.335 8.02 55.66 8.4
8/30/2021 11:00:00 PM 22.93 73.274 0.335 8.02 56.21 8.39
8/30/2021 11:15:00 PM 22.89 73.202 0.335 8.02 57.42 8.38
8/30/2021 11:30:00 PM 22.85 73.13 0.334 8.02 58.44 8.37
8/30/2021 11:45:00 PM 22.82 73.076 0.334 8.01 55.47 8.36
8/31/2021 12:00:00 AM 22.79 73.022 0.333 8.01 63.32 8.35
8/31/2021 12:15:00 AM 22.75 72.95 0.332 8 59.9 8.35
8/31/2021 12:30:00 AM 22.72 72.896 0.331 8 59.79 8.34
8/31/2021 12:45:00 AM 22.69 72.842 0.33 8 65.21 8.33
8/31/2021 1:00:00 AM 22.65 72.77 0.329 7.99 63.22 8.32
8/31/2021 1:15:00 AM 22.62 72.716 0.328 7.99 63.51 8.31
8/31/2021 1:30:00 AM 22.58 72.644 0.325 7.99 64.98 8.3
8/31/2021 1:45:00 AM 22.55 72.59 0.324 7.97 65.92 8.28
8/31/2021 2:00:00 AM 22.51 72.518 0.322 7.98 64.25 8.28
8/31/2021 2:15:00 AM 22.47 72.446 0.32 7.96 66.73 8.28
8/31/2021 2:30:00 AM 22.44 72.392 0.318 7.96 67.61 8.27
8/31/2021 2:45:00 AM 22.41 72.338 0.317 7.96 68.85 8.26
8/31/2021 3:00:00 AM 22.38 72.284 0.315 7.96 70.07 8.25
8/31/2021 3:15:00 AM 22.35 72.23 0.314 7.94 72.31 8.24
8/31/2021 3:30:00 AM 22.32 72.176 0.312 7.95 70.25 8.24
8/31/2021 3:45:00 AM 22.3 72.14 0.311 7.94 74.07 8.23
8/31/2021 4:00:00 AM 22.27 72.086 0.31 7.94 71.32 8.23
8/31/2021 4:15:00 AM 22.25 72.05 0.309 7.93 69.99 8.21
8/31/2021 4:30:00 AM 22.23 72.014 0.308 7.93 71.61 8.22
8/31/2021 4:45:00 AM 22.2 71.96 0.307 7.93 69.73 8.22
8/31/2021 5:00:00 AM 22.18 71.924 0.307 7.92 73.77 8.21
8/31/2021 5:15:00 AM 22.17 71.906 0.306 7.93 69.85 8.22
8/31/2021 5:30:00 AM 22.15 71.87 0.305 7.91 64.44 8.21
8/31/2021 5:45:00 AM 22.13 71.834 0.305 7.92 71.92 8.21
8/31/2021 6:00:00 AM 22.11 71.798 0.305 7.92 74.39 8.21
8/31/2021 6:15:00 AM 22.1 71.78 0.305 7.92 69.02 8.21
8/31/2021 6:30:00 AM 22.08 71.744 0.305 7.92 69.5 8.21
8/31/2021 6:45:00 AM 22.06 71.708 0.305 7.91 66.54 8.2
8/31/2021 7:00:00 AM 22.04 71.672 0.305 7.92 65.47 8.19
8/31/2021 7:15:00 AM 22.02 71.636 0.305 7.92 69.89 8.19
8/31/2021 7:30:00 AM 22.01 71.618 0.305 7.91 64.4 8.22
8/31/2021 7:45:00 AM 22 71.6 0.305 7.92 67.74 8.22
8/31/2021 8:00:00 AM 21.99 71.582 0.305 7.93 63.71 8.23
8/31/2021 8:15:00 AM 21.99 71.582 0.305 7.93 66.95 8.26
8/31/2021 8:30:00 AM 21.98 71.564 0.306 7.93 63.04 8.27
8/31/2021 8:45:00 AM 21.98 71.564 0.306 7.93 64.33 8.28
8/31/2021 9:00:00 AM 21.99 71.582 0.307 7.94 63 8.31
8/31/2021 9:15:00 AM 22 71.6 0.307 7.94 62.88 8.33
8/31/2021 9:30:00 AM 22 71.6 0.307 7.94 62.59 8.34
8/31/2021 9:45:00 AM 22.01 71.618 0.308 7.95 61.33 8.37
8/31/2021 10:00:00 AM 22.04 71.672 0.308 7.94 60.14 8.4
8/31/2021 10:15:00 AM 22.09 71.762 0.308 7.96 58.96 8.43
8/31/2021 10:30:00 AM 22.13 71.834 0.309 7.96 59.48 8.46
8/31/2021 10:45:00 AM 22.19 71.942 0.309 7.97 58.39 8.51
8/31/2021 11:00:00 AM 22.25 72.05 0.309 7.97 56 8.52
8/31/2021 11:15:00 AM 22.32 72.176 0.31 7.98 57.44 8.58
8/31/2021 11:30:00 AM 22.36 72.248 0.31 7.98 59.65 8.61
8/31/2021 11:45:00 AM 22.45 72.41 0.31 8 57.67 8.63
8/31/2021 12:00:00 PM 22.54 72.57201 0.311 8 56.58 8.67
8/31/2021 12:15:00 PM 22.63 72.734 0.311 8.01 53.34 8.7
8/31/2021 12:30:00 PM 22.73 72.914 0.311 8.01 57.75 8.73
8/31/2021 12:45:00 PM 22.8 73.04 0.312 8.02 55.83 8.76
8/31/2021 1:00:00 PM 22.82 73.076 0.312 8.03 55.14 8.78
8/31/2021 1:15:00 PM 22.88 73.184 0.312 8.03 55.74 8.79
8/31/2021 1:30:00 PM 22.93 73.274 0.313 8.04 55.3 8.81
8/31/2021 1:45:00 PM 22.97 73.346 0.313 8.05 54.35 8.84
8/31/2021 2:00:00 PM 23.04 73.472 0.313 8.05 53.8 8.86
8/31/2021 2:15:00 PM 23.1 73.58 0.314 8.06 55.8 8.89
8/31/2021 2:30:00 PM 23.16 73.688 0.314 8.07 54.68 8.89
8/31/2021 2:45:00 PM 23.2 73.76 0.315 8.07 53.61 8.93
8/31/2021 3:00:00 PM 23.26 73.868 0.315 8.07 52.14 8.93
8/31/2021 3:15:00 PM 23.3 73.94 0.315 8.08 53.36 8.96
8/31/2021 3:30:00 PM 23.35 74.03 0.316 8.09 54.89 8.99
8/31/2021 3:45:00 PM 23.38 74.084 0.316 8.09 53.99 9.01
8/31/2021 4:00:00 PM 23.39 74.102 0.316 8.1 53.41 9.01
8/31/2021 4:15:00 PM 23.39 74.102 0.317 8.1 53.1 9.02
8/31/2021 4:30:00 PM 23.42 74.156 0.317 8.1 52.97 9.02
8/31/2021 4:45:00 PM 23.45 74.21 0.317 8.12 52.42 9.03
8/31/2021 5:00:00 PM 23.47 74.246 0.318 8.12 54.27 9.03
8/31/2021 5:15:00 PM 23.48 74.264 0.318 8.12 63.2 9.05
8/31/2021 5:30:00 PM 23.47 74.246 0.318 8.11 52.47 9.02
8/31/2021 5:45:00 PM 23.45 74.21 0.318 8.12 50.85 9.03
8/31/2021 6:00:00 PM 23.42 74.156 0.318 8.12 51 9
8/31/2021 6:15:00 PM 23.4 74.12 0.319 8.11 51.47 8.98
8/31/2021 6:30:00 PM 23.37 74.066 0.319 8.11 51.54 8.96
8/31/2021 6:45:00 PM 23.34 74.012 0.319 8.12 51.14 8.95
8/31/2021 7:00:00 PM 23.32 73.976 0.319 8.12 50.72 8.93
8/31/2021 7:15:00 PM 23.28 73.904 0.32 8.11 54 8.91
8/31/2021 7:30:00 PM 23.25 73.85 0.32 8.1 51.23 8.87
8/31/2021 7:45:00 PM 23.22 73.796 0.32 8.1 51.35 8.85
8/31/2021 8:00:00 PM 23.18 73.724 0.321 8.1 51.33 8.83
8/31/2021 8:15:00 PM 23.14 73.652 0.321 8.1 51.01 8.82
8/31/2021 8:30:00 PM 23.11 73.598 0.321 8.1 53.58 8.79
8/31/2021 8:45:00 PM 23.08 73.544 0.321 8.09 51.2 8.77
8/31/2021 9:00:00 PM 23.05 73.49 0.322 8.09 52.45 8.74
8/31/2021 9:15:00 PM 23.02 73.436 0.322 8.08 51.34 8.72
8/31/2021 9:30:00 PM 22.99 73.382 0.322 8.08 50.71 8.7
8/31/2021 9:45:00 PM 22.97 73.346 0.322 8.07 50.77 8.68
8/31/2021 10:00:00 PM 22.94 73.292 0.323 8.08 52.67 8.67
8/31/2021 10:15:00 PM 22.92 73.256 0.323 8.07 51.36 8.64
8/31/2021 10:30:00 PM 22.9 73.22 0.323 8.07 53.06 8.64
8/31/2021 10:45:00 PM 22.89 73.202 0.323 8.07 50.38 8.62
8/31/2021 11:00:00 PM 22.87 73.166 0.323 8.07 50.97 8.61
8/31/2021 11:15:00 PM 22.86 73.148 0.324 8.06 65.56 8.59
8/31/2021 11:30:00 PM 22.84 73.112 0.324 8.05 49.68 8.57
8/31/2021 11:45:00 PM 22.82 73.076 0.324 8.06 50.16 8.56
9/1/2021 12:00:00 AM 22.81 73.058 0.324 8.05 50.34 8.54
9/1/2021 12:15:00 AM 22.79 73.022 0.324 8.05 53.72 8.53
9/1/2021 12:30:00 AM 22.78 73.004 0.325 8.05 51.36 8.51
9/1/2021 12:45:00 AM 22.76 72.968 0.325 8.04 50.94 8.5
9/1/2021 1:00:00 AM 22.75 72.95 0.325 8.04 50.54 8.5
9/1/2021 1:15:00 AM 22.73 72.914 0.327 8.04 50.24 8.48
9/1/2021 1:30:00 AM 22.71 72.878 0.327 8.05 50.18 8.46
9/1/2021 1:45:00 AM 22.69 72.842 0.327 8.04 54.7 8.46
9/1/2021 2:00:00 AM 22.67 72.806 0.327 8.04 53.67 8.45
9/1/2021 2:15:00 AM 22.64 72.752 0.328 8.04 51.95 8.44
9/1/2021 2:30:00 AM 22.62 72.716 0.328 8.03 79.89 8.42
9/1/2021 2:45:00 AM 22.59 72.662 0.328 8.04 51.85 8.42
9/1/2021 3:00:00 AM 22.57 72.626 0.328 8.03 53.73 8.42
9/1/2021 3:15:00 AM 22.54 72.57201 0.328 8.03 51.28 8.41
9/1/2021 3:30:00 AM 22.51 72.518 0.329 8.03 49.44 8.39
9/1/2021 3:45:00 AM 22.49 72.482 0.329 8.04 51.07 8.4
9/1/2021 4:00:00 AM 22.46 72.42799 0.329 8.04 51.56 8.39
9/1/2021 4:15:00 AM 22.44 72.392 0.329 8.04 50.39 8.39
9/1/2021 4:30:00 AM 22.41 72.338 0.329 8.03 49.6 8.39
9/1/2021 4:45:00 AM 22.38 72.284 0.329 8.03 51.04 8.38
9/1/2021 5:00:00 AM 22.36 72.248 0.33 8.03 51.67 8.36
9/1/2021 5:15:00 AM 22.34 72.212 0.33 8.03 52.33 8.36
9/1/2021 5:30:00 AM 22.32 72.176 0.33 8.03 48.33 8.37
9/1/2021 5:45:00 AM 22.29 72.122 0.33 8.02 50.56 8.36
9/1/2021 6:00:00 AM 22.28 72.104 0.33 8.02 51.28 8.36
9/1/2021 6:15:00 AM 22.26 72.068 0.331 8.02 52.19 8.34
9/1/2021 6:30:00 AM 22.24 72.032 0.331 8.03 51.76 8.35
9/1/2021 6:45:00 AM 22.21 71.978 0.331 8.03 52.02 8.35
9/1/2021 7:00:00 AM 22.19 71.942 0.331 8.02 50.27 8.34
9/1/2021 7:15:00 AM 22.17 71.906 0.331 8.02 53.25 8.32
9/1/2021 7:30:00 AM 22.14 71.852 0.332 8.02 53.83 8.34
9/1/2021 7:45:00 AM 22.12 71.816 0.332 8.02 51.82 8.33
9/1/2021 8:00:00 AM 22.09 71.762 0.332 8.02 51.8 8.34
9/1/2021 8:15:00 AM 22.06 71.708 0.332 8.03 51.7 8.35
9/1/2021 8:30:00 AM 22.04 71.672 0.332 8.02 52.05 8.34
9/1/2021 8:45:00 AM 22.01 71.618 0.332 8.02 52.95 8.36
9/1/2021 9:00:00 AM 21.98 71.564 0.332 8.03 54.69 8.36
9/1/2021 9:15:00 AM 21.96 71.528 0.332 8.03 54.95 8.39
9/1/2021 9:30:00 AM 21.93 71.474 0.332 8.03 87.17 8.39
9/1/2021 9:45:00 AM 21.91 71.438 0.332 8.03 51.85 8.39
9/1/2021 10:00:00 AM 21.88 71.384 0.333 8.03 51.48 8.43
9/1/2021 10:15:00 AM 21.86 71.348 0.333 8.04 52.92 8.44
9/1/2021 10:30:00 AM 21.84 71.312 0.333 8.03 57 8.45
9/1/2021 10:45:00 AM 21.83 71.294 0.333 8.04 75.26 8.49
9/1/2021 11:00:00 AM 21.81 71.258 0.333 8.04 58.95 8.52
9/1/2021 11:15:00 AM 21.79 71.222 0.333 8.05 53.83 8.54
9/1/2021 11:30:00 AM 21.78 71.204 0.333 8.05 57.63 8.57
9/1/2021 11:45:00 AM 21.76 71.168 0.332 8.04 65.08 8.59
9/1/2021 12:00:00 PM 21.73 71.114 0.332 8.05 61.78 8.62
9/1/2021 12:15:00 PM 21.71 71.078 0.332 8.06 54.86 8.64
9/1/2021 12:30:00 PM 21.69 71.042 0.332 8.05 53.9 8.65
9/1/2021 12:45:00 PM 21.67 71.006 0.332 8.07 55.59 8.7
9/1/2021 1:00:00 PM 21.65 70.97 0.332 8.05 53.47 8.7
9/1/2021 1:15:00 PM 21.62 70.916 0.332 8.07 53.28 8.71
9/1/2021 1:30:00 PM 21.6 70.88 0.332 8.07 55.37 8.72
9/1/2021 1:45:00 PM 21.58 70.844 0.332 8.06 56.6 8.73
9/1/2021 2:00:00 PM 21.55 70.79 0.332 8.07 55.25 8.76
9/1/2021 2:15:00 PM 21.52 70.736 0.332 8.07 55.3 8.76
9/1/2021 2:30:00 PM 21.5 70.7 0.332 8.07 55.6 8.77
9/1/2021 2:45:00 PM 21.47 70.646 0.332 8.08 55.67 8.79
9/1/2021 3:00:00 PM 21.44 70.592 0.331 8.07 57.31 8.79
9/1/2021 3:15:00 PM 21.41 70.538 0.331 8.08 53.76 8.8
9/1/2021 3:30:00 PM 21.38 70.484 0.331 8.08 56.16 8.81
9/1/2021 3:45:00 PM 21.35 70.43 0.331 8.08 59.22 8.8
9/1/2021 4:00:00 PM 21.31 70.358 0.331 8.07 56.98 8.8
9/1/2021 4:15:00 PM 21.27 70.286 0.331 8.08 60.53 8.81
9/1/2021 4:30:00 PM 21.23 70.214 0.331 8.08 56.84 8.82
9/1/2021 4:45:00 PM 21.2 70.16 0.331 8.08 56.56 8.82
9/1/2021 5:00:00 PM 21.16 70.088 0.331 8.08 88.57 8.82
9/1/2021 5:15:00 PM 21.13 70.034 0.331 8.07 57.92 8.8
9/1/2021 5:30:00 PM 21.09 69.962 0.331 8.06 60.59 8.81
9/1/2021 5:45:00 PM 21.05 69.89 0.332 8.07 60.65 8.8
9/1/2021 6:00:00 PM 21.02 69.836 0.332 8.05 62.52 8.78
9/1/2021 6:15:00 PM 20.99 69.782 0.332 8.06 59.33 8.77
9/1/2021 6:30:00 PM 20.96 69.728 0.332 8.04 62.31 8.76
9/1/2021 6:45:00 PM 20.93 69.674 0.332 8.04 59.76 8.74
9/1/2021 7:00:00 PM 20.9 69.62 0.333 8.03 59.55 8.73
9/1/2021 7:15:00 PM 20.86 69.548 0.333 8.02 60.18 8.72
9/1/2021 7:30:00 PM 20.84 69.512 0.333 8.02 58.51 8.7
9/1/2021 7:45:00 PM 20.8 69.44 0.333 8 61.12 8.68
9/1/2021 8:00:00 PM 20.77 69.386 0.333 8.01 59.02 8.67
9/1/2021 8:15:00 PM 20.74 69.332 0.334 8 60.62 8.66
9/1/2021 8:30:00 PM 20.72 69.296 0.334 8 60.25 8.65
9/1/2021 8:45:00 PM 20.69 69.242 0.334 7.99 61.57 8.65
9/1/2021 9:00:00 PM 20.67 69.206 0.334 8 60.9 8.65
9/1/2021 9:15:00 PM 20.65 69.17 0.334 7.99 61.18 8.64
9/1/2021 9:30:00 PM 20.62 69.116 0.335 8 92.15 8.64
9/1/2021 9:45:00 PM 20.59 69.062 0.335 8 79.95 8.63
9/1/2021 10:00:00 PM 20.55 68.99 0.335 7.99 74.48 8.64
9/1/2021 10:15:00 PM 20.52 68.936 0.335 8 68.05 8.65
9/1/2021 10:30:00 PM 20.48 68.864 0.334 7.99 69.54 8.65
9/1/2021 10:45:00 PM 20.44 68.792 0.334 8 68.31 8.66
9/1/2021 11:00:00 PM 20.39 68.702 0.334 8 66.35 8.66
9/1/2021 11:15:00 PM 20.35 68.63 0.334 8 69.3 8.67
9/1/2021 11:30:00 PM 20.31 68.558 0.334 8 76.66 8.67
9/1/2021 11:45:00 PM 20.26 68.468 0.334 8.01 70.27 8.68
9/2/2021 12:00:00 AM 20.22 68.396 0.334 7.99 68.96 8.68
9/2/2021 12:15:00 AM 20.18 68.324 0.335 8.01 70.86 8.68
9/2/2021 12:30:00 AM 20.13 68.234 0.335 8.01 71.17 8.7
9/2/2021 12:45:00 AM 20.09 68.162 0.335 8 71.11 8.7
9/2/2021 1:00:00 AM 20.04 68.07201 0.335 8 71.45 8.7
9/2/2021 1:15:00 AM 20 68 0.335 8.01 70.27 8.7
9/2/2021 1:30:00 AM 19.95 67.91 0.335 8.02 69.02 8.72
9/2/2021 1:45:00 AM 19.91 67.838 0.335 8.02 70.28 8.73
9/2/2021 2:00:00 AM 19.86 67.748 0.336 8.02 71.08 8.74
9/2/2021 2:15:00 AM 19.81 67.658 0.336 8.02 70.27 8.74
9/2/2021 2:30:00 AM 19.76 67.568 0.336 8.02 73.16 8.75
9/2/2021 2:45:00 AM 19.71 67.478 0.336 8.02 69.87 8.75
9/2/2021 3:00:00 AM 19.67 67.406 0.336 8.02 69.52 8.75
9/2/2021 3:15:00 AM 19.61 67.298 0.336 8.02 71.09 8.76
9/2/2021 3:30:00 AM 19.56 67.208 0.337 8.01 70.06 8.77
9/2/2021 3:45:00 AM 19.51 67.118 0.337 8.01 68.55 8.77
9/2/2021 4:00:00 AM 19.46 67.028 0.337 8.01 68.47 8.77
9/2/2021 4:15:00 AM 19.41 66.938 0.337 8.02 67.68 8.78
9/2/2021 4:30:00 AM 19.36 66.848 0.337 8.02 70.35 8.79
9/2/2021 4:45:00 AM 19.31 66.758 0.336 8.02 69.58 8.79
9/2/2021 5:00:00 AM 19.26 66.668 0.336 8.02 70.31 8.8
9/2/2021 5:15:00 AM 19.21 66.578 0.336 8.02 74.33 8.81
9/2/2021 5:30:00 AM 19.16 66.488 0.336 8.01 69.55 8.8
9/2/2021 5:45:00 AM 19.1 66.38 0.336 8.02 68.37 8.81
9/2/2021 6:00:00 AM 19.05 66.29 0.336 8.02 69.39 8.82
9/2/2021 6:15:00 AM 19 66.2 0.336 8.02 71.91 8.84
9/2/2021 6:30:00 AM 18.95 66.11 0.336 8.03 67.68 8.85
9/2/2021 6:45:00 AM 18.9 66.02 0.336 8.02 69.19 8.87
9/2/2021 7:00:00 AM 18.86 65.948 0.336 8.03 69.56 8.86
9/2/2021 7:15:00 AM 18.82 65.876 0.336 8.02 69.15 8.88
9/2/2021 7:30:00 AM 18.79 65.82201 0.336 8.04 68.22 8.91
9/2/2021 7:45:00 AM 18.76 65.768 0.336 8.04 70.34 8.93
9/2/2021 8:00:00 AM 18.74 65.732 0.336 8.04 69.29 8.94
9/2/2021 8:15:00 AM 18.73 65.714 0.336 8.04 65.35 8.98
9/2/2021 8:30:00 AM 18.74 65.732 0.336 8.05 67.42 9.02